Darstellungsparameter: Aktuell verwendete Einstellungen:
Skalierung der Graphiken ... ?
xyx+y,   Skalierungsfaktor:      Skalierung: Modus: x, Faktor: 1
Darstellungszeitraum ... ?
Vom - - bis: - -   Zeitraum: 02.04.2007 - 22.04.2007
Min/Max/Avg-Anzeige ... ?
Zeige MMA aktuell
Zeige MMA Monat
Zeige MMA alles
Zeige --A aktuell
Zeige --A Monat
Zeige --A alles
Keine MMA-Anzeige
MMA:
Average (ber die Originaldaten)
MMA-Basis: 02.04.2007 - 22.04.2007
Quicknavigation für Darstellung... ?
Tage:      1T, 2T, 3T, 5T -1T -2T -3T -5T +1T +2T +3T +5T
Wochen: 1W, 2W, 3W -1W -2W -3W +1W +2W +3W
Monate: 1M, 3M, 6M -1M -3M -6M +1M +3M +6M
Jahre:    1J, 3J, 5J, 10J -1J -3J -5J -10J +1J +3J +5J +10J
Nutze für die Darstellung ... ?
Originaldaten oder Mittelwerte auf ...
Stundenbasis Tagesbasis Wochenbasis
Monatsbasis Jahresbasis      Datenbasis: Original-Daten
Darstellen als:
Statistik (Auto) Statistik J:M      Darstellung:
Zur Graphik,    zurück zur Übersicht aller Sensoren.
 
Tabellarische Datenbersicht: ?
 
Sensor: Nr:Datum:Temp:Abs-Feuchte:Windchill:Wind:
Aussen-T/F 1 02-04-2007 00:00:01 12.2 C 3.99 g/m*3 12.2 C 0 km/h
2 02-04-2007 00:05:02 12.2 C 3.88 g/m*3 12.2 C 0 km/h
3 02-04-2007 00:10:02 12.1 C 3.97 g/m*3 12.1 C 0 km/h
4 02-04-2007 00:15:02 12.2 C 3.99 g/m*3 12.2 C 0 km/h
5 02-04-2007 00:20:02 12 C 3.94 g/m*3 12 C 0 km/h
6 02-04-2007 00:25:03 11.9 C 4.13 g/m*3 11.9 C 0 km/h
7 02-04-2007 00:30:03 11.9 C 4.24 g/m*3 11.9 C 0 km/h
8 02-04-2007 00:35:02 11.7 C 4.08 g/m*3 11.7 C 0 km/h
9 02-04-2007 00:40:02 11.6 C 4.16 g/m*3 11.6 C 0 km/h
10 02-04-2007 00:45:02 11.5 C 4.13 g/m*3 11.5 C 0 km/h
11 02-04-2007 00:50:02 11.4 C 4.11 g/m*3 11.4 C 0 km/h
12 02-04-2007 00:55:02 11.3 C 4.08 g/m*3 11.3 C 0 km/h
13 02-04-2007 01:00:02 11.3 C 4.08 g/m*3 11.3 C 0 km/h
14 02-04-2007 01:05:03 11.3 C 4.08 g/m*3 11.3 C 0 km/h
15 02-04-2007 01:10:03 11.3 C 4.08 g/m*3 11.3 C 0 km/h
16 02-04-2007 01:15:02 11.1 C 4.13 g/m*3 11.1 C 0 km/h
17 02-04-2007 01:20:02 11.1 C 4.03 g/m*3 11.1 C 0 km/h
18 02-04-2007 01:25:02 11 C 4.1 g/m*3 11 C 0 km/h
19 02-04-2007 01:30:02 10.9 C 4.18 g/m*3 10.9 C 0 km/h
20 02-04-2007 01:35:02 10.9 C 4.18 g/m*3 10.9 C 0 km/h
21 02-04-2007 01:40:02 10.8 C 4.25 g/m*3 10.8 C 0 km/h
22 02-04-2007 01:45:02 10.7 C 4.13 g/m*3 10.7 C 0 km/h
23 02-04-2007 01:50:02 10.7 C 4.03 g/m*3 10.7 C 0 km/h
24 02-04-2007 01:55:02 10.7 C 4.13 g/m*3 10.7 C 0 km/h
25 02-04-2007 02:00:03 10.6 C 4.1 g/m*3 10.6 C 0 km/h
Sensor: Nr:Datum:Temp:Abs-Feuchte:Windchill:Wind:
Aussen-T/F 26 02-04-2007 02:05:02 10.6 C 4.1 g/m*3 10.6 C 0 km/h
27 02-04-2007 02:10:02 10.5 C 3.98 g/m*3 10.5 C 0 km/h
28 02-04-2007 02:15:03 10.6 C 4 g/m*3 10.6 C 0 km/h
29 02-04-2007 02:20:03 10.6 C 4 g/m*3 10.6 C 0 km/h
30 02-04-2007 02:25:03 10.5 C 3.98 g/m*3 10.5 C 0 km/h
31 02-04-2007 02:30:03 10.5 C 3.98 g/m*3 10.5 C 0 km/h
32 02-04-2007 02:35:02 10.5 C 3.98 g/m*3 10.5 C 0 km/h
33 02-04-2007 02:40:02 10.5 C 3.98 g/m*3 10.5 C 0 km/h
34 02-04-2007 02:46:03 10.4 C 3.95 g/m*3 10.4 C 0 km/h
35 02-04-2007 02:51:03 10.3 C 4.02 g/m*3 10.3 C 0 km/h
36 02-04-2007 02:56:03 10.2 C 4 g/m*3 10.2 C 0 km/h
37 02-04-2007 03:01:03 10.1 C 3.97 g/m*3 10.1 C 0 km/h
38 02-04-2007 03:06:03 10.1 C 3.97 g/m*3 10.1 C 0 km/h
39 02-04-2007 03:11:04 9.9 C 4.01 g/m*3 9.9 C 0 km/h
40 02-04-2007 03:16:04 9.8 C 4.08 g/m*3 9.8 C 0 km/h
41 02-04-2007 03:21:04 9.8 C 4.08 g/m*3 9.8 C 0 km/h
42 02-04-2007 03:26:04 9.7 C 3.96 g/m*3 9.7 C 0 km/h
43 02-04-2007 03:31:02 9.7 C 3.96 g/m*3 9.7 C 0 km/h
44 02-04-2007 03:36:02 9.7 C 4.06 g/m*3 9.7 C 0 km/h
45 02-04-2007 03:41:02 9.7 C 3.96 g/m*3 9.7 C 0 km/h
46 02-04-2007 03:46:03 9.7 C 3.96 g/m*3 9.7 C 0 km/h
47 02-04-2007 03:51:03 9.7 C 3.96 g/m*3 9.7 C 0 km/h
48 02-04-2007 03:56:03 9.7 C 3.96 g/m*3 9.7 C 0 km/h
49 02-04-2007 04:01:02 9.7 C 3.87 g/m*3 9.7 C 0 km/h
50 02-04-2007 04:06:02 9.8 C 3.9 g/m*3 9.8 C 0 km/h
Sensor: Nr:Datum:Temp:Abs-Feuchte:Windchill:Wind:
Aussen-T/F 51 02-04-2007 04:11:02 9.8 C 3.9 g/m*3 9.8 C 0 km/h
52 02-04-2007 04:16:03 9.9 C 3.83 g/m*3 9.9 C 0 km/h
53 02-04-2007 04:21:03 9.6 C 4.12 g/m*3 9.6 C 0 km/h
54 02-04-2007 04:26:03 9.2 C 4.11 g/m*3 9.2 C 0 km/h
55 02-04-2007 04:31:02 9.1 C 4.08 g/m*3 9.1 C 0 km/h
56 02-04-2007 04:36:02 8.9 C 4.12 g/m*3 8.9 C 0 km/h
57 02-04-2007 04:41:03 8.9 C 4.03 g/m*3 8.9 C 0 km/h
58 02-04-2007 04:46:02 8.8 C 4 g/m*3 8.8 C 0 km/h
59 02-04-2007 04:51:02 8.7 C 4.06 g/m*3 8.7 C 0 km/h
60 02-04-2007 04:56:02 8.6 C 4.21 g/m*3 8.6 C 0 km/h
61 02-04-2007 05:01:01 8.4 C 4.16 g/m*3 8.4 C 0 km/h
62 02-04-2007 05:06:01 8.2 C 4.19 g/m*3 8.2 C 0 km/h
63 02-04-2007 05:11:01 8.1 C 4.16 g/m*3 8.1 C 0 km/h
64 02-04-2007 05:16:02 8.2 C 4.19 g/m*3 8.2 C 0 km/h
65 02-04-2007 05:21:02 8.1 C 4.08 g/m*3 8.1 C 0 km/h
66 02-04-2007 05:26:02 8 C 4.13 g/m*3 8 C 0 km/h
67 02-04-2007 05:31:02 7.8 C 4.24 g/m*3 7.8 C 0 km/h
68 02-04-2007 05:36:02 7.7 C 4.3 g/m*3 7.7 C 0 km/h
69 02-04-2007 05:41:02 7.6 C 4.35 g/m*3 7.6 C 0 km/h
70 02-04-2007 05:46:01 7.5 C 4.32 g/m*3 7.5 C 0 km/h
71 02-04-2007 05:51:01 7.5 C 4.32 g/m*3 7.5 C 0 km/h
72 02-04-2007 05:56:01 7.5 C 4.32 g/m*3 7.5 C 0 km/h
73 02-04-2007 06:01:02 7.3 C 4.27 g/m*3 7.3 C 0 km/h
74 02-04-2007 06:06:02 7.3 C 4.35 g/m*3 7.3 C 0 km/h
75 02-04-2007 06:11:02 7.1 C 4.37 g/m*3 7.1 C 0 km/h
Sensor: Nr:Datum:Temp:Abs-Feuchte:Windchill:Wind:
Aussen-T/F 76 02-04-2007 06:16:02 7 C 4.34 g/m*3 7 C 0 km/h
77 02-04-2007 06:21:02 7 C 4.34 g/m*3 7 C 0 km/h
78 02-04-2007 06:26:02 6.8 C 4.36 g/m*3 6.8 C 0 km/h
79 02-04-2007 06:31:02 6.7 C 4.41 g/m*3 6.7 C 0 km/h
80 02-04-2007 06:36:02 6.7 C 4.56 g/m*3 6.7 C 0 km/h
81 02-04-2007 06:41:02 6.7 C 4.56 g/m*3 6.7 C 0 km/h
82 02-04-2007 06:46:03 6.6 C 4.53 g/m*3 6.6 C 0 km/h
83 02-04-2007 06:51:03 6.4 C 4.47 g/m*3 6.4 C 0 km/h
84 02-04-2007 06:56:03 6.4 C 4.47 g/m*3 6.4 C 0 km/h
85 02-04-2007 07:01:02 6.2 C 4.41 g/m*3 6.2 C 0 km/h
86 02-04-2007 07:06:02 6.2 C 4.49 g/m*3 6.2 C 0 km/h
87 02-04-2007 07:11:02 6.1 C 4.46 g/m*3 6.1 C 0 km/h
88 02-04-2007 07:16:02 6 C 4.43 g/m*3 6 C 0 km/h
89 02-04-2007 07:21:02 6 C 4.5 g/m*3 6 C 0 km/h
90 02-04-2007 07:26:03 6 C 4.5 g/m*3 6 C 0 km/h
91 02-04-2007 07:31:02 5.9 C 4.54 g/m*3 5.9 C 0 km/h
92 02-04-2007 07:36:02 5.9 C 4.54 g/m*3 5.9 C 0 km/h
93 02-04-2007 07:41:02 5.8 C 4.51 g/m*3 5.8 C 0 km/h
94 02-04-2007 07:46:02 5.9 C 4.61 g/m*3 5.9 C 0 km/h
95 02-04-2007 07:51:02 5.9 C 4.61 g/m*3 5.9 C 0 km/h
96 02-04-2007 07:56:02 5.9 C 4.69 g/m*3 5.9 C 0 km/h
97 02-04-2007 08:01:01 6 C 4.72 g/m*3 6 C 0 km/h
98 02-04-2007 08:06:01 6 C 4.72 g/m*3 6 C 0 km/h
99 02-04-2007 08:11:01 6 C 4.65 g/m*3 6 C 0 km/h
100 02-04-2007 08:16:01 6.1 C 4.68 g/m*3 6.1 C 0 km/h
Sensor: Nr:Datum:Temp:Abs-Feuchte:Windchill:Wind:
Aussen-T/F 101 02-04-2007 08:21:01 6 C 4.65 g/m*3 6 C 0 km/h
102 02-04-2007 08:26:01 6 C 4.72 g/m*3 6 C 0 km/h
103 02-04-2007 08:31:02 6.1 C 4.75 g/m*3 6.1 C 0 km/h
104 02-04-2007 08:36:02 6.2 C 4.78 g/m*3 6.2 C 0 km/h
105 02-04-2007 08:41:02 6.2 C 4.78 g/m*3 6.2 C 0 km/h
106 02-04-2007 08:46:02 6.3 C 4.81 g/m*3 6.3 C 0 km/h
107 02-04-2007 08:51:02 6.3 C 4.81 g/m*3 6.3 C 0 km/h
108 02-04-2007 08:56:02 6.4 C 4.84 g/m*3 6.4 C 0 km/h
109 02-04-2007 09:01:02 6.6 C 4.91 g/m*3 6.6 C 0 km/h
110 02-04-2007 09:06:02 6.6 C 4.91 g/m*3 6.6 C 0 km/h
111 02-04-2007 09:11:02 6.8 C 4.89 g/m*3 6.8 C 0 km/h
112 02-04-2007 09:16:02 6.9 C 4.93 g/m*3 6.9 C 0 km/h
113 02-04-2007 09:21:02 7 C 4.88 g/m*3 7 C 0 km/h
114 02-04-2007 09:26:02 7.2 C 4.95 g/m*3 7.2 C 0 km/h
115 02-04-2007 09:31:02 7.3 C 4.9 g/m*3 7.3 C 0 km/h
116 02-04-2007 09:36:02 7.5 C 4.96 g/m*3 7.5 C 0 km/h
117 02-04-2007 09:41:02 7.6 C 4.99 g/m*3 7.6 C 0 km/h
118 02-04-2007 09:46:02 7.9 C 5.09 g/m*3 7.9 C 0 km/h
119 02-04-2007 09:51:02 8.2 C 5.02 g/m*3 8.2 C 0 km/h
120 02-04-2007 09:56:02 8.5 C 5.12 g/m*3 8.5 C 0 km/h
121 02-04-2007 10:01:02 8.8 C 5.14 g/m*3 8.8 C 0 km/h
122 02-04-2007 10:06:02 9 C 5.03 g/m*3 9 C 0 km/h
123 02-04-2007 10:11:02 9.4 C 5.06 g/m*3 9.4 C 0 km/h
124 02-04-2007 10:16:02 9.7 C 5.07 g/m*3 9.7 C 0 km/h
125 02-04-2007 10:21:02 10.1 C 5.01 g/m*3 10.1 C 0 km/h
Sensor: Nr:Datum:Temp:Abs-Feuchte:Windchill:Wind:
Aussen-T/F 126 02-04-2007 10:26:02 10.5 C 4.95 g/m*3 10.5 C 0 km/h
127 02-04-2007 10:31:02 10.7 C 5.01 g/m*3 10.7 C 0 km/h
128 02-04-2007 10:36:02 11 C 5 g/m*3 11 C 0 km/h
129 02-04-2007 10:41:02 11.2 C 4.76 g/m*3 11.2 C 0 km/h
130 02-04-2007 10:46:03 11.4 C 4.72 g/m*3 11.4 C 0 km/h
131 02-04-2007 10:51:03 11.6 C 4.68 g/m*3 11.6 C 0 km/h
132 02-04-2007 10:56:03 12 C 4.69 g/m*3 12 C 0 km/h
133 02-04-2007 11:01:02 12.2 C 4.53 g/m*3 12.2 C 0 km/h
134 02-04-2007 11:06:02 12.5 C 4.62 g/m*3 12.5 C 0 km/h
135 02-04-2007 11:11:02 12.9 C 4.51 g/m*3 12.9 C 0 km/h
136 02-04-2007 11:16:02 13 C 4.54 g/m*3 13 C 0 km/h
137 02-04-2007 11:21:02 13.2 C 4.36 g/m*3 13.2 C 0 km/h
138 02-04-2007 11:26:02 13 C 4.2 g/m*3 13 C 0 km/h
139 02-04-2007 11:31:02 13.3 C 4.62 g/m*3 13.3 C 0 km/h
140 02-04-2007 11:36:02 13.5 C 4.56 g/m*3 13.5 C 0 km/h
141 02-04-2007 11:41:02 13.7 C 4.5 g/m*3 13.7 C 0 km/h
142 02-04-2007 11:46:02 13.9 C 4.56 g/m*3 13.9 C 0 km/h
143 02-04-2007 11:51:02 13.9 C 4.44 g/m*3 13.9 C 0 km/h
144 02-04-2007 11:56:02 14.2 C 4.4 g/m*3 14.2 C 0 km/h
145 02-04-2007 12:01:01 14.4 C 4.45 g/m*3 14.4 C 0 km/h
146 02-04-2007 12:06:01 14.7 C 4.41 g/m*3 14.7 C 0 km/h
147 02-04-2007 12:11:01 14.9 C 4.46 g/m*3 14.9 C 0 km/h
148 02-04-2007 12:16:01 15.1 C 4.39 g/m*3 15.1 C 0 km/h
149 02-04-2007 12:21:01 15.3 C 4.31 g/m*3 15.3 C 0 km/h
150 02-04-2007 12:26:01 15.4 C 4.2 g/m*3 15.4 C 0 km/h
Sensor: Nr:Datum:Temp:Abs-Feuchte:Windchill:Wind:
Aussen-T/F 151 02-04-2007 12:31:02 15.7 C 4.15 g/m*3 15.7 C 0 km/h
152 02-04-2007 12:36:02 16 C 4.36 g/m*3 16 C 0 km/h
153 02-04-2007 12:41:02 16.2 C 4.27 g/m*3 16.2 C 0 km/h
154 02-04-2007 12:46:02 16.5 C 4.21 g/m*3 16.5 C 0 km/h
155 02-04-2007 12:51:02 16.7 C 4.26 g/m*3 16.7 C 0 km/h
156 02-04-2007 12:56:02 16.8 C 4.29 g/m*3 16.8 C 0 km/h
157 02-04-2007 13:01:02 17 C 4.34 g/m*3 17 C 0 km/h
158 02-04-2007 13:06:02 17.2 C 4.1 g/m*3 17.2 C 0 km/h
159 02-04-2007 13:11:02 17.4 C 4.15 g/m*3 17.4 C 0 km/h
160 02-04-2007 13:16:03 17.7 C 4.22 g/m*3 17.7 C 0 km/h
161 02-04-2007 13:21:03 17.8 C 4.1 g/m*3 17.8 C 0 km/h
162 02-04-2007 13:26:03 18.1 C 4.02 g/m*3 18.1 C 0 km/h
163 02-04-2007 13:31:02 18.2 C 4.04 g/m*3 18.2 C 0 km/h
164 02-04-2007 13:36:02 18.6 C 3.98 g/m*3 18.6 C 0 km/h
165 02-04-2007 13:41:02 18.9 C 3.89 g/m*3 18.9 C 0 km/h
166 02-04-2007 13:46:01 19 C 3.75 g/m*3 19 C 0 km/h
167 02-04-2007 13:51:01 19.3 C 3.65 g/m*3 19.3 C 0 km/h
168 02-04-2007 13:56:01 19.8 C 3.59 g/m*3 19.8 C 0 km/h
169 02-04-2007 14:01:02 19.8 C 3.59 g/m*3 19.8 C 0 km/h
170 02-04-2007 14:06:02 20 C 3.46 g/m*3 20 C 0 km/h
171 02-04-2007 14:11:02 20 C 3.46 g/m*3 20 C 0 km/h
172 02-04-2007 14:16:02 20.3 C 3.52 g/m*3 20.3 C 0 km/h
173 02-04-2007 14:21:02 20.3 C 3.52 g/m*3 20.3 C 0 km/h
174 02-04-2007 14:26:02 20.8 C 3.62 g/m*3 20.8 C 0 km/h
175 02-04-2007 14:31:02 21.3 C 3.73 g/m*3 21.3 C 0 km/h
Sensor: Nr:Datum:Temp:Abs-Feuchte:Windchill:Wind:
Aussen-T/F 176 02-04-2007 14:36:02 21.3 C 3.73 g/m*3 21.3 C 0 km/h
177 02-04-2007 14:41:03 22 C 3.88 g/m*3 22 C 0 km/h
178 02-04-2007 14:46:03 22.3 C 3.95 g/m*3 22.3 C 0 km/h
179 02-04-2007 14:51:03 22.1 C 3.9 g/m*3 22.1 C 0 km/h
180 02-04-2007 14:56:03 22.1 C 3.9 g/m*3 22.1 C 0 km/h
181 02-04-2007 15:01:02 22.1 C 3.9 g/m*3 22.1 C 0 km/h
182 02-04-2007 15:06:02 22.2 C 3.93 g/m*3 22.2 C 0 km/h
183 02-04-2007 15:11:02 22.2 C 3.93 g/m*3 22.2 C 0 km/h
184 02-04-2007 15:16:02 22.3 C 3.95 g/m*3 22.3 C 0 km/h
185 02-04-2007 15:21:02 22.8 C 4.06 g/m*3 22.8 C 0 km/h
186 02-04-2007 15:26:02 22.9 C 4.09 g/m*3 22.9 C 0 km/h
187 02-04-2007 15:31:02 23.2 C 4.16 g/m*3 23.2 C 0 km/h
188 02-04-2007 15:36:02 23.6 C 4.25 g/m*3 23.6 C 0 km/h
189 02-04-2007 15:41:02 23.7 C 4.28 g/m*3 23.7 C 0 km/h
190 02-04-2007 15:46:02 23.4 C 4.21 g/m*3 23.4 C 0 km/h
191 02-04-2007 15:51:02 22.4 C 3.97 g/m*3 22.4 C 0 km/h
192 02-04-2007 15:56:02 21.6 C 3.79 g/m*3 21.6 C 0 km/h
193 02-04-2007 16:01:02 21 C 3.66 g/m*3 21 C 0 km/h
194 02-04-2007 16:06:02 21.4 C 3.75 g/m*3 21.4 C 0 km/h
195 02-04-2007 16:11:02 21.8 C 3.84 g/m*3 21.8 C 0 km/h
196 02-04-2007 16:16:02 21.6 C 3.79 g/m*3 21.6 C 0 km/h
197 02-04-2007 16:21:02 21.1 C 3.69 g/m*3 21.1 C 0 km/h
198 02-04-2007 16:26:02 20.6 C 3.58 g/m*3 20.6 C 0 km/h
199 02-04-2007 16:31:03 20.5 C 3.56 g/m*3 20.5 C 0 km/h
200 02-04-2007 16:36:03 21.1 C 3.69 g/m*3 21.1 C 0 km/h
Sensor: Nr:Datum:Temp:Abs-Feuchte:Windchill:Wind:
Aussen-T/F 201 02-04-2007 16:41:03 21.7 C 3.82 g/m*3 21.7 C 0 km/h
202 02-04-2007 16:46:02 22 C 3.88 g/m*3 22 C 0 km/h
203 02-04-2007 16:51:02 22.2 C 3.93 g/m*3 22.2 C 0 km/h
204 02-04-2007 16:56:02 22.5 C 3.99 g/m*3 22.5 C 0 km/h
205 02-04-2007 17:01:02 22.7 C 4.04 g/m*3 22.7 C 0 km/h
206 02-04-2007 17:06:02 23 C 4.11 g/m*3 23 C 0 km/h
207 02-04-2007 17:11:02 23.2 C 4.16 g/m*3 23.2 C 0 km/h
208 02-04-2007 17:16:03 22.9 C 4.09 g/m*3 22.9 C 0 km/h
209 02-04-2007 17:21:03 22.9 C 4.09 g/m*3 22.9 C 0 km/h
210 02-04-2007 17:26:03 22.2 C 3.93 g/m*3 22.2 C 0 km/h
211 02-04-2007 17:31:02 21.4 C 3.75 g/m*3 21.4 C 0 km/h
212 02-04-2007 17:36:02 21.5 C 3.77 g/m*3 21.5 C 0 km/h
213 02-04-2007 17:41:02 21.7 C 3.82 g/m*3 21.7 C 0 km/h
214 02-04-2007 17:46:02 22 C 3.88 g/m*3 22 C 0 km/h
215 02-04-2007 17:51:02 22 C 3.88 g/m*3 22 C 0 km/h
216 02-04-2007 17:56:02 22.6 C 4.02 g/m*3 22.6 C 0 km/h
217 02-04-2007 18:01:02 22.5 C 3.99 g/m*3 22.5 C 0 km/h
218 02-04-2007 18:06:02 22.5 C 3.99 g/m*3 22.5 C 0 km/h
219 02-04-2007 18:11:02 22.5 C 3.99 g/m*3 22.5 C 0 km/h
220 02-04-2007 18:16:02 22.4 C 3.97 g/m*3 22.4 C 0 km/h
221 02-04-2007 18:21:02 22.1 C 3.9 g/m*3 22.1 C 0 km/h
222 02-04-2007 18:26:02 21.9 C 3.86 g/m*3 21.9 C 0 km/h
223 02-04-2007 18:31:02 21.8 C 3.84 g/m*3 21.8 C 0 km/h
224 02-04-2007 18:36:02 21.6 C 3.79 g/m*3 21.6 C 0 km/h
225 02-04-2007 18:41:02 21.6 C 3.79 g/m*3 21.6 C 0 km/h
Sensor: Nr:Datum:Temp:Abs-Feuchte:Windchill:Wind:
Aussen-T/F 226 02-04-2007 18:46:03 21.4 C 3.75 g/m*3 21.4 C 0 km/h
227 02-04-2007 18:51:03 21.1 C 3.69 g/m*3 21.1 C 0 km/h
228 02-04-2007 18:56:03 20.9 C 3.64 g/m*3 20.9 C 0 km/h
229 02-04-2007 19:01:02 20.3 C 3.52 g/m*3 20.3 C 0 km/h
230 02-04-2007 19:06:02 19.9 C 3.44 g/m*3 19.9 C 0 km/h
231 02-04-2007 19:11:02 19.6 C 3.55 g/m*3 19.6 C 0 km/h
232 02-04-2007 19:16:02 19.5 C 3.52 g/m*3 19.5 C 0 km/h
233 02-04-2007 19:21:02 19.3 C 3.48 g/m*3 19.3 C 0 km/h
234 02-04-2007 19:26:02 18.9 C 3.73 g/m*3 18.9 C 0 km/h
235 02-04-2007 19:31:02 18.8 C 3.7 g/m*3 18.8 C 0 km/h
236 02-04-2007 19:36:02 18.5 C 4.11 g/m*3 18.5 C 0 km/h
237 02-04-2007 19:41:02 18 C 3.99 g/m*3 18 C 0 km/h
238 02-04-2007 19:46:02 17.9 C 4.12 g/m*3 17.9 C 0 km/h
239 02-04-2007 19:51:02 17.5 C 4.17 g/m*3 17.5 C 0 km/h
240 02-04-2007 19:56:02 17.1 C 4.22 g/m*3 17.1 C 0 km/h
241 02-04-2007 20:01:02 17 C 4.2 g/m*3 17 C 0 km/h
242 02-04-2007 20:06:02 16.6 C 4.24 g/m*3 16.6 C 0 km/h
243 02-04-2007 20:11:02 16.3 C 4.16 g/m*3 16.3 C 0 km/h
244 02-04-2007 20:16:02 16.1 C 4.11 g/m*3 16.1 C 0 km/h
245 02-04-2007 20:21:02 16 C 4.09 g/m*3 16 C 0 km/h
246 02-04-2007 20:26:02 15.8 C 4.17 g/m*3 15.8 C 0 km/h
247 02-04-2007 20:31:02 15.6 C 4.26 g/m*3 15.6 C 0 km/h
248 02-04-2007 20:36:02 15.4 C 4.2 g/m*3 15.4 C 0 km/h
249 02-04-2007 20:41:02 15.4 C 4.2 g/m*3 15.4 C 0 km/h
250 02-04-2007 20:46:02 15.3 C 4.18 g/m*3 15.3 C 0 km/h
Sensor: Nr:Datum:Temp:Abs-Feuchte:Windchill:Wind:
Aussen-T/F 251 02-04-2007 20:51:02 15.2 C 4.28 g/m*3 15.2 C 0 km/h
252 02-04-2007 20:56:02 15 C 4.36 g/m*3 15 C 0 km/h
253 02-04-2007 21:01:03 14.7 C 4.41 g/m*3 14.7 C 0 km/h
254 02-04-2007 21:06:03 14.6 C 4.38 g/m*3 14.6 C 0 km/h
255 02-04-2007 21:11:03 14.4 C 4.33 g/m*3 14.4 C 0 km/h
256 02-04-2007 21:16:02 14.1 C 4.25 g/m*3 14.1 C 0 km/h
257 02-04-2007 21:21:02 14 C 4.34 g/m*3 14 C 0 km/h
258 02-04-2007 21:26:02 13.9 C 4.44 g/m*3 13.9 C 0 km/h
259 02-04-2007 21:31:02 13.6 C 4.47 g/m*3 13.6 C 0 km/h
260 02-04-2007 21:36:02 13.5 C 4.44 g/m*3 13.5 C 0 km/h
261 02-04-2007 21:41:02 13.4 C 4.42 g/m*3 13.4 C 0 km/h
262 02-04-2007 21:46:02 13.2 C 4.36 g/m*3 13.2 C 0 km/h
263 02-04-2007 21:51:02 13.1 C 4.45 g/m*3 13.1 C 0 km/h
264 02-04-2007 21:56:02 13.1 C 4.34 g/m*3 13.1 C 0 km/h
265 02-04-2007 22:01:02 13 C 4.54 g/m*3 13 C 0 km/h
266 02-04-2007 22:06:02 13 C 4.54 g/m*3 13 C 0 km/h
267 02-04-2007 22:11:02 12.8 C 4.59 g/m*3 12.8 C 0 km/h
268 02-04-2007 22:16:02 12.8 C 4.59 g/m*3 12.8 C 0 km/h
269 02-04-2007 22:21:02 12.6 C 4.65 g/m*3 12.6 C 0 km/h
270 02-04-2007 22:26:02 12.5 C 4.51 g/m*3 12.5 C 0 km/h
271 02-04-2007 22:31:02 12.5 C 4.51 g/m*3 12.5 C 0 km/h
272 02-04-2007 22:36:02 12.6 C 4.65 g/m*3 12.6 C 0 km/h
273 02-04-2007 22:41:02 12.6 C 4.65 g/m*3 12.6 C 0 km/h
274 02-04-2007 22:46:02 12.5 C 4.62 g/m*3 12.5 C 0 km/h
275 02-04-2007 22:51:02 12.4 C 4.7 g/m*3 12.4 C 0 km/h
Sensor: Nr:Datum:Temp:Abs-Feuchte:Windchill:Wind:
Aussen-T/F 276 02-04-2007 22:56:02 12.4 C 4.81 g/m*3 12.4 C 0 km/h
277 02-04-2007 23:01:02 12.2 C 4.64 g/m*3 12.2 C 0 km/h
278 02-04-2007 23:06:02 12.1 C 4.83 g/m*3 12.1 C 0 km/h
279 02-04-2007 23:11:02 12.1 C 4.83 g/m*3 12.1 C 0 km/h
280 02-04-2007 23:16:02 12.1 C 4.72 g/m*3 12.1 C 0 km/h
281 02-04-2007 23:21:02 11.9 C 4.77 g/m*3 11.9 C 0 km/h
282 02-04-2007 23:26:02 11.7 C 4.81 g/m*3 11.7 C 0 km/h
283 02-04-2007 23:31:02 11.7 C 4.92 g/m*3 11.7 C 0 km/h
284 02-04-2007 23:36:03 11.7 C 4.92 g/m*3 11.7 C 0 km/h
285 02-04-2007 23:41:03 11.5 C 4.96 g/m*3 11.5 C 0 km/h
286 02-04-2007 23:46:02 11.4 C 4.82 g/m*3 11.4 C 0 km/h
287 02-04-2007 23:51:02 11.4 C 4.93 g/m*3 11.4 C 0 km/h
288 02-04-2007 23:56:02 11.2 C 4.97 g/m*3 11.2 C 0 km/h
289 03-04-2007 00:01:03 11.1 C 4.94 g/m*3 11.1 C 0 km/h
290 03-04-2007 00:06:03 11.1 C 4.94 g/m*3 11.1 C 0 km/h
291 03-04-2007 00:11:03 11.1 C 4.94 g/m*3 11.1 C 0 km/h
292 03-04-2007 00:16:03 11.1 C 4.94 g/m*3 11.1 C 0 km/h
293 03-04-2007 00:21:03 11 C 5 g/m*3 11 C 0 km/h
294 03-04-2007 00:26:03 11.1 C 5.14 g/m*3 11.1 C 0 km/h
295 03-04-2007 00:31:02 11 C 5.1 g/m*3 11 C 0 km/h
296 03-04-2007 00:36:02 10.7 C 5.11 g/m*3 10.7 C 0 km/h
297 03-04-2007 00:41:02 10.6 C 4.98 g/m*3 10.6 C 0 km/h
298 03-04-2007 00:46:03 10.6 C 5.17 g/m*3 10.6 C 0 km/h
299 03-04-2007 00:51:03 10.7 C 5.01 g/m*3 10.7 C 0 km/h
300 03-04-2007 00:56:03 10.6 C 5.08 g/m*3 10.6 C 0 km/h
Sensor: Nr:Datum:Temp:Abs-Feuchte:Windchill:Wind:
Aussen-T/F 301 03-04-2007 01:01:02 10.4 C 5.01 g/m*3 10.4 C 0 km/h
302 03-04-2007 01:06:02 10.1 C 5.01 g/m*3 10.1 C 0 km/h
303 03-04-2007 01:11:02 9.9 C 5.04 g/m*3 9.9 C 0 km/h
304 03-04-2007 01:16:03 9.8 C 5.01 g/m*3 9.8 C 0 km/h
305 03-04-2007 01:21:03 9.6 C 5.04 g/m*3 9.6 C 0 km/h
306 03-04-2007 01:26:03 9.5 C 5.1 g/m*3 9.5 C 0 km/h
307 03-04-2007 01:31:03 9.5 C 5.1 g/m*3 9.5 C 0 km/h
308 03-04-2007 01:36:03 9.5 C 5.1 g/m*3 9.5 C 0 km/h
309 03-04-2007 01:41:03 9.6 C 5.13 g/m*3 9.6 C 0 km/h
310 03-04-2007 01:46:02 9.4 C 5.16 g/m*3 9.4 C 0 km/h
311 03-04-2007 01:51:02 9.3 C 5.12 g/m*3 9.3 C 0 km/h
312 03-04-2007 01:56:02 9.3 C 5.12 g/m*3 9.3 C 0 km/h
313 03-04-2007 02:01:01 9.3 C 5.12 g/m*3 9.3 C 0 km/h
314 03-04-2007 02:06:01 9.3 C 5.21 g/m*3 9.3 C 0 km/h
315 03-04-2007 02:11:01 9.1 C 5.32 g/m*3 9.1 C 0 km/h
316 03-04-2007 02:16:02 9.1 C 5.32 g/m*3 9.1 C 0 km/h
317 03-04-2007 02:21:03 9.2 C 5.27 g/m*3 9.2 C 0 km/h
318 03-04-2007 02:26:03 9.2 C 5.27 g/m*3 9.2 C 0 km/h
319 03-04-2007 02:31:02 9.2 C 5.27 g/m*3 9.2 C 0 km/h
320 03-04-2007 02:36:02 9.1 C 5.23 g/m*3 9.1 C 0 km/h
321 03-04-2007 02:41:02 9.1 C 5.23 g/m*3 9.1 C 0 km/h
322 03-04-2007 02:47:03 9.2 C 5.27 g/m*3 9.2 C 0 km/h
323 03-04-2007 02:52:03 9.2 C 5.27 g/m*3 9.2 C 0 km/h
324 03-04-2007 02:57:03 9.4 C 5.34 g/m*3 9.4 C 0 km/h
325 03-04-2007 03:02:03 9.4 C 5.34 g/m*3 9.4 C 0 km/h
Sensor: Nr:Datum:Temp:Abs-Feuchte:Windchill:Wind:
Aussen-T/F 326 03-04-2007 03:07:03 9.6 C 5.4 g/m*3 9.6 C 0 km/h
327 03-04-2007 03:12:04 9.6 C 5.4 g/m*3 9.6 C 0 km/h
328 03-04-2007 03:17:04 9.6 C 5.31 g/m*3 9.6 C 0 km/h
329 03-04-2007 03:22:04 9.6 C 5.4 g/m*3 9.6 C 0 km/h
330 03-04-2007 03:27:04 9.5 C 5.46 g/m*3 9.5 C 0 km/h
331 03-04-2007 03:32:02 9.3 C 5.39 g/m*3 9.3 C 0 km/h
332 03-04-2007 03:37:02 9.3 C 5.48 g/m*3 9.3 C 0 km/h
333 03-04-2007 03:42:02 9.3 C 5.48 g/m*3 9.3 C 0 km/h
334 03-04-2007 03:47:02 9.2 C 5.45 g/m*3 9.2 C 0 km/h
335 03-04-2007 03:52:02 9.1 C 5.5 g/m*3 9.1 C 0 km/h
336 03-04-2007 03:57:02 9 C 5.47 g/m*3 9 C 0 km/h
337 03-04-2007 04:02:02 9 C 5.47 g/m*3 9 C 0 km/h
338 03-04-2007 04:07:02 9 C 5.55 g/m*3 9 C 0 km/h
339 03-04-2007 04:12:02 9 C 5.55 g/m*3 9 C 0 km/h
340 03-04-2007 04:17:02 9 C 5.55 g/m*3 9 C 0 km/h
341 03-04-2007 04:22:02 9 C 5.55 g/m*3 9 C 0 km/h
342 03-04-2007 04:27:02 9 C 5.64 g/m*3 9 C 0 km/h
343 03-04-2007 04:32:02 9 C 5.64 g/m*3 9 C 0 km/h
344 03-04-2007 04:37:02 9 C 5.64 g/m*3 9 C 0 km/h
345 03-04-2007 04:42:02 8.9 C 5.78 g/m*3 8.9 C 0 km/h
346 03-04-2007 04:47:02 8.9 C 5.78 g/m*3 8.9 C 0 km/h
347 03-04-2007 04:52:02 8.8 C 5.74 g/m*3 8.8 C 0 km/h
348 03-04-2007 04:57:03 8.8 C 5.66 g/m*3 8.8 C 0 km/h
349 03-04-2007 05:02:02 8.7 C 5.71 g/m*3 8.7 C 0 km/h
350 03-04-2007 05:07:02 8.7 C 5.71 g/m*3 8.7 C 0 km/h
Sensor: Nr:Datum:Temp:Abs-Feuchte:Windchill:Wind:
Aussen-T/F 351 03-04-2007 05:12:02 8.8 C 5.66 g/m*3 8.8 C 0 km/h
352 03-04-2007 05:17:03 8.9 C 5.78 g/m*3 8.9 C 0 km/h
353 03-04-2007 05:22:03 8.9 C 5.69 g/m*3 8.9 C 0 km/h
354 03-04-2007 05:27:03 8.9 C 5.69 g/m*3 8.9 C 0 km/h
355 03-04-2007 05:32:02 8.9 C 5.69 g/m*3 8.9 C 0 km/h
356 03-04-2007 05:37:02 8.9 C 5.43 g/m*3 8.9 C 0 km/h
357 03-04-2007 05:42:03 8.9 C 5.52 g/m*3 8.9 C 0 km/h
358 03-04-2007 05:47:02 9.1 C 5.06 g/m*3 9.1 C 0 km/h
359 03-04-2007 05:52:02 9.3 C 4.94 g/m*3 9.3 C 0 km/h
360 03-04-2007 05:57:02 9.3 C 4.94 g/m*3 9.3 C 0 km/h
361 03-04-2007 06:02:02 9.4 C 4.7 g/m*3 9.4 C 0 km/h
362 03-04-2007 06:07:02 9.4 C 4.7 g/m*3 9.4 C 0 km/h
363 03-04-2007 06:12:02 9.4 C 4.61 g/m*3 9.4 C 0 km/h
364 03-04-2007 06:17:02 9.4 C 4.7 g/m*3 9.4 C 0 km/h
365 03-04-2007 06:22:02 9.3 C 4.67 g/m*3 9.3 C 0 km/h
366 03-04-2007 06:27:02 9.3 C 4.67 g/m*3 9.3 C 0 km/h
367 03-04-2007 06:32:03 9.2 C 4.64 g/m*3 9.2 C 0 km/h
368 03-04-2007 06:37:03 9.1 C 4.53 g/m*3 9.1 C 0 km/h
369 03-04-2007 06:42:03 9 C 4.58 g/m*3 9 C 0 km/h
370 03-04-2007 06:47:02 9 C 4.58 g/m*3 9 C 0 km/h
371 03-04-2007 06:52:02 8.9 C 4.64 g/m*3 8.9 C 0 km/h
372 03-04-2007 06:57:03 8.7 C 4.67 g/m*3 8.7 C 0 km/h
373 03-04-2007 07:02:02 8.6 C 4.73 g/m*3 8.6 C 0 km/h
374 03-04-2007 07:07:02 8.5 C 4.7 g/m*3 8.5 C 0 km/h
375 03-04-2007 07:12:02 8.4 C 4.75 g/m*3 8.4 C 0 km/h
Sensor: Nr:Datum:Temp:Abs-Feuchte:Windchill:Wind:
Aussen-T/F 376 03-04-2007 07:17:01 8.2 C 4.77 g/m*3 8.2 C 0 km/h
377 03-04-2007 07:22:01 8.2 C 4.86 g/m*3 8.2 C 0 km/h
378 03-04-2007 07:27:01 8.1 C 4.91 g/m*3 8.1 C 0 km/h
379 03-04-2007 07:32:02 7.9 C 4.93 g/m*3 7.9 C 0 km/h
380 03-04-2007 07:37:02 7.9 C 4.93 g/m*3 7.9 C 0 km/h
381 03-04-2007 07:42:02 7.7 C 4.95 g/m*3 7.7 C 0 km/h
382 03-04-2007 07:47:02 7.7 C 5.03 g/m*3 7.7 C 0 km/h
383 03-04-2007 07:52:02 7.6 C 5.08 g/m*3 7.6 C 0 km/h
384 03-04-2007 07:57:02 7.5 C 5.04 g/m*3 7.5 C 0 km/h
385 03-04-2007 08:02:01 7.5 C 5.12 g/m*3 7.5 C 0 km/h
386 03-04-2007 08:07:01 7.5 C 5.12 g/m*3 7.5 C 0 km/h
387 03-04-2007 08:12:01 7.5 C 5.12 g/m*3 7.5 C 0 km/h
388 03-04-2007 08:17:02 7.5 C 5.12 g/m*3 7.5 C 0 km/h
389 03-04-2007 08:22:02 7.5 C 5.12 g/m*3 7.5 C 0 km/h
390 03-04-2007 08:27:02 7.5 C 5.12 g/m*3 7.5 C 0 km/h
391 03-04-2007 08:32:02 7.5 C 5.12 g/m*3 7.5 C 0 km/h
392 03-04-2007 08:37:02 7.5 C 5.04 g/m*3 7.5 C 0 km/h
393 03-04-2007 08:42:02 7.5 C 5.04 g/m*3 7.5 C 0 km/h
394 03-04-2007 08:47:02 7.5 C 5.04 g/m*3 7.5 C 0 km/h
395 03-04-2007 08:52:02 7.5 C 4.96 g/m*3 7.5 C 0 km/h
396 03-04-2007 08:57:02 7.6 C 4.99 g/m*3 7.6 C 0 km/h
397 03-04-2007 09:02:03 7.6 C 4.83 g/m*3 7.6 C 0 km/h
398 03-04-2007 09:07:03 7.7 C 4.87 g/m*3 7.7 C 0 km/h
399 03-04-2007 09:12:03 7.7 C 4.7 g/m*3 7.7 C 0 km/h
400 03-04-2007 09:17:02 7.7 C 4.7 g/m*3 7.7 C 0 km/h
Sensor: Nr:Datum:Temp:Abs-Feuchte:Windchill:Wind:
Aussen-T/F 401 03-04-2007 09:22:02 7.8 C 4.65 g/m*3 7.8 C 0 km/h
402 03-04-2007 09:27:02 7.8 C 4.65 g/m*3 7.8 C 0 km/h
403 03-04-2007 09:32:02 7.9 C 4.6 g/m*3 7.9 C 0 km/h
404 03-04-2007 09:37:02 7.8 C 4.57 g/m*3 7.8 C 0 km/h
405 03-04-2007 09:42:02 7.9 C 4.52 g/m*3 7.9 C 0 km/h
406 03-04-2007 09:47:02 7.9 C 4.52 g/m*3 7.9 C 0 km/h
407 03-04-2007 09:52:02 8 C 4.55 g/m*3 8 C 0 km/h
408 03-04-2007 09:57:02 8.1 C 4.58 g/m*3 8.1 C 0 km/h
409 03-04-2007 10:02:02 8.2 C 4.44 g/m*3 8.2 C 0 km/h
410 03-04-2007 10:07:02 8.1 C 4.33 g/m*3 8.1 C 0 km/h
411 03-04-2007 10:12:02 8.2 C 4.44 g/m*3 8.2 C 0 km/h
412 03-04-2007 10:17:01 8.2 C 4.35 g/m*3 8.2 C 0 km/h
413 03-04-2007 10:22:01 8.2 C 4.44 g/m*3 8.2 C 0 km/h
414 03-04-2007 10:27:01 8.1 C 4.41 g/m*3 8.1 C 0 km/h
415 03-04-2007 10:32:01 8.2 C 4.52 g/m*3 8.2 C 0 km/h
416 03-04-2007 10:37:01 8.2 C 4.52 g/m*3 8.2 C 0 km/h
417 03-04-2007 10:42:01 8.1 C 4.58 g/m*3 8.1 C 0 km/h
418 03-04-2007 10:47:02 8.1 C 4.66 g/m*3 8.1 C 0 km/h
419 03-04-2007 10:52:03 8.1 C 4.66 g/m*3 8.1 C 0 km/h
420 03-04-2007 10:57:03 8 C 4.63 g/m*3 8 C 0 km/h
421 03-04-2007 11:02:01 8.1 C 4.74 g/m*3 8.1 C 0 km/h
422 03-04-2007 11:07:01 8.2 C 4.86 g/m*3 8.2 C 0 km/h
423 03-04-2007 11:12:01 8 C 4.8 g/m*3 8 C 0 km/h
424 03-04-2007 11:17:01 7.9 C 4.85 g/m*3 7.9 C 0 km/h
425 03-04-2007 11:22:01 7.9 C 4.93 g/m*3 7.9 C 0 km/h
Sensor: Nr:Datum:Temp:Abs-Feuchte:Windchill:Wind:
Aussen-T/F 426 03-04-2007 11:27:01 7.8 C 4.9 g/m*3 7.8 C 0 km/h
427 03-04-2007 11:32:02 7.8 C 4.82 g/m*3 7.8 C 0 km/h
428 03-04-2007 11:37:02 7.9 C 4.93 g/m*3 7.9 C 0 km/h
429 03-04-2007 11:42:02 7.9 C 4.93 g/m*3 7.9 C 0 km/h
430 03-04-2007 11:47:02 8 C 4.71 g/m*3 8 C 0 km/h
431 03-04-2007 11:52:02 8 C 4.71 g/m*3 8 C 0 km/h
432 03-04-2007 11:57:02 8.1 C 4.74 g/m*3 8.1 C 0 km/h
433 03-04-2007 12:02:02 8 C 4.63 g/m*3 8 C 0 km/h
434 03-04-2007 12:07:02 8.2 C 4.77 g/m*3 8.2 C 0 km/h
435 03-04-2007 12:12:02 8.6 C 4.81 g/m*3 8.6 C 0 km/h
436 03-04-2007 12:17:03 8.7 C 4.76 g/m*3 8.7 C 0 km/h
437 03-04-2007 12:22:03 8.8 C 4.7 g/m*3 8.8 C 0 km/h
438 03-04-2007 12:27:03 9.1 C 4.7 g/m*3 9.1 C 0 km/h
439 03-04-2007 12:32:02 9.2 C 4.73 g/m*3 9.2 C 0 km/h
440 03-04-2007 12:37:02 9.1 C 4.61 g/m*3 9.1 C 0 km/h
441 03-04-2007 12:42:02 9.1 C 4.61 g/m*3 9.1 C 0 km/h
442 03-04-2007 12:47:02 9.1 C 4.53 g/m*3 9.1 C 0 km/h
443 03-04-2007 12:52:02 9.4 C 4.7 g/m*3 9.4 C 0 km/h
444 03-04-2007 12:57:02 9 C 4.41 g/m*3 9 C 0 km/h
445 03-04-2007 13:02:02 9.2 C 4.46 g/m*3 9.2 C 0 km/h
446 03-04-2007 13:07:02 9.5 C 4.64 g/m*3 9.5 C 0 km/h
447 03-04-2007 13:12:02 8.9 C 4.38 g/m*3 8.9 C 0 km/h
448 03-04-2007 13:17:02 9 C 4.5 g/m*3 9 C 0 km/h
449 03-04-2007 13:22:02 9.2 C 4.55 g/m*3 9.2 C 0 km/h
450 03-04-2007 13:27:02 9.7 C 4.61 g/m*3 9.7 C 0 km/h
Sensor: Nr:Datum:Temp:Abs-Feuchte:Windchill:Wind:
Aussen-T/F 451 03-04-2007 13:32:02 9.5 C 4.55 g/m*3 9.5 C 0 km/h
452 03-04-2007 13:37:03 9.7 C 4.61 g/m*3 9.7 C 0 km/h
453 03-04-2007 13:42:03 9.5 C 4.55 g/m*3 9.5 C 0 km/h
454 03-04-2007 13:47:01 9.6 C 4.58 g/m*3 9.6 C 0 km/h
455 03-04-2007 13:52:01 10 C 4.6 g/m*3 10 C 0 km/h
456 03-04-2007 13:57:01 10.1 C 4.54 g/m*3 10.1 C 0 km/h
457 03-04-2007 14:02:02 9.8 C 4.45 g/m*3 9.8 C 0 km/h
458 03-04-2007 14:07:02 9.7 C 4.52 g/m*3 9.7 C 0 km/h
459 03-04-2007 14:12:02 9.8 C 4.55 g/m*3 9.8 C 0 km/h
460 03-04-2007 14:17:01 9.7 C 4.52 g/m*3 9.7 C 0 km/h
461 03-04-2007 14:22:01 10.1 C 4.54 g/m*3 10.1 C 0 km/h
462 03-04-2007 14:27:01 10.4 C 4.53 g/m*3 10.4 C 0 km/h
463 03-04-2007 14:32:01 10.6 C 4.49 g/m*3 10.6 C 0 km/h
464 03-04-2007 14:37:01 10.9 C 4.48 g/m*3 10.9 C 0 km/h
465 03-04-2007 14:42:01 11.3 C 4.39 g/m*3 11.3 C 0 km/h
466 03-04-2007 14:47:02 11.4 C 4.11 g/m*3 11.4 C 0 km/h
467 03-04-2007 14:52:02 11.3 C 4.08 g/m*3 11.3 C 0 km/h
468 03-04-2007 14:57:02 11.4 C 4 g/m*3 11.4 C 0 km/h
469 03-04-2007 15:02:01 11.2 C 3.95 g/m*3 11.2 C 0 km/h
470 03-04-2007 15:07:01 11.3 C 3.98 g/m*3 11.3 C 0 km/h
471 03-04-2007 15:12:02 11.1 C 3.93 g/m*3 11.1 C 0 km/h
472 03-04-2007 15:17:01 11.1 C 3.93 g/m*3 11.1 C 0 km/h
473 03-04-2007 15:22:01 11.7 C 3.97 g/m*3 11.7 C 0 km/h
474 03-04-2007 15:27:01 11.4 C 3.8 g/m*3 11.4 C 0 km/h
475 03-04-2007 15:32:01 11.9 C 4.02 g/m*3 11.9 C 0 km/h
Sensor: Nr:Datum:Temp:Abs-Feuchte:Windchill:Wind:
Aussen-T/F 476 03-04-2007 15:37:01 12.1 C 3.97 g/m*3 12.1 C 0 km/h
477 03-04-2007 15:42:01 12 C 3.94 g/m*3 12 C 0 km/h
478 03-04-2007 15:47:02 12.1 C 3.97 g/m*3 12.1 C 0 km/h
479 03-04-2007 15:52:02 11.7 C 4.18 g/m*3 11.7 C 0 km/h
480 03-04-2007 15:57:03 11.8 C 4.21 g/m*3 11.8 C 0 km/h
481 03-04-2007 16:02:01 11.3 C 4.08 g/m*3 11.3 C 0 km/h
482 03-04-2007 16:07:01 10.9 C 4.08 g/m*3 10.9 C 0 km/h
483 03-04-2007 16:12:01 10.7 C 4.22 g/m*3 10.7 C 0 km/h
484 03-04-2007 16:17:01 10 C 4.23 g/m*3 10 C 0 km/h
485 03-04-2007 16:22:01 10 C 4.32 g/m*3 10 C 0 km/h
486 03-04-2007 16:27:01 9.8 C 4.45 g/m*3 9.8 C 0 km/h
487 03-04-2007 16:32:02 9.5 C 4.55 g/m*3 9.5 C 0 km/h
488 03-04-2007 16:37:02 9.5 C 4.64 g/m*3 9.5 C 0 km/h
489 03-04-2007 16:42:02 9.2 C 4.82 g/m*3 9.2 C 0 km/h
490 03-04-2007 16:47:02 8.9 C 5.08 g/m*3 8.9 C 0 km/h
491 03-04-2007 16:52:02 8.5 C 5.21 g/m*3 8.5 C 0 km/h
492 03-04-2007 16:57:02 8.4 C 5.26 g/m*3 8.4 C 0 km/h
493 03-04-2007 17:02:03 8.2 C 5.02 g/m*3 8.2 C 0 km/h
494 03-04-2007 17:07:04 8.5 C 5.04 g/m*3 8.5 C 0 km/h
495 03-04-2007 17:12:04 8.6 C 4.98 g/m*3 8.6 C 0 km/h
496 03-04-2007 17:17:02 8.7 C 4.84 g/m*3 8.7 C 0 km/h
497 03-04-2007 17:22:02 9 C 4.85 g/m*3 9 C 0 km/h
498 03-04-2007 17:27:02 9.2 C 4.82 g/m*3 9.2 C 0 km/h
499 03-04-2007 17:32:02 9.6 C 4.76 g/m*3 9.6 C 0 km/h
500 03-04-2007 17:37:02 9.7 C 4.61 g/m*3 9.7 C 0 km/h
Sensor: Nr:Datum:Temp:Abs-Feuchte:Windchill:Wind:
Aussen-T/F 501 03-04-2007 17:42:02 9.6 C 4.58 g/m*3 9.6 C 0 km/h
502 03-04-2007 17:47:02 9.5 C 4.46 g/m*3 9.5 C 0 km/h
503 03-04-2007 17:52:02 9.3 C 4.4 g/m*3 9.3 C 0 km/h
504 03-04-2007 17:57:02 9.1 C 4.26 g/m*3 9.1 C 0 km/h
505 03-04-2007 18:02:02 8.9 C 4.29 g/m*3 8.9 C 0 km/h
506 03-04-2007 18:07:02 8.7 C 4.24 g/m*3 8.7 C 0 km/h
507 03-04-2007 18:12:02 8.8 C 4.26 g/m*3 8.8 C 0 km/h
508 03-04-2007 18:17:02 8.6 C 4.12 g/m*3 8.6 C 0 km/h
509 03-04-2007 18:22:02 9 C 4.14 g/m*3 9 C 0 km/h
510 03-04-2007 18:27:02 9.9 C 4.29 g/m*3 9.9 C 0 km/h
511 03-04-2007 18:32:02 10.2 C 4.28 g/m*3 10.2 C 0 km/h
512 03-04-2007 18:37:02 10.6 C 4.1 g/m*3 10.6 C 0 km/h
513 03-04-2007 18:42:02 10.6 C 4 g/m*3 10.6 C 0 km/h
514 03-04-2007 18:47:02 10.7 C 4.03 g/m*3 10.7 C 0 km/h
515 03-04-2007 18:52:02 11.4 C 4 g/m*3 11.4 C 0 km/h
516 03-04-2007 18:57:02 11.3 C 3.88 g/m*3 11.3 C 0 km/h
517 03-04-2007 19:02:02 10.1 C 3.78 g/m*3 10.1 C 0 km/h
518 03-04-2007 19:07:02 9.9 C 3.83 g/m*3 9.9 C 0 km/h
519 03-04-2007 19:12:02 9.7 C 3.96 g/m*3 9.7 C 0 km/h
520 03-04-2007 19:17:01 9.4 C 3.89 g/m*3 9.4 C 0 km/h
521 03-04-2007 19:22:01 9.2 C 3.84 g/m*3 9.2 C 0 km/h
522 03-04-2007 19:27:01 9.2 C 3.93 g/m*3 9.2 C 0 km/h
523 03-04-2007 19:32:02 9 C 3.97 g/m*3 9 C 0 km/h
524 03-04-2007 19:37:02 9 C 3.97 g/m*3 9 C 0 km/h
525 03-04-2007 19:42:02 9 C 4.06 g/m*3 9 C 0 km/h
Sensor: Nr:Datum:Temp:Abs-Feuchte:Windchill:Wind:
Aussen-T/F 526 03-04-2007 19:47:01 9 C 4.06 g/m*3 9 C 0 km/h
527 03-04-2007 19:52:01 8.7 C 4.15 g/m*3 8.7 C 0 km/h
528 03-04-2007 19:57:01 8.6 C 4.21 g/m*3 8.6 C 0 km/h
529 03-04-2007 20:02:02 8.2 C 4.52 g/m*3 8.2 C 0 km/h
530 03-04-2007 20:07:02 7.8 C 4.65 g/m*3 7.8 C 0 km/h
531 03-04-2007 20:12:02 7.8 C 4.65 g/m*3 7.8 C 0 km/h
532 03-04-2007 20:17:02 8 C 4.71 g/m*3 8 C 0 km/h
533 03-04-2007 20:22:02 8.1 C 4.66 g/m*3 8.1 C 0 km/h
534 03-04-2007 20:27:02 8.1 C 4.66 g/m*3 8.1 C 0 km/h
535 03-04-2007 20:32:02 8.2 C 4.52 g/m*3 8.2 C 0 km/h
536 03-04-2007 20:37:03 8.1 C 4.41 g/m*3 8.1 C 0 km/h
537 03-04-2007 20:42:03 8 C 4.46 g/m*3 8 C 0 km/h
538 03-04-2007 20:47:03 8 C 4.46 g/m*3 8 C 0 km/h
539 03-04-2007 20:52:03 8 C 4.55 g/m*3 8 C 0 km/h
540 03-04-2007 20:57:03 8 C 4.55 g/m*3 8 C 0 km/h
541 03-04-2007 21:02:02 8.1 C 4.58 g/m*3 8.1 C 0 km/h
542 03-04-2007 21:07:02 8.1 C 4.58 g/m*3 8.1 C 0 km/h
543 03-04-2007 21:12:02 7.9 C 4.6 g/m*3 7.9 C 0 km/h
544 03-04-2007 21:17:02 7.8 C 4.65 g/m*3 7.8 C 0 km/h
545 03-04-2007 21:22:02 7.8 C 4.65 g/m*3 7.8 C 0 km/h
546 03-04-2007 21:27:02 8 C 4.71 g/m*3 8 C 0 km/h
547 03-04-2007 21:32:02 8 C 4.71 g/m*3 8 C 0 km/h
548 03-04-2007 21:37:02 8 C 4.71 g/m*3 8 C 0 km/h
549 03-04-2007 21:42:02 7.9 C 4.76 g/m*3 7.9 C 0 km/h
550 03-04-2007 21:47:03 7.9 C 4.85 g/m*3 7.9 C 0 km/h
Sensor: Nr:Datum:Temp:Abs-Feuchte:Windchill:Wind:
Aussen-T/F 551 03-04-2007 21:52:03 7.8 C 4.82 g/m*3 7.8 C 0 km/h
552 03-04-2007 21:57:03 7.8 C 4.9 g/m*3 7.8 C 0 km/h
553 03-04-2007 22:02:02 7.8 C 4.9 g/m*3 7.8 C 0 km/h
554 03-04-2007 22:07:02 7.7 C 4.87 g/m*3 7.7 C 0 km/h
555 03-04-2007 22:12:02 7.6 C 4.91 g/m*3 7.6 C 0 km/h
556 03-04-2007 22:17:02 7.6 C 4.91 g/m*3 7.6 C 0 km/h
557 03-04-2007 22:22:02 7.6 C 4.91 g/m*3 7.6 C 0 km/h
558 03-04-2007 22:27:02 7.4 C 4.93 g/m*3 7.4 C 0 km/h
559 03-04-2007 22:32:03 7.3 C 4.9 g/m*3 7.3 C 0 km/h
560 03-04-2007 22:37:03 7.2 C 4.95 g/m*3 7.2 C 0 km/h
561 03-04-2007 22:42:03 7.2 C 5.02 g/m*3 7.2 C 0 km/h
562 03-04-2007 22:47:02 7 C 4.96 g/m*3 7 C 0 km/h
563 03-04-2007 22:52:02 7 C 4.96 g/m*3 7 C 0 km/h
564 03-04-2007 22:57:02 7.1 C 4.99 g/m*3 7.1 C 0 km/h
565 03-04-2007 23:02:02 7.3 C 5.06 g/m*3 7.3 C 0 km/h
566 03-04-2007 23:07:02 7.4 C 5.09 g/m*3 7.4 C 0 km/h
567 03-04-2007 23:12:02 7.4 C 5.09 g/m*3 7.4 C 0 km/h
568 03-04-2007 23:17:02 7.5 C 5.12 g/m*3 7.5 C 0 km/h
569 03-04-2007 23:22:02 7.5 C 5.12 g/m*3 7.5 C 0 km/h
570 03-04-2007 23:27:02 7.4 C 5.09 g/m*3 7.4 C 0 km/h
571 03-04-2007 23:32:03 7.3 C 5.14 g/m*3 7.3 C 0 km/h
572 03-04-2007 23:37:03 7.2 C 5.1 g/m*3 7.2 C 0 km/h
573 03-04-2007 23:42:03 7.3 C 5.14 g/m*3 7.3 C 0 km/h
574 03-04-2007 23:47:02 7.3 C 5.14 g/m*3 7.3 C 0 km/h
575 03-04-2007 23:52:02 7.3 C 5.06 g/m*3 7.3 C 0 km/h
Sensor: Nr:Datum:Temp:Abs-Feuchte:Windchill:Wind:
Aussen-T/F 576 03-04-2007 23:57:02 7.3 C 5.06 g/m*3 7.3 C 0 km/h
577 04-04-2007 00:02:02 7.3 C 5.06 g/m*3 7.3 C 0 km/h
578 04-04-2007 00:07:02 7.3 C 4.98 g/m*3 7.3 C 0 km/h
579 04-04-2007 00:12:02 7.1 C 4.99 g/m*3 7.1 C 0 km/h
580 04-04-2007 00:17:03 7.1 C 4.99 g/m*3 7.1 C 0 km/h
581 04-04-2007 00:22:03 7 C 4.96 g/m*3 7 C 0 km/h
582 04-04-2007 00:27:03 6.9 C 5 g/m*3 6.9 C 0 km/h
583 04-04-2007 00:32:02 6.8 C 4.97 g/m*3 6.8 C 0 km/h
584 04-04-2007 00:37:02 6.7 C 4.94 g/m*3 6.7 C 0 km/h
585 04-04-2007 00:42:02 6.6 C 4.91 g/m*3 6.6 C 0 km/h
586 04-04-2007 00:47:03 6.6 C 4.91 g/m*3 6.6 C 0 km/h
587 04-04-2007 00:52:03 6.6 C 4.91 g/m*3 6.6 C 0 km/h
588 04-04-2007 00:57:03 6.6 C 4.91 g/m*3 6.6 C 0 km/h
589 04-04-2007 01:02:02 6.6 C 4.91 g/m*3 6.6 C 0 km/h
590 04-04-2007 01:07:02 6.6 C 4.91 g/m*3 6.6 C 0 km/h
591 04-04-2007 01:12:02 6.6 C 4.91 g/m*3 6.6 C 0 km/h
592 04-04-2007 01:17:02 6.6 C 4.98 g/m*3 6.6 C 0 km/h
593 04-04-2007 01:22:02 6.7 C 5.01 g/m*3 6.7 C 0 km/h
594 04-04-2007 01:27:02 6.7 C 5.01 g/m*3 6.7 C 0 km/h
595 04-04-2007 01:32:02 6.8 C 4.97 g/m*3 6.8 C 0 km/h
596 04-04-2007 01:37:02 6.7 C 4.94 g/m*3 6.7 C 0 km/h
597 04-04-2007 01:42:02 6.8 C 4.97 g/m*3 6.8 C 0 km/h
598 04-04-2007 01:47:03 6.8 C 4.97 g/m*3 6.8 C 0 km/h
599 04-04-2007 01:52:03 6.8 C 5.05 g/m*3 6.8 C 0 km/h
600 04-04-2007 01:57:03 6.8 C 5.05 g/m*3 6.8 C 0 km/h
Sensor: Nr:Datum:Temp:Abs-Feuchte:Windchill:Wind:
Aussen-T/F 601 04-04-2007 02:02:02 6.8 C 5.05 g/m*3 6.8 C 0 km/h
602 04-04-2007 02:07:02 6.8 C 5.05 g/m*3 6.8 C 0 km/h
603 04-04-2007 02:12:02 6.8 C 5.12 g/m*3 6.8 C 0 km/h
604 04-04-2007 02:17:02 6.7 C 5.17 g/m*3 6.7 C 0 km/h
605 04-04-2007 02:22:02 6.6 C 5.13 g/m*3 6.6 C 0 km/h
606 04-04-2007 02:27:02 6.6 C 5.13 g/m*3 6.6 C 0 km/h
607 04-04-2007 02:32:02 6.7 C 5.17 g/m*3 6.7 C 0 km/h
608 04-04-2007 02:37:02 6.8 C 5.12 g/m*3 6.8 C 0 km/h
609 04-04-2007 02:42:02 6.8 C 5.05 g/m*3 6.8 C 0 km/h
610 04-04-2007 02:48:04 6.8 C 5.05 g/m*3 6.8 C 0 km/h
611 04-04-2007 02:53:04 6.7 C 5.09 g/m*3 6.7 C 0 km/h
612 04-04-2007 02:58:04 6.6 C 5.21 g/m*3 6.6 C 0 km/h
613 04-04-2007 03:03:04 6.4 C 5.29 g/m*3 6.4 C 0 km/h
614 04-04-2007 03:08:04 6.4 C 5.29 g/m*3 6.4 C 0 km/h
615 04-04-2007 03:13:04 6.5 C 5.32 g/m*3 6.5 C 0 km/h
616 04-04-2007 03:18:04 6.6 C 5.21 g/m*3 6.6 C 0 km/h
617 04-04-2007 03:23:04 6.6 C 5.21 g/m*3 6.6 C 0 km/h
618 04-04-2007 03:28:04 6.7 C 5.17 g/m*3 6.7 C 0 km/h
619 04-04-2007 03:33:02 6.7 C 5.09 g/m*3 6.7 C 0 km/h
620 04-04-2007 03:38:02 6.8 C 5.12 g/m*3 6.8 C 0 km/h
621 04-04-2007 03:43:02 6.8 C 5.12 g/m*3 6.8 C 0 km/h
622 04-04-2007 03:48:02 6.8 C 5.05 g/m*3 6.8 C 0 km/h
623 04-04-2007 03:53:02 6.8 C 4.97 g/m*3 6.8 C 0 km/h
624 04-04-2007 03:58:02 6.8 C 4.97 g/m*3 6.8 C 0 km/h
625 04-04-2007 04:03:03 6.8 C 4.97 g/m*3 6.8 C 0 km/h
Sensor: Nr:Datum:Temp:Abs-Feuchte:Windchill:Wind:
Aussen-T/F 626 04-04-2007 04:08:03 6.8 C 4.97 g/m*3 6.8 C 0 km/h
627 04-04-2007 04:13:03 6.8 C 4.97 g/m*3 6.8 C 0 km/h
628 04-04-2007 04:18:02 6.8 C 4.97 g/m*3 6.8 C 0 km/h
629 04-04-2007 04:23:02 6.8 C 5.05 g/m*3 6.8 C 0 km/h
630 04-04-2007 04:28:02 6.7 C 5.01 g/m*3 6.7 C 0 km/h
631 04-04-2007 04:33:02 6.7 C 4.94 g/m*3 6.7 C 0 km/h
632 04-04-2007 04:38:02 6.7 C 4.94 g/m*3 6.7 C 0 km/h
633 04-04-2007 04:43:02 6.7 C 5.01 g/m*3 6.7 C 0 km/h
634 04-04-2007 04:48:02 6.7 C 5.01 g/m*3 6.7 C 0 km/h
635 04-04-2007 04:53:02 6.6 C 4.98 g/m*3 6.6 C 0 km/h
636 04-04-2007 04:58:02 6.6 C 4.98 g/m*3 6.6 C 0 km/h
637 04-04-2007 05:03:02 6.6 C 4.98 g/m*3 6.6 C 0 km/h
638 04-04-2007 05:08:02 6.6 C 4.98 g/m*3 6.6 C 0 km/h
639 04-04-2007 05:13:02 6.6 C 4.98 g/m*3 6.6 C 0 km/h
640 04-04-2007 05:18:02 6.6 C 4.98 g/m*3 6.6 C 0 km/h
641 04-04-2007 05:23:02 6.5 C 4.95 g/m*3 6.5 C 0 km/h
642 04-04-2007 05:28:02 6.6 C 4.83 g/m*3 6.6 C 0 km/h
643 04-04-2007 05:33:02 6.6 C 4.76 g/m*3 6.6 C 0 km/h
644 04-04-2007 05:38:02 6.7 C 4.41 g/m*3 6.7 C 0 km/h
645 04-04-2007 05:43:02 6.8 C 4.13 g/m*3 6.8 C 0 km/h
646 04-04-2007 05:48:02 6.8 C 4.05 g/m*3 6.8 C 0 km/h
647 04-04-2007 05:53:02 6.8 C 4.05 g/m*3 6.8 C 0 km/h
648 04-04-2007 05:58:02 6.7 C 4.03 g/m*3 6.7 C 0 km/h
649 04-04-2007 06:03:01 6.7 C 4.03 g/m*3 6.7 C 0 km/h
650 04-04-2007 06:08:01 6.6 C 3.93 g/m*3 6.6 C 0 km/h
Sensor: Nr:Datum:Temp:Abs-Feuchte:Windchill:Wind:
Aussen-T/F 651 04-04-2007 06:13:01 6.5 C 3.9 g/m*3 6.5 C 0 km/h
652 04-04-2007 06:18:01 6.4 C 3.95 g/m*3 6.4 C 0 km/h
653 04-04-2007 06:23:01 6.4 C 3.95 g/m*3 6.4 C 0 km/h
654 04-04-2007 06:28:01 6.4 C 4.02 g/m*3 6.4 C 0 km/h
655 04-04-2007 06:33:02 6.4 C 4.02 g/m*3 6.4 C 0 km/h
656 04-04-2007 06:38:02 6.4 C 4.02 g/m*3 6.4 C 0 km/h
657 04-04-2007 06:43:02 6.4 C 4.02 g/m*3 6.4 C 0 km/h
658 04-04-2007 06:48:02 6.3 C 4.07 g/m*3 6.3 C 0 km/h
659 04-04-2007 06:53:02 6.2 C 4.04 g/m*3 6.2 C 0 km/h
660 04-04-2007 06:58:02 6.2 C 4.04 g/m*3 6.2 C 0 km/h
661 04-04-2007 07:03:02 6.2 C 3.97 g/m*3 6.2 C 0 km/h
662 04-04-2007 07:08:02 6 C 3.92 g/m*3 6 C 0 km/h
663 04-04-2007 07:13:02 6 C 3.92 g/m*3 6 C 0 km/h
664 04-04-2007 07:18:02 6 C 3.99 g/m*3 6 C 0 km/h
665 04-04-2007 07:23:02 6 C 3.99 g/m*3 6 C 0 km/h
666 04-04-2007 07:28:02 6 C 3.99 g/m*3 6 C 0 km/h
667 04-04-2007 07:33:02 6 C 3.92 g/m*3 6 C 0 km/h
668 04-04-2007 07:38:02 5.9 C 3.97 g/m*3 5.9 C 0 km/h
669 04-04-2007 07:43:02 5.8 C 3.87 g/m*3 5.8 C 0 km/h
670 04-04-2007 07:48:01 5.7 C 3.91 g/m*3 5.7 C 0 km/h
671 04-04-2007 07:53:01 5.7 C 3.84 g/m*3 5.7 C 0 km/h
672 04-04-2007 07:58:01 5.7 C 3.77 g/m*3 5.7 C 0 km/h
673 04-04-2007 08:03:02 5.8 C 3.72 g/m*3 5.8 C 0 km/h
674 04-04-2007 08:08:02 5.8 C 3.72 g/m*3 5.8 C 0 km/h
675 04-04-2007 08:13:02 5.8 C 3.72 g/m*3 5.8 C 0 km/h
Sensor: Nr:Datum:Temp:Abs-Feuchte:Windchill:Wind:
Aussen-T/F 676 04-04-2007 08:18:02 5.8 C 3.65 g/m*3 5.8 C 0 km/h
677 04-04-2007 08:23:02 5.8 C 3.65 g/m*3 5.8 C 0 km/h
678 04-04-2007 08:28:02 5.7 C 3.63 g/m*3 5.7 C 0 km/h
679 04-04-2007 08:33:01 5.6 C 3.61 g/m*3 5.6 C 0 km/h
680 04-04-2007 08:38:01 5.7 C 3.56 g/m*3 5.7 C 0 km/h
681 04-04-2007 08:43:02 5.8 C 3.58 g/m*3 5.8 C 0 km/h
682 04-04-2007 08:48:02 5.9 C 3.53 g/m*3 5.9 C 0 km/h
683 04-04-2007 08:53:02 6 C 3.48 g/m*3 6 C 0 km/h
684 04-04-2007 08:58:02 6 C 3.41 g/m*3 6 C 0 km/h
685 04-04-2007 09:03:02 6 C 3.41 g/m*3 6 C 0 km/h
686 04-04-2007 09:08:02 6 C 3.34 g/m*3 6 C 0 km/h
687 04-04-2007 09:13:02 5.9 C 3.32 g/m*3 5.9 C 0 km/h
688 04-04-2007 09:18:01 6 C 3.34 g/m*3 6 C 0 km/h
689 04-04-2007 09:23:01 6.1 C 3.36 g/m*3 6.1 C 0 km/h
690 04-04-2007 09:28:01 6 C 3.27 g/m*3 6 C 0 km/h
691 04-04-2007 09:33:01 6 C 3.19 g/m*3 6 C 0 km/h
692 04-04-2007 09:38:01 5.9 C 3.24 g/m*3 5.9 C 0 km/h
693 04-04-2007 09:43:01 5.9 C 3.24 g/m*3 5.9 C 0 km/h
694 04-04-2007 09:48:02 6.1 C 3.21 g/m*3 6.1 C 0 km/h
695 04-04-2007 09:53:02 6.3 C 3.26 g/m*3 6.3 C 0 km/h
696 04-04-2007 09:58:02 6.5 C 3.3 g/m*3 6.5 C 0 km/h
697 04-04-2007 10:03:02 6.4 C 3.2 g/m*3 6.4 C 0 km/h
698 04-04-2007 10:08:02 6.7 C 3.27 g/m*3 6.7 C 0 km/h
699 04-04-2007 10:13:02 6.7 C 3.27 g/m*3 6.7 C 0 km/h
700 04-04-2007 10:18:01 6.7 C 3.19 g/m*3 6.7 C 0 km/h
Sensor: Nr:Datum:Temp:Abs-Feuchte:Windchill:Wind:
Aussen-T/F 701 04-04-2007 10:23:01 6.5 C 3.15 g/m*3 6.5 C 0 km/h
702 04-04-2007 10:28:01 6.3 C 3.11 g/m*3 6.3 C 0 km/h
703 04-04-2007 10:33:02 6.4 C 3.2 g/m*3 6.4 C 0 km/h
704 04-04-2007 10:38:02 6.7 C 3.27 g/m*3 6.7 C 0 km/h
705 04-04-2007 10:43:02 7 C 3.25 g/m*3 7 C 0 km/h
706 04-04-2007 10:48:01 7.2 C 3.22 g/m*3 7.2 C 0 km/h
707 04-04-2007 10:53:01 7.2 C 3.22 g/m*3 7.2 C 0 km/h
708 04-04-2007 10:58:01 7.7 C 3.16 g/m*3 7.7 C 0 km/h
709 04-04-2007 11:03:02 7.9 C 3.29 g/m*3 7.9 C 0 km/h
710 04-04-2007 11:08:02 7.7 C 3.16 g/m*3 7.7 C 0 km/h
711 04-04-2007 11:13:02 7.8 C 3.18 g/m*3 7.8 C 0 km/h
712 04-04-2007 11:18:01 7.8 C 3.18 g/m*3 7.8 C 0 km/h
713 04-04-2007 11:23:02 8.2 C 3.35 g/m*3 8.2 C 0 km/h
714 04-04-2007 11:28:02 8.2 C 3.18 g/m*3 8.2 C 0 km/h
715 04-04-2007 11:33:01 8 C 3.06 g/m*3 8 C 0 km/h
716 04-04-2007 11:38:01 8 C 3.22 g/m*3 8 C 0 km/h
717 04-04-2007 11:43:01 8.2 C 3.27 g/m*3 8.2 C 0 km/h
718 04-04-2007 11:48:02 8.3 C 3.29 g/m*3 8.3 C 0 km/h
719 04-04-2007 11:53:02 8.3 C 3.29 g/m*3 8.3 C 0 km/h
720 04-04-2007 11:58:02 8.5 C 3.42 g/m*3 8.5 C 0 km/h
721 04-04-2007 12:03:02 8.8 C 3.31 g/m*3 8.8 C 0 km/h
722 04-04-2007 12:08:02 9 C 3.26 g/m*3 9 C 0 km/h
723 04-04-2007 12:13:03 9.2 C 3.3 g/m*3 9.2 C 0 km/h
724 04-04-2007 12:18:01 9.4 C 3.35 g/m*3 9.4 C 0 km/h
725 04-04-2007 12:23:01 9.4 C 3.26 g/m*3 9.4 C 0 km/h
Sensor: Nr:Datum:Temp:Abs-Feuchte:Windchill:Wind:
Aussen-T/F 726 04-04-2007 12:28:01 9.3 C 3.24 g/m*3 9.3 C 0 km/h
727 04-04-2007 12:33:01 9.5 C 3.28 g/m*3 9.5 C 0 km/h
728 04-04-2007 12:38:01 9.8 C 3.34 g/m*3 9.8 C 0 km/h
729 04-04-2007 12:43:01 9.9 C 3.36 g/m*3 9.9 C 0 km/h
730 04-04-2007 12:48:02 10 C 3.29 g/m*3 10 C 0 km/h
731 04-04-2007 12:53:02 10.5 C 3.39 g/m*3 10.5 C 0 km/h
732 04-04-2007 12:58:02 10.6 C 3.42 g/m*3 10.6 C 0 km/h
733 04-04-2007 13:03:01 10.8 C 3.36 g/m*3 10.8 C 0 km/h
734 04-04-2007 13:08:01 10.7 C 3.34 g/m*3 10.7 C 0 km/h
735 04-04-2007 13:13:01 10.7 C 3.34 g/m*3 10.7 C 0 km/h
736 04-04-2007 13:18:01 10.8 C 3.36 g/m*3 10.8 C 0 km/h
737 04-04-2007 13:23:01 10.8 C 3.36 g/m*3 10.8 C 0 km/h
738 04-04-2007 13:28:01 10.9 C 3.38 g/m*3 10.9 C 0 km/h
739 04-04-2007 13:33:02 11.1 C 3.22 g/m*3 11.1 C 0 km/h
740 04-04-2007 13:38:02 11.1 C 3.22 g/m*3 11.1 C 0 km/h
741 04-04-2007 13:43:02 11.3 C 3.26 g/m*3 11.3 C 0 km/h
742 04-04-2007 13:48:02 11.5 C 3.31 g/m*3 11.5 C 0 km/h
743 04-04-2007 13:53:02 11.9 C 3.28 g/m*3 11.9 C 0 km/h
744 04-04-2007 13:58:02 12 C 3.2 g/m*3 12 C 0 km/h
745 04-04-2007 14:03:02 12.2 C 3.24 g/m*3 12.2 C 0 km/h
746 04-04-2007 14:08:02 12.3 C 3.15 g/m*3 12.3 C 0 km/h
747 04-04-2007 14:13:02 12.6 C 3.21 g/m*3 12.6 C 0 km/h
748 04-04-2007 14:18:03 12.8 C 3.14 g/m*3 12.8 C 0 km/h
749 04-04-2007 14:23:03 13.2 C 3.1 g/m*3 13.2 C 0 km/h
750 04-04-2007 14:28:03 13.4 C 3.14 g/m*3 13.4 C 0 km/h
Sensor: Nr:Datum:Temp:Abs-Feuchte:Windchill:Wind:
Aussen-T/F 751 04-04-2007 14:33:02 13.5 C 3.04 g/m*3 13.5 C 0 km/h
752 04-04-2007 14:38:02 13.5 C 3.04 g/m*3 13.5 C 0 km/h
753 04-04-2007 14:43:02 13.9 C 3.12 g/m*3 13.9 C 0 km/h
754 04-04-2007 14:48:02 13.8 C 2.98 g/m*3 13.8 C 0 km/h
755 04-04-2007 14:53:02 14.1 C 3.03 g/m*3 14.1 C 0 km/h
756 04-04-2007 14:58:02 14.5 C 3.11 g/m*3 14.5 C 0 km/h
757 04-04-2007 15:03:02 14.9 C 3.19 g/m*3 14.9 C 0 km/h
758 04-04-2007 15:08:02 15 C 2.95 g/m*3 15 C 0 km/h
759 04-04-2007 15:13:02 15.2 C 2.99 g/m*3 15.2 C 0 km/h
760 04-04-2007 15:18:02 15.2 C 2.86 g/m*3 15.2 C 0 km/h
761 04-04-2007 15:23:02 15.2 C 2.86 g/m*3 15.2 C 0 km/h
762 04-04-2007 15:28:02 15.6 C 2.93 g/m*3 15.6 C 0 km/h
763 04-04-2007 15:33:02 15.5 C 2.78 g/m*3 15.5 C 0 km/h
764 04-04-2007 15:38:02 15.9 C 2.71 g/m*3 15.9 C 0 km/h
765 04-04-2007 15:43:02 16 C 2.72 g/m*3 16 C 0 km/h
766 04-04-2007 15:48:03 16.3 C 2.77 g/m*3 16.3 C 0 km/h
767 04-04-2007 15:53:03 16.3 C 2.77 g/m*3 16.3 C 0 km/h
768 04-04-2007 15:58:03 16.2 C 2.76 g/m*3 16.2 C 0 km/h
769 04-04-2007 16:03:02 15.8 C 2.69 g/m*3 15.8 C 0 km/h
770 04-04-2007 16:08:02 16.2 C 2.76 g/m*3 16.2 C 0 km/h
771 04-04-2007 16:13:02 16.3 C 2.77 g/m*3 16.3 C 0 km/h
772 04-04-2007 16:18:02 16.7 C 2.84 g/m*3 16.7 C 0 km/h
773 04-04-2007 16:23:02 17 C 2.89 g/m*3 17 C 0 km/h
774 04-04-2007 16:28:02 17.1 C 2.91 g/m*3 17.1 C 0 km/h
775 04-04-2007 16:33:02 17.5 C 2.98 g/m*3 17.5 C 0 km/h
Sensor: Nr:Datum:Temp:Abs-Feuchte:Windchill:Wind:
Aussen-T/F 776 04-04-2007 16:38:02 17.3 C 2.95 g/m*3 17.3 C 0 km/h
777 04-04-2007 16:43:02 17.3 C 2.95 g/m*3 17.3 C 0 km/h
778 04-04-2007 16:48:02 17.5 C 2.98 g/m*3 17.5 C 0 km/h
779 04-04-2007 16:53:02 17.4 C 2.96 g/m*3 17.4 C 0 km/h
780 04-04-2007 16:58:02 17.4 C 2.96 g/m*3 17.4 C 0 km/h
781 04-04-2007 17:03:01 17.4 C 2.96 g/m*3 17.4 C 0 km/h
782 04-04-2007 17:08:01 17.5 C 2.98 g/m*3 17.5 C 0 km/h
783 04-04-2007 17:13:01 17.7 C 3.02 g/m*3 17.7 C 0 km/h
784 04-04-2007 17:18:01 17.5 C 2.98 g/m*3 17.5 C 0 km/h
785 04-04-2007 17:23:01 17.4 C 2.96 g/m*3 17.4 C 0 km/h
786 04-04-2007 17:28:01 17.8 C 3.04 g/m*3 17.8 C 0 km/h
787 04-04-2007 17:33:02 17.5 C 2.98 g/m*3 17.5 C 0 km/h
788 04-04-2007 17:38:02 17.6 C 3 g/m*3 17.6 C 0 km/h
789 04-04-2007 17:43:02 17.9 C 3.05 g/m*3 17.9 C 0 km/h
790 04-04-2007 17:48:01 18 C 3.07 g/m*3 18 C 0 km/h
791 04-04-2007 17:53:01 18.1 C 3.09 g/m*3 18.1 C 0 km/h
792 04-04-2007 17:58:01 17.8 C 3.04 g/m*3 17.8 C 0 km/h
793 04-04-2007 18:03:01 17.6 C 3 g/m*3 17.6 C 0 km/h
794 04-04-2007 18:08:01 17.5 C 2.98 g/m*3 17.5 C 0 km/h
795 04-04-2007 18:13:01 17.7 C 3.02 g/m*3 17.7 C 0 km/h
796 04-04-2007 18:18:02 17.5 C 2.98 g/m*3 17.5 C 0 km/h
797 04-04-2007 18:23:02 17.5 C 2.98 g/m*3 17.5 C 0 km/h
798 04-04-2007 18:28:02 17.3 C 2.95 g/m*3 17.3 C 0 km/h
799 04-04-2007 18:33:02 16.9 C 2.88 g/m*3 16.9 C 0 km/h
800 04-04-2007 18:38:02 16.8 C 2.86 g/m*3 16.8 C 0 km/h
Sensor: Nr:Datum:Temp:Abs-Feuchte:Windchill:Wind:
Aussen-T/F 801 04-04-2007 18:43:02 16.6 C 2.83 g/m*3 16.6 C 0 km/h
802 04-04-2007 18:48:02 16.8 C 2.86 g/m*3 16.8 C 0 km/h
803 04-04-2007 18:53:02 16.6 C 2.83 g/m*3 16.6 C 0 km/h
804 04-04-2007 18:58:02 16.4 C 2.79 g/m*3 16.4 C 0 km/h
805 04-04-2007 19:03:03 16.5 C 2.81 g/m*3 16.5 C 0 km/h
806 04-04-2007 19:08:03 16.3 C 2.77 g/m*3 16.3 C 0 km/h
807 04-04-2007 19:13:03 16.4 C 2.79 g/m*3 16.4 C 0 km/h
808 04-04-2007 19:18:02 16.2 C 2.76 g/m*3 16.2 C 0 km/h
809 04-04-2007 19:23:02 15.8 C 2.69 g/m*3 15.8 C 0 km/h
810 04-04-2007 19:28:02 15.3 C 2.61 g/m*3 15.3 C 0 km/h
811 04-04-2007 19:33:03 14.9 C 2.55 g/m*3 14.9 C 0 km/h
812 04-04-2007 19:38:03 14.7 C 2.52 g/m*3 14.7 C 0 km/h
813 04-04-2007 19:43:03 14.1 C 2.43 g/m*3 14.1 C 0 km/h
814 04-04-2007 19:48:02 14.1 C 2.43 g/m*3 14.1 C 0 km/h
815 04-04-2007 19:53:02 13.1 C 2.28 g/m*3 13.1 C 0 km/h
816 04-04-2007 19:58:02 12.9 C 2.25 g/m*3 12.9 C 0 km/h
817 04-04-2007 20:03:03 12.7 C 2.23 g/m*3 12.7 C 0 km/h
818 04-04-2007 20:08:03 12.3 C 2.17 g/m*3 12.3 C 0 km/h
819 04-04-2007 20:13:03 11.9 C 2.44 g/m*3 11.9 C 0 km/h
820 04-04-2007 20:18:03 11.8 C 2.42 g/m*3 11.8 C 0 km/h
821 04-04-2007 20:23:03 11.4 C 2.46 g/m*3 11.4 C 0 km/h
822 04-04-2007 20:28:03 11.2 C 2.64 g/m*3 11.2 C 0 km/h
823 04-04-2007 20:33:03 11 C 2.6 g/m*3 11 C 0 km/h
824 04-04-2007 20:38:03 10.8 C 2.77 g/m*3 10.8 C 0 km/h
825 04-04-2007 20:43:03 10.6 C 2.73 g/m*3 10.6 C 0 km/h
Sensor: Nr:Datum:Temp:Abs-Feuchte:Windchill:Wind:
Aussen-T/F 826 04-04-2007 20:48:02 10.4 C 2.7 g/m*3 10.4 C 0 km/h
827 04-04-2007 20:53:02 10.4 C 2.79 g/m*3 10.4 C 0 km/h
828 04-04-2007 20:58:02 10.1 C 2.55 g/m*3 10.1 C 0 km/h
829 04-04-2007 21:03:02 10 C 2.63 g/m*3 10 C 0 km/h
830 04-04-2007 21:08:02 9.9 C 2.61 g/m*3 9.9 C 0 km/h
831 04-04-2007 21:13:02 9.7 C 2.67 g/m*3 9.7 C 0 km/h
832 04-04-2007 21:18:02 9.6 C 2.75 g/m*3 9.6 C 0 km/h
833 04-04-2007 21:23:02 9.6 C 2.66 g/m*3 9.6 C 0 km/h
834 04-04-2007 21:28:03 9.5 C 2.73 g/m*3 9.5 C 0 km/h
835 04-04-2007 21:33:02 9.5 C 2.82 g/m*3 9.5 C 0 km/h
836 04-04-2007 21:38:02 9.2 C 2.77 g/m*3 9.2 C 0 km/h
837 04-04-2007 21:43:02 9.2 C 2.77 g/m*3 9.2 C 0 km/h
838 04-04-2007 21:48:02 9.1 C 2.75 g/m*3 9.1 C 0 km/h
839 04-04-2007 21:53:02 9.1 C 2.75 g/m*3 9.1 C 0 km/h
840 04-04-2007 21:58:02 9 C 2.73 g/m*3 9 C 0 km/h
841 04-04-2007 22:03:02 8.9 C 2.8 g/m*3 8.9 C 0 km/h
842 04-04-2007 22:08:02 8.8 C 2.96 g/m*3 8.8 C 0 km/h
843 04-04-2007 22:13:02 8.8 C 2.96 g/m*3 8.8 C 0 km/h
844 04-04-2007 22:18:02 8.6 C 2.92 g/m*3 8.6 C 0 km/h
845 04-04-2007 22:23:02 8.5 C 2.9 g/m*3 8.5 C 0 km/h
846 04-04-2007 22:28:02 8.4 C 2.97 g/m*3 8.4 C 0 km/h
847 04-04-2007 22:33:01 8.4 C 2.97 g/m*3 8.4 C 0 km/h
848 04-04-2007 22:38:01 8.2 C 2.93 g/m*3 8.2 C 0 km/h
849 04-04-2007 22:43:02 8.1 C 3 g/m*3 8.1 C 0 km/h
850 04-04-2007 22:48:02 8.1 C 3 g/m*3 8.1 C 0 km/h
Sensor: Nr:Datum:Temp:Abs-Feuchte:Windchill:Wind:
Aussen-T/F 851 04-04-2007 22:53:02 7.9 C 3.2 g/m*3 7.9 C 0 km/h
852 04-04-2007 22:58:02 7.8 C 3.18 g/m*3 7.8 C 0 km/h
853 04-04-2007 23:03:03 7.6 C 3.14 g/m*3 7.6 C 0 km/h
854 04-04-2007 23:08:03 7.5 C 3.12 g/m*3 7.5 C 0 km/h
855 04-04-2007 23:13:03 7.4 C 3.18 g/m*3 7.4 C 0 km/h
856 04-04-2007 23:18:02 7.3 C 3.16 g/m*3 7.3 C 0 km/h
857 04-04-2007 23:23:02 7.1 C 3.2 g/m*3 7.1 C 0 km/h
858 04-04-2007 23:28:02 6.9 C 3.16 g/m*3 6.9 C 0 km/h
859 04-04-2007 23:33:02 6.8 C 3.21 g/m*3 6.8 C 0 km/h
860 04-04-2007 23:38:02 6.8 C 3.21 g/m*3 6.8 C 0 km/h
861 04-04-2007 23:43:02 6.7 C 3.19 g/m*3 6.7 C 0 km/h
862 04-04-2007 23:48:03 6.5 C 3.15 g/m*3 6.5 C 0 km/h
863 04-04-2007 23:53:03 6.5 C 3.22 g/m*3 6.5 C 0 km/h
864 04-04-2007 23:58:03 6.4 C 3.13 g/m*3 6.4 C 0 km/h
865 05-04-2007 00:03:03 6.3 C 3.26 g/m*3 6.3 C 0 km/h
866 05-04-2007 00:08:03 6.2 C 3.31 g/m*3 6.2 C 0 km/h
867 05-04-2007 00:13:03 6.1 C 3.29 g/m*3 6.1 C 0 km/h
868 05-04-2007 00:18:02 5.9 C 3.32 g/m*3 5.9 C 0 km/h
869 05-04-2007 00:23:02 5.7 C 3.34 g/m*3 5.7 C 0 km/h
870 05-04-2007 00:28:02 5.7 C 3.34 g/m*3 5.7 C 0 km/h
871 05-04-2007 00:33:03 5.7 C 3.27 g/m*3 5.7 C 0 km/h
872 05-04-2007 00:38:03 5.6 C 3.32 g/m*3 5.6 C 0 km/h
873 05-04-2007 00:43:03 5.6 C 3.32 g/m*3 5.6 C 0 km/h
874 05-04-2007 00:48:02 5.5 C 3.3 g/m*3 5.5 C 0 km/h
875 05-04-2007 00:53:02 5.4 C 3.28 g/m*3 5.4 C 0 km/h
Sensor: Nr:Datum:Temp:Abs-Feuchte:Windchill:Wind:
Aussen-T/F 876 05-04-2007 00:58:02 5.4 C 3.28 g/m*3 5.4 C 0 km/h
877 05-04-2007 01:03:02 5.3 C 3.4 g/m*3 5.3 C 0 km/h
878 05-04-2007 01:08:02 5.3 C 3.47 g/m*3 5.3 C 0 km/h
879 05-04-2007 01:13:02 5.2 C 3.44 g/m*3 5.2 C 0 km/h
880 05-04-2007 01:18:02 5.2 C 3.51 g/m*3 5.2 C 0 km/h
881 05-04-2007 01:23:02 5 C 3.47 g/m*3 5 C 0 km/h
882 05-04-2007 01:28:02 4.9 C 3.51 g/m*3 4.9 C 0 km/h
883 05-04-2007 01:33:02 4.8 C 3.49 g/m*3 4.8 C 0 km/h
884 05-04-2007 01:38:03 4.7 C 3.53 g/m*3 4.7 C 0 km/h
885 05-04-2007 01:43:03 4.6 C 3.44 g/m*3 4.6 C 0 km/h
886 05-04-2007 01:48:03 4.6 C 3.51 g/m*3 4.6 C 0 km/h
887 05-04-2007 01:53:03 4.5 C 3.48 g/m*3 4.5 C 0 km/h
888 05-04-2007 01:58:03 4.4 C 3.46 g/m*3 4.4 C 0 km/h
889 05-04-2007 02:03:03 4.4 C 3.53 g/m*3 4.4 C 0 km/h
890 05-04-2007 02:08:03 4.4 C 3.46 g/m*3 4.4 C 0 km/h
891 05-04-2007 02:13:03 4.3 C 3.5 g/m*3 4.3 C 0 km/h
892 05-04-2007 02:18:03 4.2 C 3.54 g/m*3 4.2 C 0 km/h
893 05-04-2007 02:23:03 4.1 C 3.58 g/m*3 4.1 C 0 km/h
894 05-04-2007 02:28:03 3.9 C 3.66 g/m*3 3.9 C 0 km/h
895 05-04-2007 02:33:03 3.7 C 3.61 g/m*3 3.7 C 0 km/h
896 05-04-2007 02:38:03 3.7 C 3.68 g/m*3 3.7 C 0 km/h
897 05-04-2007 02:43:03 3.5 C 3.63 g/m*3 3.5 C 0 km/h
898 05-04-2007 02:49:04 3.4 C 3.66 g/m*3 3.4 C 0 km/h
899 05-04-2007 02:54:04 3.3 C 3.64 g/m*3 3.3 C 0 km/h
900 05-04-2007 02:59:04 3.3 C 3.64 g/m*3 3.3 C 0 km/h
Sensor: Nr:Datum:Temp:Abs-Feuchte:Windchill:Wind:
Aussen-T/F 901 05-04-2007 03:04:04 3.2 C 3.62 g/m*3 3.2 C 0 km/h
902 05-04-2007 03:09:04 3 C 3.57 g/m*3 3 C 0 km/h
903 05-04-2007 03:14:04 3 C 3.57 g/m*3 3 C 0 km/h
904 05-04-2007 03:19:04 2.8 C 3.58 g/m*3 2.8 C 0 km/h
905 05-04-2007 03:24:04 2.7 C 3.55 g/m*3 2.7 C 0 km/h
906 05-04-2007 03:29:04 2.7 C 3.55 g/m*3 2.7 C 0 km/h
907 05-04-2007 03:34:02 2.6 C 3.53 g/m*3 2.6 C 0 km/h
908 05-04-2007 03:39:02 2.6 C 3.59 g/m*3 2.6 C 0 km/h
909 05-04-2007 03:44:02 2.7 C 3.61 g/m*3 2.7 C 0 km/h
910 05-04-2007 03:49:02 2.7 C 3.61 g/m*3 2.7 C 0 km/h
911 05-04-2007 03:54:02 2.5 C 3.56 g/m*3 2.5 C 0 km/h
912 05-04-2007 03:59:02 2.3 C 3.57 g/m*3 2.3 C 0 km/h
913 05-04-2007 04:04:02 2.3 C 3.57 g/m*3 2.3 C 0 km/h
914 05-04-2007 04:09:02 2.2 C 3.6 g/m*3 2.2 C 0 km/h
915 05-04-2007 04:14:02 2.1 C 3.58 g/m*3 2.1 C 0 km/h
916 05-04-2007 04:19:02 2.1 C 3.58 g/m*3 2.1 C 0 km/h
917 05-04-2007 04:24:02 2 C 3.56 g/m*3 2 C 0 km/h
918 05-04-2007 04:29:02 1.9 C 3.59 g/m*3 1.9 C 0 km/h
919 05-04-2007 04:34:02 1.8 C 3.56 g/m*3 1.8 C 0 km/h
920 05-04-2007 04:39:02 1.8 C 3.56 g/m*3 1.8 C 0 km/h
921 05-04-2007 04:44:02 1.7 C 3.59 g/m*3 1.7 C 0 km/h
922 05-04-2007 04:49:02 1.6 C 3.57 g/m*3 1.6 C 0 km/h
923 05-04-2007 04:54:02 1.6 C 3.62 g/m*3 1.6 C 0 km/h
924 05-04-2007 04:59:02 1.5 C 3.6 g/m*3 1.5 C 0 km/h
925 05-04-2007 05:04:02 1.5 C 3.54 g/m*3 1.5 C 0 km/h
Sensor: Nr:Datum:Temp:Abs-Feuchte:Windchill:Wind:
Aussen-T/F 926 05-04-2007 05:09:02 1.5 C 3.54 g/m*3 1.5 C 0 km/h
927 05-04-2007 05:14:02 1.4 C 3.52 g/m*3 1.4 C 0 km/h
928 05-04-2007 05:19:01 1.3 C 3.44 g/m*3 1.3 C 0 km/h
929 05-04-2007 05:24:01 1.2 C 3.47 g/m*3 1.2 C 0 km/h
930 05-04-2007 05:29:01 1.2 C 3.47 g/m*3 1.2 C 0 km/h
931 05-04-2007 05:34:02 1.1 C 3.45 g/m*3 1.1 C 0 km/h
932 05-04-2007 05:39:02 1.1 C 3.5 g/m*3 1.1 C 0 km/h
933 05-04-2007 05:44:02 1.1 C 3.5 g/m*3 1.1 C 0 km/h
934 05-04-2007 05:49:02 1.1 C 3.55 g/m*3 1.1 C 0 km/h
935 05-04-2007 05:54:02 1 C 3.53 g/m*3 1 C 0 km/h
936 05-04-2007 05:59:02 1 C 3.53 g/m*3 1 C 0 km/h
937 05-04-2007 06:04:03 0.9 C 3.56 g/m*3 0.9 C 0 km/h
938 05-04-2007 06:09:03 0.8 C 3.58 g/m*3 0.8 C 0 km/h
939 05-04-2007 06:14:03 0.8 C 3.58 g/m*3 0.8 C 0 km/h
940 05-04-2007 06:19:03 0.8 C 3.58 g/m*3 0.8 C 0 km/h
941 05-04-2007 06:24:03 0.7 C 3.56 g/m*3 0.7 C 0 km/h
942 05-04-2007 06:29:03 0.7 C 3.56 g/m*3 0.7 C 0 km/h
943 05-04-2007 06:34:02 0.6 C 3.53 g/m*3 0.6 C 0 km/h
944 05-04-2007 06:39:02 0.6 C 3.59 g/m*3 0.6 C 0 km/h
945 05-04-2007 06:44:02 0.6 C 3.59 g/m*3 0.6 C 0 km/h
946 05-04-2007 06:49:02 0.5 C 3.61 g/m*3 0.5 C 0 km/h
947 05-04-2007 06:54:02 0.5 C 3.61 g/m*3 0.5 C 0 km/h
948 05-04-2007 06:59:02 0.5 C 3.66 g/m*3 0.5 C 0 km/h
949 05-04-2007 07:04:02 0.4 C 3.59 g/m*3 0.4 C 0 km/h
950 05-04-2007 07:09:02 0.4 C 3.64 g/m*3 0.4 C 0 km/h
Sensor: Nr:Datum:Temp:Abs-Feuchte:Windchill:Wind:
Aussen-T/F 951 05-04-2007 07:14:02 0.3 C 3.61 g/m*3 0.3 C 0 km/h
952 05-04-2007 07:19:02 0.3 C 3.66 g/m*3 0.3 C 0 km/h
953 05-04-2007 07:24:02 0.3 C 3.66 g/m*3 0.3 C 0 km/h
954 05-04-2007 07:29:02 0.3 C 3.66 g/m*3 0.3 C 0 km/h
955 05-04-2007 07:34:01 0.3 C 3.66 g/m*3 0.3 C 0 km/h
956 05-04-2007 07:39:01 0.5 C 3.71 g/m*3 0.5 C 0 km/h
957 05-04-2007 07:44:01 0.5 C 3.71 g/m*3 0.5 C 0 km/h
958 05-04-2007 07:49:02 0.5 C 3.71 g/m*3 0.5 C 0 km/h
959 05-04-2007 07:54:03 0.5 C 3.71 g/m*3 0.5 C 0 km/h
960 05-04-2007 07:59:03 0.6 C 3.74 g/m*3 0.6 C 0 km/h
961 05-04-2007 08:04:02 0.7 C 3.71 g/m*3 0.7 C 0 km/h
962 05-04-2007 08:09:02 0.8 C 3.74 g/m*3 0.8 C 0 km/h
963 05-04-2007 08:14:02 0.8 C 3.74 g/m*3 0.8 C 0 km/h
964 05-04-2007 08:19:02 1 C 3.69 g/m*3 1 C 0 km/h
965 05-04-2007 08:24:02 1.1 C 3.71 g/m*3 1.1 C 0 km/h
966 05-04-2007 08:29:02 1.2 C 3.74 g/m*3 1.2 C 0 km/h
967 05-04-2007 08:34:02 1.3 C 3.76 g/m*3 1.3 C 0 km/h
968 05-04-2007 08:39:02 1.4 C 3.79 g/m*3 1.4 C 0 km/h
969 05-04-2007 08:44:02 1.5 C 3.81 g/m*3 1.5 C 0 km/h
970 05-04-2007 08:49:02 1.6 C 3.79 g/m*3 1.6 C 0 km/h
971 05-04-2007 08:54:02 1.7 C 3.81 g/m*3 1.7 C 0 km/h
972 05-04-2007 08:59:02 1.8 C 3.84 g/m*3 1.8 C 0 km/h
973 05-04-2007 09:04:02 2 C 3.78 g/m*3 2 C 0 km/h
974 05-04-2007 09:09:02 2.1 C 3.75 g/m*3 2.1 C 0 km/h
975 05-04-2007 09:14:03 2.2 C 3.77 g/m*3 2.2 C 0 km/h
Sensor: Nr:Datum:Temp:Abs-Feuchte:Windchill:Wind:
Aussen-T/F 976 05-04-2007 09:19:02 2.5 C 3.85 g/m*3 2.5 C 0 km/h
977 05-04-2007 09:24:02 2.7 C 3.85 g/m*3 2.7 C 0 km/h
978 05-04-2007 09:29:02 2.9 C 3.84 g/m*3 2.9 C 0 km/h
979 05-04-2007 09:34:02 3 C 3.81 g/m*3 3 C 0 km/h
980 05-04-2007 09:39:02 3.2 C 3.86 g/m*3 3.2 C 0 km/h
981 05-04-2007 09:44:02 3.5 C 3.81 g/m*3 3.5 C 0 km/h
982 05-04-2007 09:49:02 3.6 C 3.84 g/m*3 3.6 C 0 km/h
983 05-04-2007 09:54:02 3.9 C 3.92 g/m*3 3.9 C 0 km/h
984 05-04-2007 09:59:03 4.2 C 3.87 g/m*3 4.2 C 0 km/h
985 05-04-2007 10:04:02 4.3 C 3.89 g/m*3 4.3 C 0 km/h
986 05-04-2007 10:09:02 4.5 C 3.88 g/m*3 4.5 C 0 km/h
987 05-04-2007 10:14:02 5 C 3.87 g/m*3 5 C 0 km/h
988 05-04-2007 10:19:01 5.3 C 3.88 g/m*3 5.3 C 0 km/h
989 05-04-2007 10:24:01 5.5 C 3.86 g/m*3 5.5 C 0 km/h
990 05-04-2007 10:29:01 5.8 C 3.94 g/m*3 5.8 C 0 km/h
991 05-04-2007 10:34:02 6.2 C 3.9 g/m*3 6.2 C 0 km/h
992 05-04-2007 10:39:02 6.3 C 3.85 g/m*3 6.3 C 0 km/h
993 05-04-2007 10:44:02 6.7 C 3.95 g/m*3 6.7 C 0 km/h
994 05-04-2007 10:49:01 6.9 C 3.93 g/m*3 6.9 C 0 km/h
995 05-04-2007 10:54:01 7.1 C 3.9 g/m*3 7.1 C 0 km/h
996 05-04-2007 10:59:01 7.4 C 3.9 g/m*3 7.4 C 0 km/h
997 05-04-2007 11:04:02 7.9 C 3.94 g/m*3 7.9 C 0 km/h
998 05-04-2007 11:09:02 8 C 3.8 g/m*3 8 C 0 km/h
999 05-04-2007 11:14:02 8.4 C 3.9 g/m*3 8.4 C 0 km/h
1000 05-04-2007 11:19:02 8.7 C 3.89 g/m*3 8.7 C 0 km/h
Sensor: Nr:Datum:Temp:Abs-Feuchte:Windchill:Wind:
Aussen-T/F 1001 05-04-2007 11:24:02 8.9 C 3.85 g/m*3 8.9 C 0 km/h
1002 05-04-2007 11:29:02 9.1 C 3.82 g/m*3 9.1 C 0 km/h
1003 05-04-2007 11:34:02 9.5 C 3.91 g/m*3 9.5 C 0 km/h
1004 05-04-2007 11:39:03 9.8 C 3.8 g/m*3 9.8 C 0 km/h
1005 05-04-2007 11:44:03 10 C 3.76 g/m*3 10 C 0 km/h
1006 05-04-2007 11:49:02 10.1 C 3.5 g/m*3 10.1 C 0 km/h
1007 05-04-2007 11:54:02 10 C 3.48 g/m*3 10 C 0 km/h
1008 05-04-2007 11:59:02 10.1 C 3.5 g/m*3 10.1 C 0 km/h
1009 05-04-2007 12:04:02 10.5 C 3.59 g/m*3 10.5 C 0 km/h
1010 05-04-2007 12:09:02 10.9 C 3.48 g/m*3 10.9 C 0 km/h
1011 05-04-2007 12:14:02 11.2 C 3.34 g/m*3 11.2 C 0 km/h
1012 05-04-2007 12:19:02 11.5 C 3.31 g/m*3 11.5 C 0 km/h
1013 05-04-2007 12:24:02 11.5 C 3.1 g/m*3 11.5 C 0 km/h
1014 05-04-2007 12:29:03 11.4 C 3.08 g/m*3 11.4 C 0 km/h
1015 05-04-2007 12:34:02 11.3 C 3.06 g/m*3 11.3 C 0 km/h
1016 05-04-2007 12:39:02 11.4 C 2.98 g/m*3 11.4 C 0 km/h
1017 05-04-2007 12:44:02 11.6 C 3.12 g/m*3 11.6 C 0 km/h
1018 05-04-2007 12:49:02 11.7 C 3.14 g/m*3 11.7 C 0 km/h
1019 05-04-2007 12:54:02 11.9 C 3.07 g/m*3 11.9 C 0 km/h
1020 05-04-2007 12:59:02 12.7 C 3.01 g/m*3 12.7 C 0 km/h
1021 05-04-2007 13:04:02 12.6 C 2.88 g/m*3 12.6 C 0 km/h
1022 05-04-2007 13:09:02 12.7 C 2.89 g/m*3 12.7 C 0 km/h
1023 05-04-2007 13:14:02 12.7 C 2.89 g/m*3 12.7 C 0 km/h
1024 05-04-2007 13:19:02 12.8 C 2.91 g/m*3 12.8 C 0 km/h
1025 05-04-2007 13:24:02 12.9 C 3.04 g/m*3 12.9 C 0 km/h
Sensor: Nr:Datum:Temp:Abs-Feuchte:Windchill:Wind:
Aussen-T/F 1026 05-04-2007 13:29:02 13.1 C 2.97 g/m*3 13.1 C 0 km/h
1027 05-04-2007 13:34:03 13.2 C 2.99 g/m*3 13.2 C 0 km/h
1028 05-04-2007 13:39:03 13.3 C 3.12 g/m*3 13.3 C 0 km/h
1029 05-04-2007 13:44:03 13.5 C 3.28 g/m*3 13.5 C 0 km/h
1030 05-04-2007 13:49:02 13.4 C 3.14 g/m*3 13.4 C 0 km/h
1031 05-04-2007 13:54:02 13.6 C 3.18 g/m*3 13.6 C 0 km/h
1032 05-04-2007 13:59:02 13.9 C 3.24 g/m*3 13.9 C 0 km/h
1033 05-04-2007 14:04:02 14.5 C 3.23 g/m*3 14.5 C 0 km/h
1034 05-04-2007 14:09:02 14.2 C 3.17 g/m*3 14.2 C 0 km/h
1035 05-04-2007 14:14:02 14.7 C 3.27 g/m*3 14.7 C 0 km/h
1036 05-04-2007 14:19:02 14.8 C 3.17 g/m*3 14.8 C 0 km/h
1037 05-04-2007 14:24:02 14.7 C 3.15 g/m*3 14.7 C 0 km/h
1038 05-04-2007 14:29:02 14.9 C 3.31 g/m*3 14.9 C 0 km/h
1039 05-04-2007 14:34:02 15.2 C 3.24 g/m*3 15.2 C 0 km/h
1040 05-04-2007 14:39:02 15.5 C 3.3 g/m*3 15.5 C 0 km/h
1041 05-04-2007 14:44:02 15.6 C 3.19 g/m*3 15.6 C 0 km/h
1042 05-04-2007 14:49:01 15.9 C 3.39 g/m*3 15.9 C 0 km/h
1043 05-04-2007 14:54:01 16 C 3.41 g/m*3 16 C 0 km/h
1044 05-04-2007 14:59:01 15.8 C 3.23 g/m*3 15.8 C 0 km/h
1045 05-04-2007 15:04:02 16 C 3.41 g/m*3 16 C 0 km/h
1046 05-04-2007 15:09:02 15.9 C 3.39 g/m*3 15.9 C 0 km/h
1047 05-04-2007 15:14:02 16 C 3.41 g/m*3 16 C 0 km/h
1048 05-04-2007 15:19:02 16.1 C 3.43 g/m*3 16.1 C 0 km/h
1049 05-04-2007 15:24:02 16.1 C 3.15 g/m*3 16.1 C 0 km/h
1050 05-04-2007 15:29:03 16.2 C 3.45 g/m*3 16.2 C 0 km/h
Sensor: Nr:Datum:Temp:Abs-Feuchte:Windchill:Wind:
Aussen-T/F 1051 05-04-2007 15:34:01 16.5 C 3.51 g/m*3 16.5 C 0 km/h
1052 05-04-2007 15:39:01 17.1 C 3.35 g/m*3 17.1 C 0 km/h
1053 05-04-2007 15:44:01 17.4 C 3.11 g/m*3 17.4 C 0 km/h
1054 05-04-2007 15:49:02 17.4 C 3.11 g/m*3 17.4 C 0 km/h
1055 05-04-2007 15:54:02 17.2 C 2.93 g/m*3 17.2 C 0 km/h
1056 05-04-2007 15:59:02 17.2 C 2.93 g/m*3 17.2 C 0 km/h
1057 05-04-2007 16:04:02 17.3 C 2.95 g/m*3 17.3 C 0 km/h
1058 05-04-2007 16:09:02 17.3 C 3.09 g/m*3 17.3 C 0 km/h
1059 05-04-2007 16:14:03 17.9 C 3.21 g/m*3 17.9 C 0 km/h
1060 05-04-2007 16:19:02 17.6 C 3 g/m*3 17.6 C 0 km/h
1061 05-04-2007 16:24:02 17.3 C 2.95 g/m*3 17.3 C 0 km/h
1062 05-04-2007 16:29:02 17.5 C 3.13 g/m*3 17.5 C 0 km/h
1063 05-04-2007 16:34:02 17.4 C 3.11 g/m*3 17.4 C 0 km/h
1064 05-04-2007 16:39:02 17.6 C 3.3 g/m*3 17.6 C 0 km/h
1065 05-04-2007 16:44:02 17.9 C 3.21 g/m*3 17.9 C 0 km/h
1066 05-04-2007 16:49:02 18.4 C 3.15 g/m*3 18.4 C 0 km/h
1067 05-04-2007 16:54:02 18.6 C 3.18 g/m*3 18.6 C 0 km/h
1068 05-04-2007 16:59:02 19 C 3.26 g/m*3 19 C 0 km/h
1069 05-04-2007 17:04:02 19 C 3.26 g/m*3 19 C 0 km/h
1070 05-04-2007 17:09:02 19 C 3.26 g/m*3 19 C 0 km/h
1071 05-04-2007 17:14:02 18.4 C 3.15 g/m*3 18.4 C 0 km/h
1072 05-04-2007 17:19:02 18.5 C 3.64 g/m*3 18.5 C 0 km/h
1073 05-04-2007 17:24:02 18.4 C 3.77 g/m*3 18.4 C 0 km/h
1074 05-04-2007 17:29:02 18.5 C 3.8 g/m*3 18.5 C 0 km/h
1075 05-04-2007 17:34:02 18.8 C 3.87 g/m*3 18.8 C 0 km/h
Sensor: Nr:Datum:Temp:Abs-Feuchte:Windchill:Wind:
Aussen-T/F 1076 05-04-2007 17:39:02 17.4 C 3.71 g/m*3 17.4 C 0 km/h
1077 05-04-2007 17:44:02 17.8 C 3.95 g/m*3 17.8 C 0 km/h
1078 05-04-2007 17:49:01 17.3 C 3.83 g/m*3 17.3 C 0 km/h
1079 05-04-2007 17:54:01 17.6 C 4.2 g/m*3 17.6 C 0 km/h
1080 05-04-2007 17:59:01 17.6 C 4.2 g/m*3 17.6 C 0 km/h
1081 05-04-2007 18:04:02 17.9 C 4.43 g/m*3 17.9 C 0 km/h
1082 05-04-2007 18:09:02 18.1 C 4.33 g/m*3 18.1 C 0 km/h
1083 05-04-2007 18:14:02 17.9 C 4.28 g/m*3 17.9 C 0 km/h
1084 05-04-2007 18:19:02 17 C 4.2 g/m*3 17 C 0 km/h
1085 05-04-2007 18:24:02 17.5 C 4.47 g/m*3 17.5 C 0 km/h
1086 05-04-2007 18:29:02 17.3 C 4.42 g/m*3 17.3 C 0 km/h
1087 05-04-2007 18:34:02 17.4 C 4.59 g/m*3 17.4 C 0 km/h
1088 05-04-2007 18:39:03 17.3 C 4.57 g/m*3 17.3 C 0 km/h
1089 05-04-2007 18:44:03 17.2 C 4.69 g/m*3 17.2 C 0 km/h
1090 05-04-2007 18:49:03 17.2 C 4.69 g/m*3 17.2 C 0 km/h
1091 05-04-2007 18:54:03 17.5 C 4.77 g/m*3 17.5 C 0 km/h
1092 05-04-2007 18:59:03 17.4 C 4.74 g/m*3 17.4 C 0 km/h
1093 05-04-2007 19:04:02 16.8 C 4.72 g/m*3 16.8 C 0 km/h
1094 05-04-2007 19:09:02 16.7 C 4.83 g/m*3 16.7 C 0 km/h
1095 05-04-2007 19:14:02 16.4 C 4.89 g/m*3 16.4 C 0 km/h
1096 05-04-2007 19:19:02 15.9 C 4.88 g/m*3 15.9 C 0 km/h
1097 05-04-2007 19:24:02 15.6 C 4.79 g/m*3 15.6 C 0 km/h
1098 05-04-2007 19:29:02 15.3 C 4.96 g/m*3 15.3 C 0 km/h
1099 05-04-2007 19:34:03 15.1 C 5.03 g/m*3 15.1 C 0 km/h
1100 05-04-2007 19:39:03 15 C 5 g/m*3 15 C 0 km/h
Sensor: Nr:Datum:Temp:Abs-Feuchte:Windchill:Wind:
Aussen-T/F 1101 05-04-2007 19:44:03 14.8 C 5.07 g/m*3 14.8 C 0 km/h
1102 05-04-2007 19:49:02 14.4 C 5.07 g/m*3 14.4 C 0 km/h
1103 05-04-2007 19:54:02 14.2 C 5.13 g/m*3 14.2 C 0 km/h
1104 05-04-2007 19:59:02 14.1 C 5.22 g/m*3 14.1 C 0 km/h
1105 05-04-2007 20:04:01 13.8 C 5.24 g/m*3 13.8 C 0 km/h
1106 05-04-2007 20:09:01 13.7 C 5.33 g/m*3 13.7 C 0 km/h
1107 05-04-2007 20:14:01 13.5 C 5.38 g/m*3 13.5 C 0 km/h
1108 05-04-2007 20:19:01 13.4 C 5.35 g/m*3 13.4 C 0 km/h
1109 05-04-2007 20:24:01 13.2 C 5.4 g/m*3 13.2 C 0 km/h
1110 05-04-2007 20:29:01 13.2 C 5.4 g/m*3 13.2 C 0 km/h
1111 05-04-2007 20:34:02 13.1 C 5.48 g/m*3 13.1 C 0 km/h
1112 05-04-2007 20:39:02 13 C 5.44 g/m*3 13 C 0 km/h
1113 05-04-2007 20:44:02 13 C 5.44 g/m*3 13 C 0 km/h
1114 05-04-2007 20:49:01 12.8 C 5.49 g/m*3 12.8 C 0 km/h
1115 05-04-2007 20:54:01 12.8 C 5.6 g/m*3 12.8 C 0 km/h
1116 05-04-2007 20:59:01 12.7 C 5.57 g/m*3 12.7 C 0 km/h
1117 05-04-2007 21:04:01 12.5 C 5.61 g/m*3 12.5 C 0 km/h
1118 05-04-2007 21:09:01 12.4 C 5.68 g/m*3 12.4 C 0 km/h
1119 05-04-2007 21:14:01 12.3 C 5.65 g/m*3 12.3 C 0 km/h
1120 05-04-2007 21:19:02 12.2 C 5.72 g/m*3 12.2 C 0 km/h
1121 05-04-2007 21:24:02 12.2 C 5.72 g/m*3 12.2 C 0 km/h
1122 05-04-2007 21:29:02 12 C 5.75 g/m*3 12 C 0 km/h
1123 05-04-2007 21:34:02 12 C 5.75 g/m*3 12 C 0 km/h
1124 05-04-2007 21:39:03 12 C 5.75 g/m*3 12 C 0 km/h
1125 05-04-2007 21:44:03 11.8 C 5.89 g/m*3 11.8 C 0 km/h
Sensor: Nr:Datum:Temp:Abs-Feuchte:Windchill:Wind:
Aussen-T/F 1126 05-04-2007 21:49:02 11.9 C 5.93 g/m*3 11.9 C 0 km/h
1127 05-04-2007 21:54:02 11.6 C 5.92 g/m*3 11.6 C 0 km/h
1128 05-04-2007 21:59:02 11.5 C 5.78 g/m*3 11.5 C 0 km/h
1129 05-04-2007 22:04:02 11.3 C 5.81 g/m*3 11.3 C 0 km/h
1130 05-04-2007 22:09:02 11.2 C 5.88 g/m*3 11.2 C 0 km/h
1131 05-04-2007 22:14:02 11.1 C 5.84 g/m*3 11.1 C 0 km/h
1132 05-04-2007 22:19:02 11 C 5.81 g/m*3 11 C 0 km/h
1133 05-04-2007 22:24:02 10.9 C 5.97 g/m*3 10.9 C 0 km/h
1134 05-04-2007 22:29:03 10.8 C 5.93 g/m*3 10.8 C 0 km/h
1135 05-04-2007 22:34:02 10.8 C 5.93 g/m*3 10.8 C 0 km/h
1136 05-04-2007 22:39:02 10.7 C 5.99 g/m*3 10.7 C 0 km/h
1137 05-04-2007 22:44:02 10.7 C 5.99 g/m*3 10.7 C 0 km/h
1138 05-04-2007 22:49:02 10.5 C 5.92 g/m*3 10.5 C 0 km/h
1139 05-04-2007 22:54:02 10.5 C 5.92 g/m*3 10.5 C 0 km/h
1140 05-04-2007 22:59:02 10.3 C 5.84 g/m*3 10.3 C 0 km/h
1141 05-04-2007 23:04:02 10.1 C 5.86 g/m*3 10.1 C 0 km/h
1142 05-04-2007 23:09:02 10.1 C 5.96 g/m*3 10.1 C 0 km/h
1143 05-04-2007 23:14:03 10 C 5.92 g/m*3 10 C 0 km/h
1144 05-04-2007 23:19:01 9.9 C 5.98 g/m*3 9.9 C 0 km/h
1145 05-04-2007 23:24:01 9.7 C 5.9 g/m*3 9.7 C 0 km/h
1146 05-04-2007 23:29:01 9.7 C 5.99 g/m*3 9.7 C 0 km/h
1147 05-04-2007 23:34:01 9.6 C 5.95 g/m*3 9.6 C 0 km/h
1148 05-04-2007 23:39:01 9.4 C 5.88 g/m*3 9.4 C 0 km/h
1149 05-04-2007 23:44:01 9.4 C 5.97 g/m*3 9.4 C 0 km/h
1150 05-04-2007 23:49:02 9.2 C 5.89 g/m*3 9.2 C 0 km/h
Sensor: Nr:Datum:Temp:Abs-Feuchte:Windchill:Wind:
Aussen-T/F 1151 05-04-2007 23:54:02 9.1 C 5.94 g/m*3 9.1 C 0 km/h
1152 05-04-2007 23:59:02 9.1 C 5.94 g/m*3 9.1 C 0 km/h
1153 06-04-2007 00:04:01 9 C 5.99 g/m*3 9 C 0 km/h
1154 06-04-2007 00:09:01 8.9 C 5.96 g/m*3 8.9 C 0 km/h
1155 06-04-2007 00:14:01 8.9 C 6.04 g/m*3 8.9 C 0 km/h
1156 06-04-2007 00:19:02 8.9 C 6.04 g/m*3 8.9 C 0 km/h
1157 06-04-2007 00:24:03 8.7 C 6.05 g/m*3 8.7 C 0 km/h
1158 06-04-2007 00:29:03 8.6 C 6.02 g/m*3 8.6 C 0 km/h
1159 06-04-2007 00:34:02 8.5 C 6.06 g/m*3 8.5 C 0 km/h
1160 06-04-2007 00:39:02 8.3 C 5.98 g/m*3 8.3 C 0 km/h
1161 06-04-2007 00:44:03 8.2 C 6.03 g/m*3 8.2 C 0 km/h
1162 06-04-2007 00:49:02 8.2 C 6.03 g/m*3 8.2 C 0 km/h
1163 06-04-2007 00:54:02 7.9 C 6 g/m*3 7.9 C 0 km/h
1164 06-04-2007 00:59:02 7.9 C 6 g/m*3 7.9 C 0 km/h
1165 06-04-2007 01:04:02 7.8 C 6.04 g/m*3 7.8 C 0 km/h
1166 06-04-2007 01:09:02 7.7 C 6 g/m*3 7.7 C 0 km/h
1167 06-04-2007 01:14:02 7.6 C 5.96 g/m*3 7.6 C 0 km/h
1168 06-04-2007 01:19:02 7.5 C 6 g/m*3 7.5 C 0 km/h
1169 06-04-2007 01:24:03 7.5 C 6 g/m*3 7.5 C 0 km/h
1170 06-04-2007 01:29:03 7.4 C 6.04 g/m*3 7.4 C 0 km/h
1171 06-04-2007 01:34:02 7.3 C 6 g/m*3 7.3 C 0 km/h
1172 06-04-2007 01:39:02 7.2 C 5.97 g/m*3 7.2 C 0 km/h
1173 06-04-2007 01:44:02 7.1 C 6.01 g/m*3 7.1 C 0 km/h
1174 06-04-2007 01:49:02 7.1 C 6.01 g/m*3 7.1 C 0 km/h
1175 06-04-2007 01:54:02 7.2 C 6.04 g/m*3 7.2 C 0 km/h
Sensor: Nr:Datum:Temp:Abs-Feuchte:Windchill:Wind:
Aussen-T/F 1176 06-04-2007 01:59:02 6.9 C 6 g/m*3 6.9 C 0 km/h
1177 06-04-2007 02:04:02 6.9 C 6 g/m*3 6.9 C 0 km/h
1178 06-04-2007 02:09:02 6.8 C 5.97 g/m*3 6.8 C 0 km/h
1179 06-04-2007 02:14:02 6.8 C 5.97 g/m*3 6.8 C 0 km/h
1180 06-04-2007 02:19:02 6.8 C 5.97 g/m*3 6.8 C 0 km/h
1181 06-04-2007 02:24:02 6.8 C 6.04 g/m*3 6.8 C 0 km/h
1182 06-04-2007 02:29:02 6.7 C 6 g/m*3 6.7 C 0 km/h
1183 06-04-2007 02:34:02 6.7 C 6 g/m*3 6.7 C 0 km/h
1184 06-04-2007 02:39:02 6.5 C 5.92 g/m*3 6.5 C 0 km/h
1185 06-04-2007 02:44:02 6.4 C 5.89 g/m*3 6.4 C 0 km/h
1186 06-04-2007 02:49:02 6.4 C 5.96 g/m*3 6.4 C 0 km/h
1187 06-04-2007 02:54:02 6.2 C 5.88 g/m*3 6.2 C 0 km/h
1188 06-04-2007 02:59:02 6.2 C 5.96 g/m*3 6.2 C 0 km/h
1189 06-04-2007 03:04:02 6.2 C 5.96 g/m*3 6.2 C 0 km/h
1190 06-04-2007 03:09:02 6.2 C 5.96 g/m*3 6.2 C 0 km/h
1191 06-04-2007 03:14:01 6.1 C 5.92 g/m*3 6.1 C 0 km/h
1192 06-04-2007 03:19:01 6.1 C 5.92 g/m*3 6.1 C 0 km/h
1193 06-04-2007 03:24:01 5.9 C 5.91 g/m*3 5.9 C 0 km/h
1194 06-04-2007 03:29:02 5.9 C 5.91 g/m*3 5.9 C 0 km/h
1195 06-04-2007 03:34:02 5.9 C 5.91 g/m*3 5.9 C 0 km/h
1196 06-04-2007 03:39:02 5.8 C 5.87 g/m*3 5.8 C 0 km/h
1197 06-04-2007 03:44:02 5.8 C 5.95 g/m*3 5.8 C 0 km/h
1198 06-04-2007 03:49:02 5.8 C 5.95 g/m*3 5.8 C 0 km/h
1199 06-04-2007 03:54:02 5.7 C 5.91 g/m*3 5.7 C 0 km/h
1200 06-04-2007 03:59:02 5.6 C 5.87 g/m*3 5.6 C 0 km/h
Sensor: Nr:Datum:Temp:Abs-Feuchte:Windchill:Wind:
Aussen-T/F 1201 06-04-2007 04:04:02 5.4 C 5.86 g/m*3 5.4 C 0 km/h
1202 06-04-2007 04:09:02 5.4 C 5.86 g/m*3 5.4 C 0 km/h
1203 06-04-2007 04:14:02 5.4 C 5.86 g/m*3 5.4 C 0 km/h
1204 06-04-2007 04:19:02 5.3 C 5.82 g/m*3 5.3 C 0 km/h
1205 06-04-2007 04:24:02 5.3 C 5.82 g/m*3 5.3 C 0 km/h
1206 06-04-2007 04:29:02 5.2 C 5.78 g/m*3 5.2 C 0 km/h
1207 06-04-2007 04:34:02 5.2 C 5.78 g/m*3 5.2 C 0 km/h
1208 06-04-2007 04:39:02 5.1 C 5.75 g/m*3 5.1 C 0 km/h
1209 06-04-2007 04:44:02 5.1 C 5.75 g/m*3 5.1 C 0 km/h
1210 06-04-2007 04:49:02 4.8 C 5.7 g/m*3 4.8 C 0 km/h
1211 06-04-2007 04:54:02 4.8 C 5.7 g/m*3 4.8 C 0 km/h
1212 06-04-2007 04:59:02 4.7 C 5.66 g/m*3 4.7 C 0 km/h
1213 06-04-2007 05:04:02 4.6 C 5.69 g/m*3 4.6 C 0 km/h
1214 06-04-2007 05:09:02 4.6 C 5.69 g/m*3 4.6 C 0 km/h
1215 06-04-2007 05:14:02 4.6 C 5.69 g/m*3 4.6 C 0 km/h
1216 06-04-2007 05:19:01 4.6 C 5.69 g/m*3 4.6 C 0 km/h
1217 06-04-2007 05:24:01 4.5 C 5.72 g/m*3 4.5 C 0 km/h
1218 06-04-2007 05:29:01 4.5 C 5.72 g/m*3 4.5 C 0 km/h
1219 06-04-2007 05:34:01 4.4 C 5.68 g/m*3 4.4 C 0 km/h
1220 06-04-2007 05:39:01 4.4 C 5.68 g/m*3 4.4 C 0 km/h
1221 06-04-2007 05:44:01 4.4 C 5.68 g/m*3 4.4 C 0 km/h
1222 06-04-2007 05:49:01 4.3 C 5.64 g/m*3 4.3 C 0 km/h
1223 06-04-2007 05:54:01 4.2 C 5.61 g/m*3 4.2 C 0 km/h
1224 06-04-2007 05:59:01 4.1 C 5.57 g/m*3 4.1 C 0 km/h
1225 06-04-2007 06:04:02 4.1 C 5.57 g/m*3 4.1 C 0 km/h
Sensor: Nr:Datum:Temp:Abs-Feuchte:Windchill:Wind:
Aussen-T/F 1226 06-04-2007 06:09:02 4.1 C 5.57 g/m*3 4.1 C 0 km/h
1227 06-04-2007 06:14:02 4 C 5.53 g/m*3 4 C 0 km/h
1228 06-04-2007 06:19:02 4 C 5.53 g/m*3 4 C 0 km/h
1229 06-04-2007 06:24:02 3.9 C 5.56 g/m*3 3.9 C 0 km/h
1230 06-04-2007 06:29:02 3.9 C 5.56 g/m*3 3.9 C 0 km/h
1231 06-04-2007 06:34:01 3.8 C 5.52 g/m*3 3.8 C 0 km/h
1232 06-04-2007 06:39:02 3.8 C 5.52 g/m*3 3.8 C 0 km/h
1233 06-04-2007 06:44:02 3.7 C 5.48 g/m*3 3.7 C 0 km/h
1234 06-04-2007 06:49:02 3.7 C 5.48 g/m*3 3.7 C 0 km/h
1235 06-04-2007 06:54:02 3.7 C 5.48 g/m*3 3.7 C 0 km/h
1236 06-04-2007 06:59:02 3.7 C 5.48 g/m*3 3.7 C 0 km/h
1237 06-04-2007 07:04:02 3.6 C 5.51 g/m*3 3.6 C 0 km/h
1238 06-04-2007 07:09:02 3.6 C 5.51 g/m*3 3.6 C 0 km/h
1239 06-04-2007 07:14:02 3.5 C 5.47 g/m*3 3.5 C 0 km/h
1240 06-04-2007 07:19:01 3.5 C 5.47 g/m*3 3.5 C 0 km/h
1241 06-04-2007 07:24:01 3.5 C 5.47 g/m*3 3.5 C 0 km/h
1242 06-04-2007 07:29:01 3.5 C 5.47 g/m*3 3.5 C 0 km/h
1243 06-04-2007 07:34:01 3.5 C 5.47 g/m*3 3.5 C 0 km/h
1244 06-04-2007 07:39:01 3.5 C 5.47 g/m*3 3.5 C 0 km/h
1245 06-04-2007 07:44:01 3.6 C 5.51 g/m*3 3.6 C 0 km/h
1246 06-04-2007 07:49:01 3.6 C 5.51 g/m*3 3.6 C 0 km/h
1247 06-04-2007 07:54:01 3.7 C 5.55 g/m*3 3.7 C 0 km/h
1248 06-04-2007 07:59:02 3.7 C 5.55 g/m*3 3.7 C 0 km/h
1249 06-04-2007 08:04:01 3.8 C 5.58 g/m*3 3.8 C 0 km/h
1250 06-04-2007 08:09:01 3.8 C 5.58 g/m*3 3.8 C 0 km/h
Sensor: Nr:Datum:Temp:Abs-Feuchte:Windchill:Wind:
Aussen-T/F 1251 06-04-2007 08:14:01 3.9 C 5.62 g/m*3 3.9 C 0 km/h
1252 06-04-2007 08:19:01 3.9 C 5.62 g/m*3 3.9 C 0 km/h
1253 06-04-2007 08:24:01 4 C 5.59 g/m*3 4 C 0 km/h
1254 06-04-2007 08:29:01 4 C 5.59 g/m*3 4 C 0 km/h
1255 06-04-2007 08:34:02 4 C 5.53 g/m*3 4 C 0 km/h
1256 06-04-2007 08:39:02 4.1 C 5.57 g/m*3 4.1 C 0 km/h
1257 06-04-2007 08:44:02 4.2 C 5.61 g/m*3 4.2 C 0 km/h
1258 06-04-2007 08:49:01 4.3 C 5.64 g/m*3 4.3 C 0 km/h
1259 06-04-2007 08:54:01 4.5 C 5.72 g/m*3 4.5 C 0 km/h
1260 06-04-2007 08:59:01 4.6 C 5.76 g/m*3 4.6 C 0 km/h
1261 06-04-2007 09:04:02 4.7 C 5.8 g/m*3 4.7 C 0 km/h
1262 06-04-2007 09:09:02 4.8 C 5.83 g/m*3 4.8 C 0 km/h
1263 06-04-2007 09:14:02 5 C 5.78 g/m*3 5 C 0 km/h
1264 06-04-2007 09:19:02 5 C 5.78 g/m*3 5 C 0 km/h
1265 06-04-2007 09:24:02 5.2 C 5.85 g/m*3 5.2 C 0 km/h
1266 06-04-2007 09:29:02 5.4 C 5.93 g/m*3 5.4 C 0 km/h
1267 06-04-2007 09:34:01 5.6 C 6.01 g/m*3 5.6 C 0 km/h
1268 06-04-2007 09:39:01 5.9 C 6.06 g/m*3 5.9 C 0 km/h
1269 06-04-2007 09:44:01 6.1 C 6.14 g/m*3 6.1 C 0 km/h
1270 06-04-2007 09:49:02 6.3 C 6.14 g/m*3 6.3 C 0 km/h
1271 06-04-2007 09:54:02 6.6 C 6.27 g/m*3 6.6 C 0 km/h
1272 06-04-2007 09:59:02 6.9 C 6.31 g/m*3 6.9 C 0 km/h
1273 06-04-2007 10:04:01 7.1 C 6.32 g/m*3 7.1 C 0 km/h
1274 06-04-2007 10:09:01 7.3 C 6.4 g/m*3 7.3 C 0 km/h
1275 06-04-2007 10:14:02 7.5 C 6.4 g/m*3 7.5 C 0 km/h
Sensor: Nr:Datum:Temp:Abs-Feuchte:Windchill:Wind:
Aussen-T/F 1276 06-04-2007 10:19:01 7.8 C 6.53 g/m*3 7.8 C 0 km/h
1277 06-04-2007 10:24:01 8 C 6.45 g/m*3 8 C 0 km/h
1278 06-04-2007 10:29:01 8.2 C 6.53 g/m*3 8.2 C 0 km/h
1279 06-04-2007 10:34:01 8.6 C 6.62 g/m*3 8.6 C 0 km/h
1280 06-04-2007 10:39:01 8.8 C 6.7 g/m*3 8.8 C 0 km/h
1281 06-04-2007 10:44:01 9.1 C 6.65 g/m*3 9.1 C 0 km/h
1282 06-04-2007 10:49:01 9.5 C 6.64 g/m*3 9.5 C 0 km/h
1283 06-04-2007 10:54:01 9.7 C 6.55 g/m*3 9.7 C 0 km/h
1284 06-04-2007 10:59:02 9.8 C 6.59 g/m*3 9.8 C 0 km/h
1285 06-04-2007 11:04:01 10 C 6.48 g/m*3 10 C 0 km/h
1286 06-04-2007 11:09:01 10.4 C 6.65 g/m*3 10.4 C 0 km/h
1287 06-04-2007 11:14:01 10.5 C 6.6 g/m*3 10.5 C 0 km/h
1288 06-04-2007 11:19:01 10.8 C 6.72 g/m*3 10.8 C 0 km/h
1289 06-04-2007 11:24:01 11.4 C 6.98 g/m*3 11.4 C 0 km/h
1290 06-04-2007 11:29:01 11.7 C 7.01 g/m*3 11.7 C 0 km/h
1291 06-04-2007 11:34:02 12 C 6.82 g/m*3 12 C 0 km/h
1292 06-04-2007 11:39:02 12.5 C 6.82 g/m*3 12.5 C 0 km/h
1293 06-04-2007 11:44:02 12.7 C 6.79 g/m*3 12.7 C 0 km/h
1294 06-04-2007 11:49:01 12.9 C 6.65 g/m*3 12.9 C 0 km/h
1295 06-04-2007 11:54:01 13.2 C 6.66 g/m*3 13.2 C 0 km/h
1296 06-04-2007 11:59:01 13.5 C 6.67 g/m*3 13.5 C 0 km/h
1297 06-04-2007 12:04:02 13.7 C 6.63 g/m*3 13.7 C 0 km/h
1298 06-04-2007 12:09:02 13.9 C 6.71 g/m*3 13.9 C 0 km/h
1299 06-04-2007 12:14:02 14.3 C 6.51 g/m*3 14.3 C 0 km/h
1300 06-04-2007 12:19:02 14.4 C 6.43 g/m*3 14.4 C 0 km/h
Sensor: Nr:Datum:Temp:Abs-Feuchte:Windchill:Wind:
Aussen-T/F 1301 06-04-2007 12:24:02 14.9 C 6.5 g/m*3 14.9 C 0 km/h
1302 06-04-2007 12:29:02 15 C 6.41 g/m*3 15 C 0 km/h
1303 06-04-2007 12:34:02 15.2 C 6.62 g/m*3 15.2 C 0 km/h
1304 06-04-2007 12:39:02 15.6 C 6.65 g/m*3 15.6 C 0 km/h
1305 06-04-2007 12:44:02 15.7 C 6.56 g/m*3 15.7 C 0 km/h
1306 06-04-2007 12:49:01 15.8 C 6.33 g/m*3 15.8 C 0 km/h
1307 06-04-2007 12:54:01 15.9 C 6.09 g/m*3 15.9 C 0 km/h
1308 06-04-2007 12:59:01 16 C 5.86 g/m*3 16 C 0 km/h
1309 06-04-2007 13:04:02 16.2 C 5.93 g/m*3 16.2 C 0 km/h
1310 06-04-2007 13:09:02 16.3 C 6.1 g/m*3 16.3 C 0 km/h
1311 06-04-2007 13:14:02 16.4 C 5.86 g/m*3 16.4 C 0 km/h
1312 06-04-2007 13:19:01 16.7 C 5.83 g/m*3 16.7 C 0 km/h
1313 06-04-2007 13:24:01 16.8 C 5.43 g/m*3 16.8 C 0 km/h
1314 06-04-2007 13:29:02 17.4 C 5.63 g/m*3 17.4 C 0 km/h
1315 06-04-2007 13:34:01 17.6 C 5.4 g/m*3 17.6 C 0 km/h
1316 06-04-2007 13:39:01 17.6 C 5.4 g/m*3 17.6 C 0 km/h
1317 06-04-2007 13:44:01 17.8 C 4.4 g/m*3 17.8 C 0 km/h
1318 06-04-2007 13:49:02 17.7 C 3.77 g/m*3 17.7 C 0 km/h
1319 06-04-2007 13:54:02 17.7 C 3.77 g/m*3 17.7 C 0 km/h
1320 06-04-2007 13:59:02 18.3 C 3.6 g/m*3 18.3 C 0 km/h
1321 06-04-2007 14:04:01 18.6 C 3.5 g/m*3 18.6 C 0 km/h
1322 06-04-2007 14:09:01 19 C 4.07 g/m*3 19 C 0 km/h
1323 06-04-2007 14:14:01 19.2 C 4.12 g/m*3 19.2 C 0 km/h
1324 06-04-2007 14:19:01 19.7 C 4.42 g/m*3 19.7 C 0 km/h
1325 06-04-2007 14:24:01 20.2 C 4.37 g/m*3 20.2 C 0 km/h
Sensor: Nr:Datum:Temp:Abs-Feuchte:Windchill:Wind:
Aussen-T/F 1326 06-04-2007 14:29:01 20.4 C 4.42 g/m*3 20.4 C 0 km/h
1327 06-04-2007 14:34:02 21 C 4.4 g/m*3 21 C 0 km/h
1328 06-04-2007 14:39:02 21.4 C 3.75 g/m*3 21.4 C 0 km/h
1329 06-04-2007 14:44:02 21.3 C 3.73 g/m*3 21.3 C 0 km/h
1330 06-04-2007 14:49:02 21 C 3.66 g/m*3 21 C 0 km/h
1331 06-04-2007 14:54:02 21.4 C 3.94 g/m*3 21.4 C 0 km/h
1332 06-04-2007 14:59:02 21.9 C 3.86 g/m*3 21.9 C 0 km/h
1333 06-04-2007 15:04:02 21.9 C 3.86 g/m*3 21.9 C 0 km/h
1334 06-04-2007 15:09:02 22.2 C 3.93 g/m*3 22.2 C 0 km/h
1335 06-04-2007 15:14:02 22.6 C 4.02 g/m*3 22.6 C 0 km/h
1336 06-04-2007 15:19:02 22.5 C 3.99 g/m*3 22.5 C 0 km/h
1337 06-04-2007 15:24:02 22.2 C 3.93 g/m*3 22.2 C 0 km/h
1338 06-04-2007 15:29:02 22.3 C 3.95 g/m*3 22.3 C 0 km/h
1339 06-04-2007 15:34:01 22.1 C 3.9 g/m*3 22.1 C 0 km/h
1340 06-04-2007 15:39:01 22.1 C 3.9 g/m*3 22.1 C 0 km/h
1341 06-04-2007 15:44:01 22.4 C 3.97 g/m*3 22.4 C 0 km/h
1342 06-04-2007 15:49:02 22.7 C 4.04 g/m*3 22.7 C 0 km/h
1343 06-04-2007 15:54:02 23 C 4.11 g/m*3 23 C 0 km/h
1344 06-04-2007 15:59:02 23.4 C 4.21 g/m*3 23.4 C 0 km/h
1345 06-04-2007 16:04:02 23.4 C 4.21 g/m*3 23.4 C 0 km/h
1346 06-04-2007 16:09:02 23.6 C 4.25 g/m*3 23.6 C 0 km/h
1347 06-04-2007 16:14:02 23.4 C 4.21 g/m*3 23.4 C 0 km/h
1348 06-04-2007 16:19:01 23.7 C 4.28 g/m*3 23.7 C 0 km/h
1349 06-04-2007 16:24:02 23.8 C 4.3 g/m*3 23.8 C 0 km/h
1350 06-04-2007 16:29:02 22.9 C 4.09 g/m*3 22.9 C 0 km/h
Sensor: Nr:Datum:Temp:Abs-Feuchte:Windchill:Wind:
Aussen-T/F 1351 06-04-2007 16:34:01 22.7 C 4.04 g/m*3 22.7 C 0 km/h
1352 06-04-2007 16:39:01 22.5 C 3.99 g/m*3 22.5 C 0 km/h
1353 06-04-2007 16:44:01 22.8 C 4.06 g/m*3 22.8 C 0 km/h
1354 06-04-2007 16:49:02 23.6 C 4.25 g/m*3 23.6 C 0 km/h
1355 06-04-2007 16:54:02 24.2 C 4.4 g/m*3 24.2 C 0 km/h
1356 06-04-2007 16:59:02 24.4 C 4.45 g/m*3 24.4 C 0 km/h
1357 06-04-2007 17:04:02 24 C 4.35 g/m*3 24 C 0 km/h
1358 06-04-2007 17:09:02 23.8 C 4.3 g/m*3 23.8 C 0 km/h
1359 06-04-2007 17:14:02 24 C 4.35 g/m*3 24 C 0 km/h
1360 06-04-2007 17:19:01 23.9 C 4.33 g/m*3 23.9 C 0 km/h
1361 06-04-2007 17:24:01 23.5 C 4.23 g/m*3 23.5 C 0 km/h
1362 06-04-2007 17:29:02 23.2 C 4.16 g/m*3 23.2 C 0 km/h
1363 06-04-2007 17:34:01 23 C 4.11 g/m*3 23 C 0 km/h
1364 06-04-2007 17:39:01 22.7 C 4.04 g/m*3 22.7 C 0 km/h
1365 06-04-2007 17:44:01 22.8 C 4.06 g/m*3 22.8 C 0 km/h
1366 06-04-2007 17:49:02 22.9 C 4.09 g/m*3 22.9 C 0 km/h
1367 06-04-2007 17:54:02 22.7 C 4.04 g/m*3 22.7 C 0 km/h
1368 06-04-2007 17:59:02 22.1 C 3.9 g/m*3 22.1 C 0 km/h
1369 06-04-2007 18:04:01 22 C 3.88 g/m*3 22 C 0 km/h
1370 06-04-2007 18:09:01 21.9 C 3.86 g/m*3 21.9 C 0 km/h
1371 06-04-2007 18:14:01 21.2 C 3.71 g/m*3 21.2 C 0 km/h
1372 06-04-2007 18:19:01 21 C 3.66 g/m*3 21 C 0 km/h
1373 06-04-2007 18:24:01 20.8 C 3.98 g/m*3 20.8 C 0 km/h
1374 06-04-2007 18:29:01 20.5 C 4.09 g/m*3 20.5 C 0 km/h
1375 06-04-2007 18:34:01 20.4 C 4.25 g/m*3 20.4 C 0 km/h
Sensor: Nr:Datum:Temp:Abs-Feuchte:Windchill:Wind:
Aussen-T/F 1376 06-04-2007 18:39:01 20.4 C 4.42 g/m*3 20.4 C 0 km/h
1377 06-04-2007 18:44:01 20.2 C 4.37 g/m*3 20.2 C 0 km/h
1378 06-04-2007 18:49:02 19.9 C 4.47 g/m*3 19.9 C 0 km/h
1379 06-04-2007 18:54:02 20.1 C 4.52 g/m*3 20.1 C 0 km/h
1380 06-04-2007 18:59:02 20 C 4.49 g/m*3 20 C 0 km/h
1381 06-04-2007 19:04:02 19.7 C 4.58 g/m*3 19.7 C 0 km/h
1382 06-04-2007 19:09:02 19.6 C 4.73 g/m*3 19.6 C 0 km/h
1383 06-04-2007 19:14:02 19.5 C 4.87 g/m*3 19.5 C 0 km/h
1384 06-04-2007 19:19:01 19.4 C 5.01 g/m*3 19.4 C 0 km/h
1385 06-04-2007 19:24:01 19.3 C 4.98 g/m*3 19.3 C 0 km/h
1386 06-04-2007 19:29:02 19.1 C 5.08 g/m*3 19.1 C 0 km/h
1387 06-04-2007 19:34:01 18.9 C 5.02 g/m*3 18.9 C 0 km/h
1388 06-04-2007 19:39:01 18.7 C 4.96 g/m*3 18.7 C 0 km/h
1389 06-04-2007 19:44:01 18.5 C 5.06 g/m*3 18.5 C 0 km/h
1390 06-04-2007 19:49:02 18.2 C 5.13 g/m*3 18.2 C 0 km/h
1391 06-04-2007 19:54:02 18 C 5.07 g/m*3 18 C 0 km/h
1392 06-04-2007 19:59:02 17.9 C 5.34 g/m*3 17.9 C 0 km/h
1393 06-04-2007 20:04:01 17.6 C 5.25 g/m*3 17.6 C 0 km/h
1394 06-04-2007 20:09:01 17.2 C 5.27 g/m*3 17.2 C 0 km/h
1395 06-04-2007 20:14:01 17 C 5.21 g/m*3 17 C 0 km/h
1396 06-04-2007 20:19:01 17 C 5.35 g/m*3 17 C 0 km/h
1397 06-04-2007 20:24:01 16.4 C 5.44 g/m*3 16.4 C 0 km/h
1398 06-04-2007 20:29:01 16.2 C 5.52 g/m*3 16.2 C 0 km/h
1399 06-04-2007 20:34:02 15.9 C 5.55 g/m*3 15.9 C 0 km/h
1400 06-04-2007 20:39:02 15.6 C 5.45 g/m*3 15.6 C 0 km/h
Sensor: Nr:Datum:Temp:Abs-Feuchte:Windchill:Wind:
Aussen-T/F 1401 06-04-2007 20:44:02 15.3 C 5.48 g/m*3 15.3 C 0 km/h
1402 06-04-2007 20:49:01 15.3 C 5.48 g/m*3 15.3 C 0 km/h
1403 06-04-2007 20:54:01 15.1 C 5.55 g/m*3 15.1 C 0 km/h
1404 06-04-2007 20:59:01 14.8 C 5.57 g/m*3 14.8 C 0 km/h
1405 06-04-2007 21:04:01 14.8 C 5.57 g/m*3 14.8 C 0 km/h
1406 06-04-2007 21:09:01 14.6 C 5.63 g/m*3 14.6 C 0 km/h
1407 06-04-2007 21:14:01 14.4 C 5.56 g/m*3 14.4 C 0 km/h
1408 06-04-2007 21:19:01 14.4 C 5.56 g/m*3 14.4 C 0 km/h
1409 06-04-2007 21:24:01 14.2 C 5.49 g/m*3 14.2 C 0 km/h
1410 06-04-2007 21:29:01 14.1 C 5.58 g/m*3 14.1 C 0 km/h
1411 06-04-2007 21:34:02 14 C 5.55 g/m*3 14 C 0 km/h
1412 06-04-2007 21:39:02 13.9 C 5.63 g/m*3 13.9 C 0 km/h
1413 06-04-2007 21:44:02 13.7 C 5.68 g/m*3 13.7 C 0 km/h
1414 06-04-2007 21:49:01 13.5 C 5.73 g/m*3 13.5 C 0 km/h
1415 06-04-2007 21:54:01 13.5 C 5.73 g/m*3 13.5 C 0 km/h
1416 06-04-2007 21:59:01 13.4 C 5.7 g/m*3 13.4 C 0 km/h
1417 06-04-2007 22:04:02 13.3 C 5.78 g/m*3 13.3 C 0 km/h
1418 06-04-2007 22:09:02 13.2 C 5.74 g/m*3 13.2 C 0 km/h
1419 06-04-2007 22:14:02 13 C 5.67 g/m*3 13 C 0 km/h
1420 06-04-2007 22:19:02 13 C 5.78 g/m*3 13 C 0 km/h
1421 06-04-2007 22:24:02 12.8 C 5.82 g/m*3 12.8 C 0 km/h
1422 06-04-2007 22:29:02 12.7 C 5.79 g/m*3 12.7 C 0 km/h
1423 06-04-2007 22:34:01 12.7 C 5.79 g/m*3 12.7 C 0 km/h
1424 06-04-2007 22:39:02 12.6 C 5.86 g/m*3 12.6 C 0 km/h
1425 06-04-2007 22:44:02 12.5 C 5.83 g/m*3 12.5 C 0 km/h
Sensor: Nr:Datum:Temp:Abs-Feuchte:Windchill:Wind:
Aussen-T/F 1426 06-04-2007 22:49:01 12.4 C 5.9 g/m*3 12.4 C 0 km/h
1427 06-04-2007 22:54:01 12.2 C 5.83 g/m*3 12.2 C 0 km/h
1428 06-04-2007 22:59:01 12.2 C 5.83 g/m*3 12.2 C 0 km/h
1429 06-04-2007 23:04:02 12 C 5.86 g/m*3 12 C 0 km/h
1430 06-04-2007 23:09:02 11.8 C 5.89 g/m*3 11.8 C 0 km/h
1431 06-04-2007 23:14:02 11.8 C 6 g/m*3 11.8 C 0 km/h
1432 06-04-2007 23:19:02 11.7 C 5.96 g/m*3 11.7 C 0 km/h
1433 06-04-2007 23:24:02 11.5 C 5.89 g/m*3 11.5 C 0 km/h
1434 06-04-2007 23:29:02 11.4 C 5.85 g/m*3 11.4 C 0 km/h
1435 06-04-2007 23:34:01 11.4 C 5.95 g/m*3 11.4 C 0 km/h
1436 06-04-2007 23:39:01 11.2 C 5.88 g/m*3 11.2 C 0 km/h
1437 06-04-2007 23:44:01 11.1 C 5.84 g/m*3 11.1 C 0 km/h
1438 06-04-2007 23:49:02 11.1 C 5.94 g/m*3 11.1 C 0 km/h
1439 06-04-2007 23:54:02 11.1 C 5.94 g/m*3 11.1 C 0 km/h
1440 06-04-2007 23:59:02 10.8 C 5.93 g/m*3 10.8 C 0 km/h
1441 07-04-2007 00:04:01 10.7 C 5.89 g/m*3 10.7 C 0 km/h
1442 07-04-2007 00:09:01 10.5 C 5.92 g/m*3 10.5 C 0 km/h
1443 07-04-2007 00:14:02 10.4 C 5.98 g/m*3 10.4 C 0 km/h
1444 07-04-2007 00:19:02 10.4 C 5.98 g/m*3 10.4 C 0 km/h
1445 07-04-2007 00:24:02 10.3 C 5.94 g/m*3 10.3 C 0 km/h
1446 07-04-2007 00:29:02 10.2 C 5.9 g/m*3 10.2 C 0 km/h
1447 07-04-2007 00:34:01 10.1 C 5.96 g/m*3 10.1 C 0 km/h
1448 07-04-2007 00:39:02 10.1 C 5.86 g/m*3 10.1 C 0 km/h
1449 07-04-2007 00:44:02 10.1 C 5.96 g/m*3 10.1 C 0 km/h
1450 07-04-2007 00:49:01 9.9 C 5.98 g/m*3 9.9 C 0 km/h
Sensor: Nr:Datum:Temp:Abs-Feuchte:Windchill:Wind:
Aussen-T/F 1451 07-04-2007 00:54:01 9.8 C 5.94 g/m*3 9.8 C 0 km/h
1452 07-04-2007 00:59:01 9.6 C 5.95 g/m*3 9.6 C 0 km/h
1453 07-04-2007 01:04:02 9.6 C 5.95 g/m*3 9.6 C 0 km/h
1454 07-04-2007 01:09:02 9.6 C 5.95 g/m*3 9.6 C 0 km/h
1455 07-04-2007 01:14:02 9.5 C 6.01 g/m*3 9.5 C 0 km/h
1456 07-04-2007 01:19:02 9.5 C 6.01 g/m*3 9.5 C 0 km/h
1457 07-04-2007 01:24:02 9.3 C 5.93 g/m*3 9.3 C 0 km/h
1458 07-04-2007 01:29:02 9.3 C 5.93 g/m*3 9.3 C 0 km/h
1459 07-04-2007 01:34:01 9.1 C 5.94 g/m*3 9.1 C 0 km/h
1460 07-04-2007 01:39:01 9 C 5.91 g/m*3 9 C 0 km/h
1461 07-04-2007 01:44:01 9 C 5.91 g/m*3 9 C 0 km/h
1462 07-04-2007 01:49:02 8.9 C 5.96 g/m*3 8.9 C 0 km/h
1463 07-04-2007 01:54:02 8.8 C 6.01 g/m*3 8.8 C 0 km/h
1464 07-04-2007 01:59:02 8.8 C 6.01 g/m*3 8.8 C 0 km/h
1465 07-04-2007 02:04:02 8.6 C 5.93 g/m*3 8.6 C 0 km/h
1466 07-04-2007 02:09:02 8.6 C 5.93 g/m*3 8.6 C 0 km/h
1467 07-04-2007 02:14:02 8.6 C 5.93 g/m*3 8.6 C 0 km/h
1468 07-04-2007 02:19:02 8.5 C 5.89 g/m*3 8.5 C 0 km/h
1469 07-04-2007 02:24:02 8.4 C 5.94 g/m*3 8.4 C 0 km/h
1470 07-04-2007 02:29:02 8.4 C 5.85 g/m*3 8.4 C 0 km/h
1471 07-04-2007 02:34:02 8.3 C 5.9 g/m*3 8.3 C 0 km/h
1472 07-04-2007 02:39:02 8.2 C 5.95 g/m*3 8.2 C 0 km/h
1473 07-04-2007 02:44:02 8 C 5.87 g/m*3 8 C 0 km/h
1474 07-04-2007 02:50:05 8 C 5.87 g/m*3 8 C 0 km/h
1475 07-04-2007 02:55:05 7.9 C 6 g/m*3 7.9 C 0 km/h
Sensor: Nr:Datum:Temp:Abs-Feuchte:Windchill:Wind:
Aussen-T/F 1476 07-04-2007 03:00:05 7.7 C 5.92 g/m*3 7.7 C 0 km/h
1477 07-04-2007 03:05:05 7.7 C 6 g/m*3 7.7 C 0 km/h
1478 07-04-2007 03:10:05 7.6 C 5.96 g/m*3 7.6 C 0 km/h
1479 07-04-2007 03:15:05 7.5 C 5.92 g/m*3 7.5 C 0 km/h
1480 07-04-2007 03:20:05 7.6 C 5.96 g/m*3 7.6 C 0 km/h
1481 07-04-2007 03:25:05 7.5 C 5.92 g/m*3 7.5 C 0 km/h
1482 07-04-2007 03:30:05 7.4 C 5.96 g/m*3 7.4 C 0 km/h
1483 07-04-2007 03:35:03 7.3 C 5.93 g/m*3 7.3 C 0 km/h
1484 07-04-2007 03:40:03 7.1 C 5.93 g/m*3 7.1 C 0 km/h
1485 07-04-2007 03:45:03 7.1 C 5.93 g/m*3 7.1 C 0 km/h
1486 07-04-2007 03:50:03 7 C 5.97 g/m*3 7 C 0 km/h
1487 07-04-2007 03:55:03 7.3 C 6.08 g/m*3 7.3 C 0 km/h
1488 07-04-2007 04:00:03 6.9 C 6 g/m*3 6.9 C 0 km/h
1489 07-04-2007 04:05:02 6.8 C 5.97 g/m*3 6.8 C 0 km/h
1490 07-04-2007 04:10:02 6.8 C 6.04 g/m*3 6.8 C 0 km/h
1491 07-04-2007 04:15:03 6.8 C 6.04 g/m*3 6.8 C 0 km/h
1492 07-04-2007 04:20:03 6.7 C 6 g/m*3 6.7 C 0 km/h
1493 07-04-2007 04:25:03 6.6 C 5.96 g/m*3 6.6 C 0 km/h
1494 07-04-2007 04:30:03 6.6 C 5.96 g/m*3 6.6 C 0 km/h
1495 07-04-2007 04:35:02 6.5 C 5.92 g/m*3 6.5 C 0 km/h
1496 07-04-2007 04:40:02 6.4 C 5.96 g/m*3 6.4 C 0 km/h
1497 07-04-2007 04:45:02 6.4 C 5.96 g/m*3 6.4 C 0 km/h
1498 07-04-2007 04:50:02 6.4 C 5.96 g/m*3 6.4 C 0 km/h
1499 07-04-2007 04:55:02 6.3 C 5.92 g/m*3 6.3 C 0 km/h
1500 07-04-2007 05:00:02 6.3 C 5.92 g/m*3 6.3 C 0 km/h
Sensor: Nr:Datum:Temp:Abs-Feuchte:Windchill:Wind:
Aussen-T/F 1501 07-04-2007 05:05:02 6.3 C 5.92 g/m*3 6.3 C 0 km/h
1502 07-04-2007 05:10:02 6.3 C 5.92 g/m*3 6.3 C 0 km/h
1503 07-04-2007 05:15:02 6.2 C 5.88 g/m*3 6.2 C 0 km/h
1504 07-04-2007 05:20:02 6.1 C 5.84 g/m*3 6.1 C 0 km/h
1505 07-04-2007 05:25:02 6.1 C 5.84 g/m*3 6.1 C 0 km/h
1506 07-04-2007 05:30:02 6.1 C 5.92 g/m*3 6.1 C 0 km/h
1507 07-04-2007 05:35:02 6.2 C 5.96 g/m*3 6.2 C 0 km/h
1508 07-04-2007 05:40:02 6.2 C 5.96 g/m*3 6.2 C 0 km/h
1509 07-04-2007 05:45:03 6.2 C 5.88 g/m*3 6.2 C 0 km/h
1510 07-04-2007 05:50:03 6.2 C 5.88 g/m*3 6.2 C 0 km/h
1511 07-04-2007 05:55:03 6.2 C 5.88 g/m*3 6.2 C 0 km/h
1512 07-04-2007 06:00:03 6.2 C 5.96 g/m*3 6.2 C 0 km/h
1513 07-04-2007 06:05:03 6.2 C 5.96 g/m*3 6.2 C 0 km/h
1514 07-04-2007 06:10:03 6.2 C 5.96 g/m*3 6.2 C 0 km/h
1515 07-04-2007 06:15:02 6.2 C 5.96 g/m*3 6.2 C 0 km/h
1516 07-04-2007 06:20:02 6.2 C 5.96 g/m*3 6.2 C 0 km/h
1517 07-04-2007 06:25:02 6.2 C 5.96 g/m*3 6.2 C 0 km/h
1518 07-04-2007 06:30:03 6.2 C 5.96 g/m*3 6.2 C 0 km/h
1519 07-04-2007 06:35:02 6.2 C 6.03 g/m*3 6.2 C 0 km/h
1520 07-04-2007 06:40:02 6.2 C 6.03 g/m*3 6.2 C 0 km/h
1521 07-04-2007 06:45:02 6.2 C 6.03 g/m*3 6.2 C 0 km/h
1522 07-04-2007 06:50:02 6.2 C 6.03 g/m*3 6.2 C 0 km/h
1523 07-04-2007 06:55:02 6.3 C 6.07 g/m*3 6.3 C 0 km/h
1524 07-04-2007 07:00:02 6.2 C 6.1 g/m*3 6.2 C 0 km/h
1525 07-04-2007 07:05:02 6.1 C 5.99 g/m*3 6.1 C 0 km/h
Sensor: Nr:Datum:Temp:Abs-Feuchte:Windchill:Wind:
Aussen-T/F 1526 07-04-2007 07:10:02 6.2 C 6.1 g/m*3 6.2 C 0 km/h
1527 07-04-2007 07:15:01 6.2 C 6.1 g/m*3 6.2 C 0 km/h
1528 07-04-2007 07:20:01 6.2 C 6.03 g/m*3 6.2 C 0 km/h
1529 07-04-2007 07:25:01 6.2 C 6.1 g/m*3 6.2 C 0 km/h
1530 07-04-2007 07:30:01 6.3 C 6.14 g/m*3 6.3 C 0 km/h
1531 07-04-2007 07:35:01 6.4 C 6.26 g/m*3 6.4 C 0 km/h
1532 07-04-2007 07:40:01 6.4 C 6.18 g/m*3 6.4 C 0 km/h
1533 07-04-2007 07:45:02 6.5 C 6.22 g/m*3 6.5 C 0 km/h
1534 07-04-2007 07:50:02 6.5 C 6.22 g/m*3 6.5 C 0 km/h
1535 07-04-2007 07:55:02 6.9 C 6.39 g/m*3 6.9 C 0 km/h
1536 07-04-2007 08:00:03 6.9 C 6.31 g/m*3 6.9 C 0 km/h
1537 07-04-2007 08:05:01 6.9 C 6.31 g/m*3 6.9 C 0 km/h
1538 07-04-2007 08:10:01 7 C 6.28 g/m*3 7 C 0 km/h
1539 07-04-2007 08:15:02 7 C 6.2 g/m*3 7 C 0 km/h
1540 07-04-2007 08:20:02 7.4 C 6.44 g/m*3 7.4 C 0 km/h
1541 07-04-2007 08:25:02 7.6 C 6.53 g/m*3 7.6 C 0 km/h
1542 07-04-2007 08:30:02 7.9 C 6.57 g/m*3 7.9 C 0 km/h
1543 07-04-2007 08:35:02 8.2 C 6.53 g/m*3 8.2 C 0 km/h
1544 07-04-2007 08:40:02 8.4 C 6.53 g/m*3 8.4 C 0 km/h
1545 07-04-2007 08:45:02 8.6 C 6.44 g/m*3 8.6 C 0 km/h
1546 07-04-2007 08:50:02 8.9 C 6.48 g/m*3 8.9 C 0 km/h
1547 07-04-2007 08:55:02 8.9 C 6.48 g/m*3 8.9 C 0 km/h
1548 07-04-2007 09:00:02 9.1 C 6.3 g/m*3 9.1 C 0 km/h
1549 07-04-2007 09:05:02 9.3 C 6.29 g/m*3 9.3 C 0 km/h
1550 07-04-2007 09:10:02 9.3 C 6.29 g/m*3 9.3 C 0 km/h
Sensor: Nr:Datum:Temp:Abs-Feuchte:Windchill:Wind:
Aussen-T/F 1551 07-04-2007 09:15:02 9.5 C 6.28 g/m*3 9.5 C 0 km/h
1552 07-04-2007 09:20:02 9.7 C 6.36 g/m*3 9.7 C 0 km/h
1553 07-04-2007 09:25:02 9.6 C 6.14 g/m*3 9.6 C 0 km/h
1554 07-04-2007 09:30:02 9.6 C 6.23 g/m*3 9.6 C 0 km/h
1555 07-04-2007 09:35:02 9.5 C 6.1 g/m*3 9.5 C 0 km/h
1556 07-04-2007 09:40:03 9.7 C 6.18 g/m*3 9.7 C 0 km/h
1557 07-04-2007 09:45:02 9.7 C 6.18 g/m*3 9.7 C 0 km/h
1558 07-04-2007 09:50:02 9.8 C 6.12 g/m*3 9.8 C 0 km/h
1559 07-04-2007 09:55:02 9.7 C 6.08 g/m*3 9.7 C 0 km/h
1560 07-04-2007 10:00:02 9.8 C 6.12 g/m*3 9.8 C 0 km/h
1561 07-04-2007 10:05:02 9.9 C 6.07 g/m*3 9.9 C 0 km/h
1562 07-04-2007 10:10:02 10 C 6.01 g/m*3 10 C 0 km/h
1563 07-04-2007 10:15:02 10 C 5.92 g/m*3 10 C 0 km/h
1564 07-04-2007 10:20:02 10 C 6.01 g/m*3 10 C 0 km/h
1565 07-04-2007 10:25:02 10.5 C 6.01 g/m*3 10.5 C 0 km/h
1566 07-04-2007 10:30:03 10.6 C 6.05 g/m*3 10.6 C 0 km/h
1567 07-04-2007 10:35:01 10.4 C 5.98 g/m*3 10.4 C 0 km/h
1568 07-04-2007 10:40:01 10.8 C 6.03 g/m*3 10.8 C 0 km/h
1569 07-04-2007 10:45:02 11 C 6.01 g/m*3 11 C 0 km/h
1570 07-04-2007 10:50:02 11.1 C 6.04 g/m*3 11.1 C 0 km/h
1571 07-04-2007 10:55:02 11.5 C 6.09 g/m*3 11.5 C 0 km/h
1572 07-04-2007 11:00:02 11.9 C 6.04 g/m*3 11.9 C 0 km/h
1573 07-04-2007 11:05:02 12 C 6.07 g/m*3 12 C 0 km/h
1574 07-04-2007 11:10:03 11.8 C 5.89 g/m*3 11.8 C 0 km/h
1575 07-04-2007 11:15:02 11.5 C 5.89 g/m*3 11.5 C 0 km/h
Sensor: Nr:Datum:Temp:Abs-Feuchte:Windchill:Wind:
Aussen-T/F 1576 07-04-2007 11:20:02 11.3 C 5.81 g/m*3 11.3 C 0 km/h
1577 07-04-2007 11:25:02 11.4 C 5.85 g/m*3 11.4 C 0 km/h
1578 07-04-2007 11:30:02 11.7 C 5.96 g/m*3 11.7 C 0 km/h
1579 07-04-2007 11:35:01 11.9 C 5.93 g/m*3 11.9 C 0 km/h
1580 07-04-2007 11:40:01 11.7 C 5.75 g/m*3 11.7 C 0 km/h
1581 07-04-2007 11:45:02 11.9 C 5.72 g/m*3 11.9 C 0 km/h
1582 07-04-2007 11:50:02 12.1 C 5.58 g/m*3 12.1 C 0 km/h
1583 07-04-2007 11:55:03 12.1 C 5.58 g/m*3 12.1 C 0 km/h
1584 07-04-2007 12:00:03 12 C 5.44 g/m*3 12 C 0 km/h
1585 07-04-2007 12:05:02 12.3 C 5.54 g/m*3 12.3 C 0 km/h
1586 07-04-2007 12:10:02 12.1 C 5.36 g/m*3 12.1 C 0 km/h
1587 07-04-2007 12:15:01 12.4 C 5.35 g/m*3 12.4 C 0 km/h
1588 07-04-2007 12:20:01 12.1 C 5.04 g/m*3 12.1 C 0 km/h
1589 07-04-2007 12:25:01 12.4 C 5.24 g/m*3 12.4 C 0 km/h
1590 07-04-2007 12:30:01 12.5 C 5.06 g/m*3 12.5 C 0 km/h
1591 07-04-2007 12:35:02 12.8 C 5.04 g/m*3 12.8 C 0 km/h
1592 07-04-2007 12:40:02 12.6 C 4.76 g/m*3 12.6 C 0 km/h
1593 07-04-2007 12:45:01 12.7 C 4.79 g/m*3 12.7 C 0 km/h
1594 07-04-2007 12:50:01 12.7 C 4.68 g/m*3 12.7 C 0 km/h
1595 07-04-2007 12:55:01 12.9 C 4.51 g/m*3 12.9 C 0 km/h
1596 07-04-2007 13:00:01 13.1 C 4.56 g/m*3 13.1 C 0 km/h
1597 07-04-2007 13:05:02 13.2 C 4.36 g/m*3 13.2 C 0 km/h
1598 07-04-2007 13:10:02 13.4 C 4.42 g/m*3 13.4 C 0 km/h
1599 07-04-2007 13:15:02 13.5 C 4.44 g/m*3 13.5 C 0 km/h
1600 07-04-2007 13:20:02 13.6 C 4.47 g/m*3 13.6 C 0 km/h
Sensor: Nr:Datum:Temp:Abs-Feuchte:Windchill:Wind:
Aussen-T/F 1601 07-04-2007 13:25:02 13.1 C 4.22 g/m*3 13.1 C 0 km/h
1602 07-04-2007 13:30:02 13 C 4.31 g/m*3 13 C 0 km/h
1603 07-04-2007 13:35:01 13.2 C 4.36 g/m*3 13.2 C 0 km/h
1604 07-04-2007 13:40:02 13.2 C 4.48 g/m*3 13.2 C 0 km/h
1605 07-04-2007 13:45:02 12.6 C 4.54 g/m*3 12.6 C 0 km/h
1606 07-04-2007 13:50:02 12.8 C 4.59 g/m*3 12.8 C 0 km/h
1607 07-04-2007 13:55:02 13 C 4.54 g/m*3 13 C 0 km/h
1608 07-04-2007 14:00:02 13.3 C 4.51 g/m*3 13.3 C 0 km/h
1609 07-04-2007 14:05:02 13 C 4.42 g/m*3 13 C 0 km/h
1610 07-04-2007 14:10:02 13.2 C 4.48 g/m*3 13.2 C 0 km/h
1611 07-04-2007 14:15:02 12.8 C 4.37 g/m*3 12.8 C 0 km/h
1612 07-04-2007 14:20:02 12.9 C 4.4 g/m*3 12.9 C 0 km/h
1613 07-04-2007 14:25:02 13 C 4.31 g/m*3 13 C 0 km/h
1614 07-04-2007 14:30:03 13 C 4.31 g/m*3 13 C 0 km/h
1615 07-04-2007 14:35:02 12.9 C 4.51 g/m*3 12.9 C 0 km/h
1616 07-04-2007 14:40:02 13.1 C 4.34 g/m*3 13.1 C 0 km/h
1617 07-04-2007 14:45:02 12.7 C 4.23 g/m*3 12.7 C 0 km/h
1618 07-04-2007 14:50:02 12.7 C 4.34 g/m*3 12.7 C 0 km/h
1619 07-04-2007 14:55:02 12.9 C 4.28 g/m*3 12.9 C 0 km/h
1620 07-04-2007 15:00:02 13 C 4.08 g/m*3 13 C 0 km/h
1621 07-04-2007 15:05:02 13.1 C 4.22 g/m*3 13.1 C 0 km/h
1622 07-04-2007 15:10:02 13.1 C 4.22 g/m*3 13.1 C 0 km/h
1623 07-04-2007 15:15:02 13.1 C 4.22 g/m*3 13.1 C 0 km/h
1624 07-04-2007 15:20:02 12.8 C 4.37 g/m*3 12.8 C 0 km/h
1625 07-04-2007 15:25:02 12.8 C 4.37 g/m*3 12.8 C 0 km/h
Sensor: Nr:Datum:Temp:Abs-Feuchte:Windchill:Wind:
Aussen-T/F 1626 07-04-2007 15:30:02 12.6 C 4.43 g/m*3 12.6 C 0 km/h
1627 07-04-2007 15:35:01 12.4 C 4.37 g/m*3 12.4 C 0 km/h
1628 07-04-2007 15:40:01 12.3 C 4.23 g/m*3 12.3 C 0 km/h
1629 07-04-2007 15:45:01 12.5 C 4.29 g/m*3 12.5 C 0 km/h
1630 07-04-2007 15:50:01 12.7 C 4.12 g/m*3 12.7 C 0 km/h
1631 07-04-2007 15:55:01 12.7 C 4.12 g/m*3 12.7 C 0 km/h
1632 07-04-2007 16:00:01 12.7 C 4.12 g/m*3 12.7 C 0 km/h
1633 07-04-2007 16:05:02 12.3 C 4.02 g/m*3 12.3 C 0 km/h
1634 07-04-2007 16:10:02 12.6 C 4.09 g/m*3 12.6 C 0 km/h
1635 07-04-2007 16:15:02 12.6 C 4.09 g/m*3 12.6 C 0 km/h
1636 07-04-2007 16:20:02 12.5 C 4.07 g/m*3 12.5 C 0 km/h
1637 07-04-2007 16:25:02 12.5 C 4.07 g/m*3 12.5 C 0 km/h
1638 07-04-2007 16:30:02 12.1 C 4.08 g/m*3 12.1 C 0 km/h
1639 07-04-2007 16:35:02 12.2 C 4.1 g/m*3 12.2 C 0 km/h
1640 07-04-2007 16:40:02 12.1 C 4.18 g/m*3 12.1 C 0 km/h
1641 07-04-2007 16:45:01 12.1 C 4.18 g/m*3 12.1 C 0 km/h
1642 07-04-2007 16:50:01 12.1 C 4.18 g/m*3 12.1 C 0 km/h
1643 07-04-2007 16:55:01 12 C 4.16 g/m*3 12 C 0 km/h
1644 07-04-2007 17:00:01 11.9 C 4.24 g/m*3 11.9 C 0 km/h
1645 07-04-2007 17:05:01 11.8 C 4.21 g/m*3 11.8 C 0 km/h
1646 07-04-2007 17:10:01 11.8 C 4.1 g/m*3 11.8 C 0 km/h
1647 07-04-2007 17:15:02 11.6 C 4.16 g/m*3 11.6 C 0 km/h
1648 07-04-2007 17:20:02 11.7 C 4.18 g/m*3 11.7 C 0 km/h
1649 07-04-2007 17:25:02 11.8 C 4.21 g/m*3 11.8 C 0 km/h
1650 07-04-2007 17:30:02 11.7 C 4.08 g/m*3 11.7 C 0 km/h
Sensor: Nr:Datum:Temp:Abs-Feuchte:Windchill:Wind:
Aussen-T/F 1651 07-04-2007 17:35:02 11.7 C 4.08 g/m*3 11.7 C 0 km/h
1652 07-04-2007 17:40:02 11.7 C 4.08 g/m*3 11.7 C 0 km/h
1653 07-04-2007 17:45:03 11.8 C 4.21 g/m*3 11.8 C 0 km/h
1654 07-04-2007 17:50:03 11.9 C 4.24 g/m*3 11.9 C 0 km/h
1655 07-04-2007 17:55:03 11.9 C 4.24 g/m*3 11.9 C 0 km/h
1656 07-04-2007 18:00:03 11.8 C 4.32 g/m*3 11.8 C 0 km/h
1657 07-04-2007 18:05:03 11.8 C 4.32 g/m*3 11.8 C 0 km/h
1658 07-04-2007 18:10:03 11.7 C 4.29 g/m*3 11.7 C 0 km/h
1659 07-04-2007 18:15:03 11.5 C 4.23 g/m*3 11.5 C 0 km/h
1660 07-04-2007 18:20:03 11.5 C 4.34 g/m*3 11.5 C 0 km/h
1661 07-04-2007 18:25:03 11.5 C 4.34 g/m*3 11.5 C 0 km/h
1662 07-04-2007 18:30:03 11.5 C 4.34 g/m*3 11.5 C 0 km/h
1663 07-04-2007 18:35:02 11.6 C 4.37 g/m*3 11.6 C 0 km/h
1664 07-04-2007 18:40:03 11.6 C 4.26 g/m*3 11.6 C 0 km/h
1665 07-04-2007 18:45:01 11.7 C 4.29 g/m*3 11.7 C 0 km/h
1666 07-04-2007 18:50:01 11.5 C 4.13 g/m*3 11.5 C 0 km/h
1667 07-04-2007 18:55:01 11.4 C 4.11 g/m*3 11.4 C 0 km/h
1668 07-04-2007 19:00:01 11.4 C 4.11 g/m*3 11.4 C 0 km/h
1669 07-04-2007 19:05:02 11.3 C 4.08 g/m*3 11.3 C 0 km/h
1670 07-04-2007 19:10:02 11.2 C 4.05 g/m*3 11.2 C 0 km/h
1671 07-04-2007 19:15:02 11.1 C 4.03 g/m*3 11.1 C 0 km/h
1672 07-04-2007 19:20:02 11.1 C 4.03 g/m*3 11.1 C 0 km/h
1673 07-04-2007 19:25:02 11.1 C 4.13 g/m*3 11.1 C 0 km/h
1674 07-04-2007 19:30:02 11.1 C 4.13 g/m*3 11.1 C 0 km/h
1675 07-04-2007 19:35:02 11.1 C 4.23 g/m*3 11.1 C 0 km/h
Sensor: Nr:Datum:Temp:Abs-Feuchte:Windchill:Wind:
Aussen-T/F 1676 07-04-2007 19:40:02 11 C 4.1 g/m*3 11 C 0 km/h
1677 07-04-2007 19:45:03 10.9 C 4.28 g/m*3 10.9 C 0 km/h
1678 07-04-2007 19:50:03 10.9 C 4.28 g/m*3 10.9 C 0 km/h
1679 07-04-2007 19:55:03 10.8 C 4.35 g/m*3 10.8 C 0 km/h
1680 07-04-2007 20:00:03 10.8 C 4.35 g/m*3 10.8 C 0 km/h
1681 07-04-2007 20:05:02 10.8 C 4.45 g/m*3 10.8 C 0 km/h
1682 07-04-2007 20:10:02 10.7 C 4.42 g/m*3 10.7 C 0 km/h
1683 07-04-2007 20:15:02 10.6 C 4.49 g/m*3 10.6 C 0 km/h
1684 07-04-2007 20:20:02 10.5 C 4.46 g/m*3 10.5 C 0 km/h
1685 07-04-2007 20:25:02 10.5 C 4.46 g/m*3 10.5 C 0 km/h
1686 07-04-2007 20:30:02 10.5 C 4.56 g/m*3 10.5 C 0 km/h
1687 07-04-2007 20:35:02 10.5 C 4.56 g/m*3 10.5 C 0 km/h
1688 07-04-2007 20:40:02 10.4 C 4.53 g/m*3 10.4 C 0 km/h
1689 07-04-2007 20:45:02 10.4 C 4.53 g/m*3 10.4 C 0 km/h
1690 07-04-2007 20:50:02 10.3 C 4.6 g/m*3 10.3 C 0 km/h
1691 07-04-2007 20:55:02 10.2 C 4.57 g/m*3 10.2 C 0 km/h
1692 07-04-2007 21:00:02 9.9 C 4.67 g/m*3 9.9 C 0 km/h
1693 07-04-2007 21:05:01 9.5 C 4.64 g/m*3 9.5 C 0 km/h
1694 07-04-2007 21:10:01 9.4 C 4.7 g/m*3 9.4 C 0 km/h
1695 07-04-2007 21:15:01 9.1 C 4.7 g/m*3 9.1 C 0 km/h
1696 07-04-2007 21:20:01 8.8 C 4.7 g/m*3 8.8 C 0 km/h
1697 07-04-2007 21:25:01 8.6 C 4.73 g/m*3 8.6 C 0 km/h
1698 07-04-2007 21:30:01 8.5 C 4.7 g/m*3 8.5 C 0 km/h
1699 07-04-2007 21:35:02 8.3 C 4.64 g/m*3 8.3 C 0 km/h
1700 07-04-2007 21:40:02 8 C 4.63 g/m*3 8 C 0 km/h
Sensor: Nr:Datum:Temp:Abs-Feuchte:Windchill:Wind:
Aussen-T/F 1701 07-04-2007 21:45:01 8 C 4.71 g/m*3 8 C 0 km/h
1702 07-04-2007 21:50:01 7.9 C 4.85 g/m*3 7.9 C 0 km/h
1703 07-04-2007 21:55:01 7.7 C 4.78 g/m*3 7.7 C 0 km/h
1704 07-04-2007 22:00:01 7.6 C 4.75 g/m*3 7.6 C 0 km/h
1705 07-04-2007 22:05:01 7.5 C 4.8 g/m*3 7.5 C 0 km/h
1706 07-04-2007 22:10:01 7.4 C 4.85 g/m*3 7.4 C 0 km/h
1707 07-04-2007 22:15:02 7.4 C 4.85 g/m*3 7.4 C 0 km/h
1708 07-04-2007 22:20:02 7.3 C 4.82 g/m*3 7.3 C 0 km/h
1709 07-04-2007 22:25:02 7.1 C 4.76 g/m*3 7.1 C 0 km/h
1710 07-04-2007 22:30:02 7.2 C 4.87 g/m*3 7.2 C 0 km/h
1711 07-04-2007 22:35:02 7 C 4.8 g/m*3 7 C 0 km/h
1712 07-04-2007 22:40:02 7 C 4.88 g/m*3 7 C 0 km/h
1713 07-04-2007 22:45:02 6.9 C 4.93 g/m*3 6.9 C 0 km/h
1714 07-04-2007 22:50:02 6.9 C 4.93 g/m*3 6.9 C 0 km/h
1715 07-04-2007 22:55:02 6.7 C 4.86 g/m*3 6.7 C 0 km/h
1716 07-04-2007 23:00:02 6.7 C 4.86 g/m*3 6.7 C 0 km/h
1717 07-04-2007 23:05:02 6.6 C 4.91 g/m*3 6.6 C 0 km/h
1718 07-04-2007 23:10:02 6.6 C 4.91 g/m*3 6.6 C 0 km/h
1719 07-04-2007 23:15:03 6.4 C 4.84 g/m*3 6.4 C 0 km/h
1720 07-04-2007 23:20:03 6.2 C 4.85 g/m*3 6.2 C 0 km/h
1721 07-04-2007 23:25:03 6.2 C 4.85 g/m*3 6.2 C 0 km/h
1722 07-04-2007 23:30:03 6.1 C 4.82 g/m*3 6.1 C 0 km/h
1723 07-04-2007 23:35:02 6 C 4.86 g/m*3 6 C 0 km/h
1724 07-04-2007 23:40:02 6 C 4.86 g/m*3 6 C 0 km/h
1725 07-04-2007 23:45:01 6 C 4.94 g/m*3 6 C 0 km/h
Sensor: Nr:Datum:Temp:Abs-Feuchte:Windchill:Wind:
Aussen-T/F 1726 07-04-2007 23:50:01 5.9 C 4.98 g/m*3 5.9 C 0 km/h
1727 07-04-2007 23:55:01 5.9 C 5.05 g/m*3 5.9 C 0 km/h
1728 08-04-2007 00:00:01 5.8 C 5.01 g/m*3 5.8 C 0 km/h
1729 08-04-2007 00:05:03 5.6 C 4.95 g/m*3 5.6 C 0 km/h
1730 08-04-2007 00:10:03 5.6 C 4.95 g/m*3 5.6 C 0 km/h
1731 08-04-2007 00:15:02 5.5 C 4.99 g/m*3 5.5 C 0 km/h
1732 08-04-2007 00:20:02 5.4 C 4.95 g/m*3 5.4 C 0 km/h
1733 08-04-2007 00:25:02 5.4 C 5.02 g/m*3 5.4 C 0 km/h
1734 08-04-2007 00:30:02 5.3 C 4.99 g/m*3 5.3 C 0 km/h
1735 08-04-2007 00:35:03 5.2 C 4.96 g/m*3 5.2 C 0 km/h
1736 08-04-2007 00:40:03 5.2 C 4.96 g/m*3 5.2 C 0 km/h
1737 08-04-2007 00:45:03 5.2 C 5.03 g/m*3 5.2 C 0 km/h
1738 08-04-2007 00:50:03 5.1 C 4.99 g/m*3 5.1 C 0 km/h
1739 08-04-2007 00:55:03 4.9 C 5 g/m*3 4.9 C 0 km/h
1740 08-04-2007 01:00:03 4.9 C 5 g/m*3 4.9 C 0 km/h
1741 08-04-2007 01:05:03 4.8 C 4.96 g/m*3 4.8 C 0 km/h
1742 08-04-2007 01:10:03 4.8 C 5.03 g/m*3 4.8 C 0 km/h
1743 08-04-2007 01:15:03 4.9 C 5.06 g/m*3 4.9 C 0 km/h
1744 08-04-2007 01:20:03 4.6 C 4.96 g/m*3 4.6 C 0 km/h
1745 08-04-2007 01:25:03 4.6 C 4.96 g/m*3 4.6 C 0 km/h
1746 08-04-2007 01:30:03 4.4 C 4.96 g/m*3 4.4 C 0 km/h
1747 08-04-2007 01:35:02 4.4 C 4.96 g/m*3 4.4 C 0 km/h
1748 08-04-2007 01:40:02 4.3 C 4.93 g/m*3 4.3 C 0 km/h
1749 08-04-2007 01:45:02 4.2 C 4.9 g/m*3 4.2 C 0 km/h
1750 08-04-2007 01:50:02 4.2 C 4.9 g/m*3 4.2 C 0 km/h
Sensor: Nr:Datum:Temp:Abs-Feuchte:Windchill:Wind:
Aussen-T/F 1751 08-04-2007 01:55:03 4.1 C 4.93 g/m*3 4.1 C 0 km/h
1752 08-04-2007 02:00:03 4 C 4.9 g/m*3 4 C 0 km/h
1753 08-04-2007 02:05:02 4 C 4.9 g/m*3 4 C 0 km/h
1754 08-04-2007 02:10:02 4 C 4.96 g/m*3 4 C 0 km/h
1755 08-04-2007 02:15:03 3.8 C 4.96 g/m*3 3.8 C 0 km/h
1756 08-04-2007 02:20:03 3.7 C 4.92 g/m*3 3.7 C 0 km/h
1757 08-04-2007 02:25:03 3.7 C 4.99 g/m*3 3.7 C 0 km/h
1758 08-04-2007 02:30:03 3.7 C 4.92 g/m*3 3.7 C 0 km/h
1759 08-04-2007 02:35:02 3.6 C 4.95 g/m*3 3.6 C 0 km/h
1760 08-04-2007 02:40:02 3.6 C 4.95 g/m*3 3.6 C 0 km/h
1761 08-04-2007 02:45:02 3.5 C 4.92 g/m*3 3.5 C 0 km/h
1762 08-04-2007 02:50:02 3.5 C 4.92 g/m*3 3.5 C 0 km/h
1763 08-04-2007 02:55:02 3.4 C 4.95 g/m*3 3.4 C 0 km/h
1764 08-04-2007 03:00:02 3.3 C 4.91 g/m*3 3.3 C 0 km/h
1765 08-04-2007 03:05:02 3.3 C 4.91 g/m*3 3.3 C 0 km/h
1766 08-04-2007 03:10:01 3.3 C 4.91 g/m*3 3.3 C 0 km/h
1767 08-04-2007 03:15:02 3.2 C 4.94 g/m*3 3.2 C 0 km/h
1768 08-04-2007 03:20:02 3 C 4.88 g/m*3 3 C 0 km/h
1769 08-04-2007 03:25:02 3 C 4.88 g/m*3 3 C 0 km/h
1770 08-04-2007 03:30:02 3.1 C 4.91 g/m*3 3.1 C 0 km/h
1771 08-04-2007 03:35:02 3 C 4.93 g/m*3 3 C 0 km/h
1772 08-04-2007 03:40:02 2.9 C 4.9 g/m*3 2.9 C 0 km/h
1773 08-04-2007 03:45:02 2.9 C 4.9 g/m*3 2.9 C 0 km/h
1774 08-04-2007 03:50:02 2.8 C 4.87 g/m*3 2.8 C 0 km/h
1775 08-04-2007 03:55:02 2.8 C 4.93 g/m*3 2.8 C 0 km/h
Sensor: Nr:Datum:Temp:Abs-Feuchte:Windchill:Wind:
Aussen-T/F 1776 08-04-2007 04:00:02 2.7 C 4.89 g/m*3 2.7 C 0 km/h
1777 08-04-2007 04:05:02 2.7 C 4.89 g/m*3 2.7 C 0 km/h
1778 08-04-2007 04:10:02 2.6 C 4.86 g/m*3 2.6 C 0 km/h
1779 08-04-2007 04:15:02 2.7 C 4.89 g/m*3 2.7 C 0 km/h
1780 08-04-2007 04:20:02 2.5 C 4.83 g/m*3 2.5 C 0 km/h
1781 08-04-2007 04:25:02 2.5 C 4.83 g/m*3 2.5 C 0 km/h
1782 08-04-2007 04:30:02 2.4 C 4.8 g/m*3 2.4 C 0 km/h
1783 08-04-2007 04:35:02 2.4 C 4.8 g/m*3 2.4 C 0 km/h
1784 08-04-2007 04:40:02 2.3 C 4.82 g/m*3 2.3 C 0 km/h
1785 08-04-2007 04:45:02 2.2 C 4.79 g/m*3 2.2 C 0 km/h
1786 08-04-2007 04:50:02 2.1 C 4.7 g/m*3 2.1 C 0 km/h
1787 08-04-2007 04:55:02 2.1 C 4.76 g/m*3 2.1 C 0 km/h
1788 08-04-2007 05:00:02 2 C 4.72 g/m*3 2 C 0 km/h
1789 08-04-2007 05:05:01 2 C 4.72 g/m*3 2 C 0 km/h
1790 08-04-2007 05:10:02 1.9 C 4.75 g/m*3 1.9 C 0 km/h
1791 08-04-2007 05:15:02 2 C 4.72 g/m*3 2 C 0 km/h
1792 08-04-2007 05:20:02 1.9 C 4.75 g/m*3 1.9 C 0 km/h
1793 08-04-2007 05:25:02 1.8 C 4.71 g/m*3 1.8 C 0 km/h
1794 08-04-2007 05:30:02 1.8 C 4.71 g/m*3 1.8 C 0 km/h
1795 08-04-2007 05:35:02 1.7 C 4.74 g/m*3 1.7 C 0 km/h
1796 08-04-2007 05:40:02 1.7 C 4.68 g/m*3 1.7 C 0 km/h
1797 08-04-2007 05:45:01 1.6 C 4.65 g/m*3 1.6 C 0 km/h
1798 08-04-2007 05:50:01 1.6 C 4.7 g/m*3 1.6 C 0 km/h
1799 08-04-2007 05:55:01 1.6 C 4.7 g/m*3 1.6 C 0 km/h
1800 08-04-2007 06:00:02 1.5 C 4.67 g/m*3 1.5 C 0 km/h
Sensor: Nr:Datum:Temp:Abs-Feuchte:Windchill:Wind:
Aussen-T/F 1801 08-04-2007 06:05:01 1.5 C 4.67 g/m*3 1.5 C 0 km/h
1802 08-04-2007 06:10:01 1.5 C 4.67 g/m*3 1.5 C 0 km/h
1803 08-04-2007 06:15:02 1.4 C 4.64 g/m*3 1.4 C 0 km/h
1804 08-04-2007 06:20:02 1.4 C 4.64 g/m*3 1.4 C 0 km/h
1805 08-04-2007 06:25:02 1.3 C 4.66 g/m*3 1.3 C 0 km/h
1806 08-04-2007 06:30:02 1.3 C 4.66 g/m*3 1.3 C 0 km/h
1807 08-04-2007 06:35:02 1.2 C 4.63 g/m*3 1.2 C 0 km/h
1808 08-04-2007 06:40:02 1.1 C 4.6 g/m*3 1.1 C 0 km/h
1809 08-04-2007 06:45:01 1 C 4.57 g/m*3 1 C 0 km/h
1810 08-04-2007 06:50:01 1.1 C 4.6 g/m*3 1.1 C 0 km/h
1811 08-04-2007 06:55:01 1 C 4.57 g/m*3 1 C 0 km/h
1812 08-04-2007 07:00:01 1.1 C 4.6 g/m*3 1.1 C 0 km/h
1813 08-04-2007 07:05:02 1.1 C 4.6 g/m*3 1.1 C 0 km/h
1814 08-04-2007 07:10:02 1.1 C 4.6 g/m*3 1.1 C 0 km/h
1815 08-04-2007 07:15:02 1.1 C 4.65 g/m*3 1.1 C 0 km/h
1816 08-04-2007 07:20:02 1.1 C 4.65 g/m*3 1.1 C 0 km/h
1817 08-04-2007 07:25:02 1 C 4.62 g/m*3 1 C 0 km/h
1818 08-04-2007 07:30:02 1 C 4.62 g/m*3 1 C 0 km/h
1819 08-04-2007 07:35:01 1 C 4.62 g/m*3 1 C 0 km/h
1820 08-04-2007 07:40:02 1 C 4.62 g/m*3 1 C 0 km/h
1821 08-04-2007 07:45:02 1.1 C 4.65 g/m*3 1.1 C 0 km/h
1822 08-04-2007 07:50:02 1.1 C 4.65 g/m*3 1.1 C 0 km/h
1823 08-04-2007 07:55:02 1.1 C 4.65 g/m*3 1.1 C 0 km/h
1824 08-04-2007 08:00:02 1.2 C 4.68 g/m*3 1.2 C 0 km/h
1825 08-04-2007 08:05:02 1.2 C 4.68 g/m*3 1.2 C 0 km/h
Sensor: Nr:Datum:Temp:Abs-Feuchte:Windchill:Wind:
Aussen-T/F 1826 08-04-2007 08:10:02 1.3 C 4.72 g/m*3 1.3 C 0 km/h
1827 08-04-2007 08:15:01 1.4 C 4.75 g/m*3 1.4 C 0 km/h
1828 08-04-2007 08:20:01 1.4 C 4.75 g/m*3 1.4 C 0 km/h
1829 08-04-2007 08:25:01 1.5 C 4.78 g/m*3 1.5 C 0 km/h
1830 08-04-2007 08:30:02 1.5 C 4.78 g/m*3 1.5 C 0 km/h
1831 08-04-2007 08:35:01 1.6 C 4.81 g/m*3 1.6 C 0 km/h
1832 08-04-2007 08:40:01 1.6 C 4.81 g/m*3 1.6 C 0 km/h
1833 08-04-2007 08:45:02 1.7 C 4.85 g/m*3 1.7 C 0 km/h
1834 08-04-2007 08:50:02 1.9 C 4.91 g/m*3 1.9 C 0 km/h
1835 08-04-2007 08:55:02 2 C 4.95 g/m*3 2 C 0 km/h
1836 08-04-2007 09:00:02 2.1 C 4.98 g/m*3 2.1 C 0 km/h
1837 08-04-2007 09:05:02 2.3 C 5.05 g/m*3 2.3 C 0 km/h
1838 08-04-2007 09:10:02 2.4 C 5.08 g/m*3 2.4 C 0 km/h
1839 08-04-2007 09:15:01 2.5 C 5.12 g/m*3 2.5 C 0 km/h
1840 08-04-2007 09:20:01 2.7 C 5.19 g/m*3 2.7 C 0 km/h
1841 08-04-2007 09:25:01 2.9 C 5.26 g/m*3 2.9 C 0 km/h
1842 08-04-2007 09:30:01 3 C 5.23 g/m*3 3 C 0 km/h
1843 08-04-2007 09:35:01 3.3 C 5.34 g/m*3 3.3 C 0 km/h
1844 08-04-2007 09:40:01 3.7 C 5.48 g/m*3 3.7 C 0 km/h
1845 08-04-2007 09:45:01 3.9 C 5.56 g/m*3 3.9 C 0 km/h
1846 08-04-2007 09:50:01 4.3 C 5.51 g/m*3 4.3 C 0 km/h
1847 08-04-2007 09:55:02 4.4 C 5.48 g/m*3 4.4 C 0 km/h
1848 08-04-2007 10:00:02 4.6 C 5.49 g/m*3 4.6 C 0 km/h
1849 08-04-2007 10:05:01 5 C 5.57 g/m*3 5 C 0 km/h
1850 08-04-2007 10:10:01 5.2 C 5.58 g/m*3 5.2 C 0 km/h
Sensor: Nr:Datum:Temp:Abs-Feuchte:Windchill:Wind:
Aussen-T/F 1851 08-04-2007 10:15:01 5.6 C 5.73 g/m*3 5.6 C 0 km/h
1852 08-04-2007 10:20:01 5.7 C 5.69 g/m*3 5.7 C 0 km/h
1853 08-04-2007 10:25:01 6 C 5.66 g/m*3 6 C 0 km/h
1854 08-04-2007 10:30:01 6.4 C 5.66 g/m*3 6.4 C 0 km/h
1855 08-04-2007 10:35:02 6.7 C 5.7 g/m*3 6.7 C 0 km/h
1856 08-04-2007 10:40:02 7 C 5.66 g/m*3 7 C 0 km/h
1857 08-04-2007 10:45:01 7.4 C 5.73 g/m*3 7.4 C 0 km/h
1858 08-04-2007 10:50:01 7.6 C 5.72 g/m*3 7.6 C 0 km/h
1859 08-04-2007 10:55:01 8 C 5.62 g/m*3 8 C 0 km/h
1860 08-04-2007 11:00:02 8.3 C 5.65 g/m*3 8.3 C 0 km/h
1861 08-04-2007 11:05:01 8.4 C 5.68 g/m*3 8.4 C 0 km/h
1862 08-04-2007 11:10:01 8.7 C 5.62 g/m*3 8.7 C 0 km/h
1863 08-04-2007 11:15:01 9 C 5.64 g/m*3 9 C 0 km/h
1864 08-04-2007 11:20:01 9.2 C 5.63 g/m*3 9.2 C 0 km/h
1865 08-04-2007 11:25:01 9.5 C 5.64 g/m*3 9.5 C 0 km/h
1866 08-04-2007 11:30:01 9.8 C 5.66 g/m*3 9.8 C 0 km/h
1867 08-04-2007 11:35:02 10.1 C 5.58 g/m*3 10.1 C 0 km/h
1868 08-04-2007 11:40:02 10.3 C 5.55 g/m*3 10.3 C 0 km/h
1869 08-04-2007 11:45:01 10.4 C 5.49 g/m*3 10.4 C 0 km/h
1870 08-04-2007 11:50:01 10.8 C 5.44 g/m*3 10.8 C 0 km/h
1871 08-04-2007 11:55:01 11 C 5.41 g/m*3 11 C 0 km/h
1872 08-04-2007 12:00:01 11.2 C 5.37 g/m*3 11.2 C 0 km/h
1873 08-04-2007 12:05:01 11.4 C 5.23 g/m*3 11.4 C 0 km/h
1874 08-04-2007 12:10:01 11.7 C 5.33 g/m*3 11.7 C 0 km/h
1875 08-04-2007 12:15:02 11.9 C 5.3 g/m*3 11.9 C 0 km/h
Sensor: Nr:Datum:Temp:Abs-Feuchte:Windchill:Wind:
Aussen-T/F 1876 08-04-2007 12:20:02 12.2 C 5.18 g/m*3 12.2 C 0 km/h
1877 08-04-2007 12:25:02 12.3 C 4.99 g/m*3 12.3 C 0 km/h
1878 08-04-2007 12:30:02 12.5 C 5.06 g/m*3 12.5 C 0 km/h
1879 08-04-2007 12:35:02 12.6 C 5.09 g/m*3 12.6 C 0 km/h
1880 08-04-2007 12:40:02 12.7 C 5.01 g/m*3 12.7 C 0 km/h
1881 08-04-2007 12:45:01 12.9 C 5.18 g/m*3 12.9 C 0 km/h
1882 08-04-2007 12:50:01 13.1 C 5.02 g/m*3 13.1 C 0 km/h
1883 08-04-2007 12:55:01 13.2 C 4.94 g/m*3 13.2 C 0 km/h
1884 08-04-2007 13:00:01 13.5 C 5.03 g/m*3 13.5 C 0 km/h
1885 08-04-2007 13:05:02 13.8 C 5.12 g/m*3 13.8 C 0 km/h
1886 08-04-2007 13:10:02 14 C 4.95 g/m*3 14 C 0 km/h
1887 08-04-2007 13:15:02 14.2 C 5.01 g/m*3 14.2 C 0 km/h
1888 08-04-2007 13:20:02 14.4 C 4.7 g/m*3 14.4 C 0 km/h
1889 08-04-2007 13:25:02 14.4 C 4.57 g/m*3 14.4 C 0 km/h
1890 08-04-2007 13:30:02 14.6 C 4.63 g/m*3 14.6 C 0 km/h
1891 08-04-2007 13:35:02 14.6 C 4.63 g/m*3 14.6 C 0 km/h
1892 08-04-2007 13:40:02 15 C 4.62 g/m*3 15 C 0 km/h
1893 08-04-2007 13:45:02 15.4 C 4.86 g/m*3 15.4 C 0 km/h
1894 08-04-2007 13:50:02 15.5 C 4.63 g/m*3 15.5 C 0 km/h
1895 08-04-2007 13:55:02 16 C 4.63 g/m*3 16 C 0 km/h
1896 08-04-2007 14:00:02 16 C 4.22 g/m*3 16 C 0 km/h
1897 08-04-2007 14:05:02 16 C 4.22 g/m*3 16 C 0 km/h
1898 08-04-2007 14:10:02 16.2 C 4.41 g/m*3 16.2 C 0 km/h
1899 08-04-2007 14:15:01 16.9 C 4.6 g/m*3 16.9 C 0 km/h
1900 08-04-2007 14:20:02 17.5 C 4.62 g/m*3 17.5 C 0 km/h
Sensor: Nr:Datum:Temp:Abs-Feuchte:Windchill:Wind:
Aussen-T/F 1901 08-04-2007 14:25:02 17.9 C 4.58 g/m*3 17.9 C 0 km/h
1902 08-04-2007 14:30:02 18.3 C 4.69 g/m*3 18.3 C 0 km/h
1903 08-04-2007 14:35:01 18.1 C 4.33 g/m*3 18.1 C 0 km/h
1904 08-04-2007 14:40:01 18.2 C 4.35 g/m*3 18.2 C 0 km/h
1905 08-04-2007 14:45:02 18.1 C 4.02 g/m*3 18.1 C 0 km/h
1906 08-04-2007 14:50:02 18.1 C 4.17 g/m*3 18.1 C 0 km/h
1907 08-04-2007 14:55:02 18.5 C 4.27 g/m*3 18.5 C 0 km/h
1908 08-04-2007 15:00:02 18.8 C 4.51 g/m*3 18.8 C 0 km/h
1909 08-04-2007 15:05:02 18.6 C 4.3 g/m*3 18.6 C 0 km/h
1910 08-04-2007 15:10:02 19.1 C 4.43 g/m*3 19.1 C 0 km/h
1911 08-04-2007 15:15:01 19.4 C 4.34 g/m*3 19.4 C 0 km/h
1912 08-04-2007 15:20:01 19.9 C 4.47 g/m*3 19.9 C 0 km/h
1913 08-04-2007 15:25:01 19.8 C 4.44 g/m*3 19.8 C 0 km/h
1914 08-04-2007 15:30:01 20 C 4.32 g/m*3 20 C 0 km/h
1915 08-04-2007 15:35:01 19.7 C 4.08 g/m*3 19.7 C 0 km/h
1916 08-04-2007 15:40:01 19.7 C 4.25 g/m*3 19.7 C 0 km/h
1917 08-04-2007 15:45:02 19.7 C 4.25 g/m*3 19.7 C 0 km/h
1918 08-04-2007 15:50:02 19.8 C 4.44 g/m*3 19.8 C 0 km/h
1919 08-04-2007 15:55:02 20.5 C 4.45 g/m*3 20.5 C 0 km/h
1920 08-04-2007 16:00:02 20.8 C 4.53 g/m*3 20.8 C 0 km/h
1921 08-04-2007 16:05:02 21.2 C 4.08 g/m*3 21.2 C 0 km/h
1922 08-04-2007 16:10:02 21.4 C 4.12 g/m*3 21.4 C 0 km/h
1923 08-04-2007 16:15:01 21.8 C 4.22 g/m*3 21.8 C 0 km/h
1924 08-04-2007 16:20:02 22 C 3.88 g/m*3 22 C 0 km/h
1925 08-04-2007 16:25:02 22.1 C 3.9 g/m*3 22.1 C 0 km/h
Sensor: Nr:Datum:Temp:Abs-Feuchte:Windchill:Wind:
Aussen-T/F 1926 08-04-2007 16:30:02 22.6 C 4.02 g/m*3 22.6 C 0 km/h
1927 08-04-2007 16:35:01 22.3 C 3.95 g/m*3 22.3 C 0 km/h
1928 08-04-2007 16:40:01 21.3 C 3.73 g/m*3 21.3 C 0 km/h
1929 08-04-2007 16:45:02 21.9 C 3.86 g/m*3 21.9 C 0 km/h
1930 08-04-2007 16:50:02 22.1 C 3.9 g/m*3 22.1 C 0 km/h
1931 08-04-2007 16:55:02 22.1 C 3.9 g/m*3 22.1 C 0 km/h
1932 08-04-2007 17:00:02 21.3 C 3.73 g/m*3 21.3 C 0 km/h
1933 08-04-2007 17:05:01 21.1 C 3.69 g/m*3 21.1 C 0 km/h
1934 08-04-2007 17:10:02 20.6 C 3.58 g/m*3 20.6 C 0 km/h
1935 08-04-2007 17:15:01 21.4 C 3.75 g/m*3 21.4 C 0 km/h
1936 08-04-2007 17:20:01 21.7 C 3.82 g/m*3 21.7 C 0 km/h
1937 08-04-2007 17:25:01 21.4 C 3.75 g/m*3 21.4 C 0 km/h
1938 08-04-2007 17:30:01 20.5 C 3.56 g/m*3 20.5 C 0 km/h
1939 08-04-2007 17:35:01 19.9 C 3.44 g/m*3 19.9 C 0 km/h
1940 08-04-2007 17:40:01 20 C 3.63 g/m*3 20 C 0 km/h
1941 08-04-2007 17:45:01 20 C 3.46 g/m*3 20 C 0 km/h
1942 08-04-2007 17:50:02 20.1 C 3.48 g/m*3 20.1 C 0 km/h
1943 08-04-2007 17:55:02 20.3 C 3.52 g/m*3 20.3 C 0 km/h
1944 08-04-2007 18:00:02 20.6 C 3.58 g/m*3 20.6 C 0 km/h
1945 08-04-2007 18:05:02 21.1 C 3.69 g/m*3 21.1 C 0 km/h
1946 08-04-2007 18:10:02 20.9 C 3.64 g/m*3 20.9 C 0 km/h
1947 08-04-2007 18:15:01 20.9 C 3.64 g/m*3 20.9 C 0 km/h
1948 08-04-2007 18:20:01 20.9 C 3.64 g/m*3 20.9 C 0 km/h
1949 08-04-2007 18:25:01 20.9 C 3.64 g/m*3 20.9 C 0 km/h
1950 08-04-2007 18:30:01 20.8 C 3.62 g/m*3 20.8 C 0 km/h
Sensor: Nr:Datum:Temp:Abs-Feuchte:Windchill:Wind:
Aussen-T/F 1951 08-04-2007 18:35:01 20.8 C 3.62 g/m*3 20.8 C 0 km/h
1952 08-04-2007 18:40:01 20.2 C 3.5 g/m*3 20.2 C 0 km/h
1953 08-04-2007 18:45:01 19.8 C 3.42 g/m*3 19.8 C 0 km/h
1954 08-04-2007 18:50:01 19.6 C 3.55 g/m*3 19.6 C 0 km/h
1955 08-04-2007 18:55:02 19.4 C 3.67 g/m*3 19.4 C 0 km/h
1956 08-04-2007 19:00:02 19.3 C 4.15 g/m*3 19.3 C 0 km/h
1957 08-04-2007 19:05:01 19.2 C 4.29 g/m*3 19.2 C 0 km/h
1958 08-04-2007 19:10:01 18.9 C 4.37 g/m*3 18.9 C 0 km/h
1959 08-04-2007 19:15:01 18.5 C 4.43 g/m*3 18.5 C 0 km/h
1960 08-04-2007 19:20:01 18.3 C 4.69 g/m*3 18.3 C 0 km/h
1961 08-04-2007 19:25:01 17.5 C 4.62 g/m*3 17.5 C 0 km/h
1962 08-04-2007 19:30:01 16.8 C 4.43 g/m*3 16.8 C 0 km/h
1963 08-04-2007 19:35:01 16.6 C 4.52 g/m*3 16.6 C 0 km/h
1964 08-04-2007 19:40:01 16.4 C 4.47 g/m*3 16.4 C 0 km/h
1965 08-04-2007 19:45:01 16.3 C 4.58 g/m*3 16.3 C 0 km/h
1966 08-04-2007 19:50:01 16.2 C 4.69 g/m*3 16.2 C 0 km/h
1967 08-04-2007 19:55:01 15.8 C 4.71 g/m*3 15.8 C 0 km/h
1968 08-04-2007 20:00:01 15.6 C 4.65 g/m*3 15.6 C 0 km/h
1969 08-04-2007 20:05:01 15.3 C 4.57 g/m*3 15.3 C 0 km/h
1970 08-04-2007 20:10:01 15.1 C 4.64 g/m*3 15.1 C 0 km/h
1971 08-04-2007 20:15:01 14.8 C 4.56 g/m*3 14.8 C 0 km/h
1972 08-04-2007 20:20:01 14.5 C 4.73 g/m*3 14.5 C 0 km/h
1973 08-04-2007 20:25:01 14.3 C 4.67 g/m*3 14.3 C 0 km/h
1974 08-04-2007 20:30:01 14.1 C 4.61 g/m*3 14.1 C 0 km/h
1975 08-04-2007 20:35:03 13.9 C 4.68 g/m*3 13.9 C 0 km/h
Sensor: Nr:Datum:Temp:Abs-Feuchte:Windchill:Wind:
Aussen-T/F 1976 08-04-2007 20:40:04 13.8 C 4.77 g/m*3 13.8 C 0 km/h
1977 08-04-2007 20:45:02 13.6 C 4.71 g/m*3 13.6 C 0 km/h
1978 08-04-2007 20:50:02 13.4 C 4.65 g/m*3 13.4 C 0 km/h
1979 08-04-2007 20:55:02 13.2 C 4.71 g/m*3 13.2 C 0 km/h
1980 08-04-2007 21:00:02 13.2 C 4.59 g/m*3 13.2 C 0 km/h
1981 08-04-2007 21:05:02 13.1 C 4.56 g/m*3 13.1 C 0 km/h
1982 08-04-2007 21:10:02 12.9 C 4.73 g/m*3 12.9 C 0 km/h
1983 08-04-2007 21:15:02 12.8 C 4.82 g/m*3 12.8 C 0 km/h
1984 08-04-2007 21:20:02 12.6 C 4.87 g/m*3 12.6 C 0 km/h
1985 08-04-2007 21:25:02 12.4 C 4.81 g/m*3 12.4 C 0 km/h
1986 08-04-2007 21:30:02 12.3 C 4.89 g/m*3 12.3 C 0 km/h
1987 08-04-2007 21:35:01 12.1 C 4.83 g/m*3 12.1 C 0 km/h
1988 08-04-2007 21:40:02 12 C 4.8 g/m*3 12 C 0 km/h
1989 08-04-2007 21:45:02 11.9 C 4.87 g/m*3 11.9 C 0 km/h
1990 08-04-2007 21:50:02 11.8 C 4.95 g/m*3 11.8 C 0 km/h
1991 08-04-2007 21:55:02 11.7 C 4.81 g/m*3 11.7 C 0 km/h
1992 08-04-2007 22:00:02 11.5 C 4.85 g/m*3 11.5 C 0 km/h
1993 08-04-2007 22:05:02 11.4 C 4.82 g/m*3 11.4 C 0 km/h
1994 08-04-2007 22:10:02 11.3 C 4.9 g/m*3 11.3 C 0 km/h
1995 08-04-2007 22:15:02 11 C 4.9 g/m*3 11 C 0 km/h
1996 08-04-2007 22:20:02 10.9 C 4.97 g/m*3 10.9 C 0 km/h
1997 08-04-2007 22:25:02 10.5 C 4.95 g/m*3 10.5 C 0 km/h
1998 08-04-2007 22:30:02 10.5 C 4.95 g/m*3 10.5 C 0 km/h
1999 08-04-2007 22:35:02 10.5 C 4.95 g/m*3 10.5 C 0 km/h
2000 08-04-2007 22:40:02 10.4 C 4.92 g/m*3 10.4 C 0 km/h
Sensor: Nr:Datum:Temp:Abs-Feuchte:Windchill:Wind:
Aussen-T/F 2001 08-04-2007 22:45:01 10.3 C 4.88 g/m*3 10.3 C 0 km/h
2002 08-04-2007 22:50:01 10.1 C 4.82 g/m*3 10.1 C 0 km/h
2003 08-04-2007 22:55:01 10 C 4.79 g/m*3 10 C 0 km/h
2004 08-04-2007 23:00:01 9.9 C 4.95 g/m*3 9.9 C 0 km/h
2005 08-04-2007 23:05:02 9.8 C 4.92 g/m*3 9.8 C 0 km/h
2006 08-04-2007 23:10:02 9.7 C 4.89 g/m*3 9.7 C 0 km/h
2007 08-04-2007 23:15:02 9.7 C 4.98 g/m*3 9.7 C 0 km/h
2008 08-04-2007 23:20:02 9.6 C 4.95 g/m*3 9.6 C 0 km/h
2009 08-04-2007 23:25:02 9.6 C 4.95 g/m*3 9.6 C 0 km/h
2010 08-04-2007 23:30:02 9.5 C 5.01 g/m*3 9.5 C 0 km/h
2011 08-04-2007 23:35:01 9.3 C 4.94 g/m*3 9.3 C 0 km/h
2012 08-04-2007 23:40:01 9.3 C 5.03 g/m*3 9.3 C 0 km/h
2013 08-04-2007 23:45:02 9.1 C 4.97 g/m*3 9.1 C 0 km/h
2014 08-04-2007 23:50:02 8.9 C 5.08 g/m*3 8.9 C 0 km/h
2015 08-04-2007 23:55:02 8.8 C 5.05 g/m*3 8.8 C 0 km/h
2016 09-04-2007 00:00:02 8.7 C 5.1 g/m*3 8.7 C 0 km/h
2017 09-04-2007 00:05:02 8.7 C 5.1 g/m*3 8.7 C 0 km/h
2018 09-04-2007 00:10:02 8.6 C 5.07 g/m*3 8.6 C 0 km/h
2019 09-04-2007 00:15:02 8.6 C 5.16 g/m*3 8.6 C 0 km/h
2020 09-04-2007 00:20:03 8.4 C 5.09 g/m*3 8.4 C 0 km/h
2021 09-04-2007 00:25:03 8.3 C 5.06 g/m*3 8.3 C 0 km/h
2022 09-04-2007 00:30:03 8.2 C 5.11 g/m*3 8.2 C 0 km/h
2023 09-04-2007 00:35:02 8.1 C 5.08 g/m*3 8.1 C 0 km/h
2024 09-04-2007 00:40:02 7.9 C 5.09 g/m*3 7.9 C 0 km/h
2025 09-04-2007 00:45:02 7.9 C 5.09 g/m*3 7.9 C 0 km/h
Sensor: Nr:Datum:Temp:Abs-Feuchte:Windchill:Wind:
Aussen-T/F 2026 09-04-2007 00:50:02 7.8 C 5.06 g/m*3 7.8 C 0 km/h
2027 09-04-2007 00:55:02 7.8 C 5.14 g/m*3 7.8 C 0 km/h
2028 09-04-2007 01:00:02 7.6 C 5.08 g/m*3 7.6 C 0 km/h
2029 09-04-2007 01:05:02 7.6 C 5.16 g/m*3 7.6 C 0 km/h
2030 09-04-2007 01:10:02 7.4 C 5.09 g/m*3 7.4 C 0 km/h
2031 09-04-2007 01:15:02 7.4 C 5.09 g/m*3 7.4 C 0 km/h
2032 09-04-2007 01:20:02 7.3 C 5.06 g/m*3 7.3 C 0 km/h
2033 09-04-2007 01:25:02 7.3 C 5.06 g/m*3 7.3 C 0 km/h
2034 09-04-2007 01:30:02 7.1 C 4.99 g/m*3 7.1 C 0 km/h
2035 09-04-2007 01:35:02 7.2 C 5.02 g/m*3 7.2 C 0 km/h
2036 09-04-2007 01:40:02 7 C 4.96 g/m*3 7 C 0 km/h
2037 09-04-2007 01:45:02 7 C 4.96 g/m*3 7 C 0 km/h
2038 09-04-2007 01:50:02 7 C 4.96 g/m*3 7 C 0 km/h
2039 09-04-2007 01:55:02 7 C 5.04 g/m*3 7 C 0 km/h
2040 09-04-2007 02:00:02 7 C 5.04 g/m*3 7 C 0 km/h
2041 09-04-2007 02:05:02 6.9 C 5 g/m*3 6.9 C 0 km/h
2042 09-04-2007 02:10:02 6.8 C 4.97 g/m*3 6.8 C 0 km/h
2043 09-04-2007 02:15:02 6.8 C 5.05 g/m*3 6.8 C 0 km/h
2044 09-04-2007 02:20:02 6.7 C 5.01 g/m*3 6.7 C 0 km/h
2045 09-04-2007 02:25:02 6.6 C 4.98 g/m*3 6.6 C 0 km/h
2046 09-04-2007 02:30:02 6.5 C 4.95 g/m*3 6.5 C 0 km/h
2047 09-04-2007 02:35:02 6.4 C 4.99 g/m*3 6.4 C 0 km/h
2048 09-04-2007 02:40:02 6.4 C 5.07 g/m*3 6.4 C 0 km/h
2049 09-04-2007 02:46:05 6.4 C 5.07 g/m*3 6.4 C 0 km/h
2050 09-04-2007 02:51:05 6.3 C 5.03 g/m*3 6.3 C 0 km/h
Sensor: Nr:Datum:Temp:Abs-Feuchte:Windchill:Wind:
Aussen-T/F 2051 09-04-2007 02:56:05 6.3 C 5.11 g/m*3 6.3 C 0 km/h
2052 09-04-2007 03:01:05 6.1 C 5.04 g/m*3 6.1 C 0 km/h
2053 09-04-2007 03:06:05 6.1 C 5.04 g/m*3 6.1 C 0 km/h
2054 09-04-2007 03:11:06 5.8 C 5.09 g/m*3 5.8 C 0 km/h
2055 09-04-2007 03:16:06 5.7 C 5.05 g/m*3 5.7 C 0 km/h
2056 09-04-2007 03:21:06 5.7 C 5.12 g/m*3 5.7 C 0 km/h
2057 09-04-2007 03:26:06 5.5 C 5.06 g/m*3 5.5 C 0 km/h
2058 09-04-2007 03:31:02 5.5 C 5.06 g/m*3 5.5 C 0 km/h
2059 09-04-2007 03:36:02 5.5 C 5.06 g/m*3 5.5 C 0 km/h
2060 09-04-2007 03:41:02 5.4 C 5.09 g/m*3 5.4 C 0 km/h
2061 09-04-2007 03:46:03 5.2 C 5.03 g/m*3 5.2 C 0 km/h
2062 09-04-2007 03:51:03 5.2 C 5.03 g/m*3 5.2 C 0 km/h
2063 09-04-2007 03:56:03 5.2 C 5.03 g/m*3 5.2 C 0 km/h
2064 09-04-2007 04:01:02 5.1 C 4.99 g/m*3 5.1 C 0 km/h
2065 09-04-2007 04:06:02 5 C 4.96 g/m*3 5 C 0 km/h
2066 09-04-2007 04:11:02 5 C 4.96 g/m*3 5 C 0 km/h
2067 09-04-2007 04:16:03 5 C 4.96 g/m*3 5 C 0 km/h
2068 09-04-2007 04:21:03 5 C 4.96 g/m*3 5 C 0 km/h
2069 09-04-2007 04:26:03 4.9 C 5.06 g/m*3 4.9 C 0 km/h
2070 09-04-2007 04:31:02 4.9 C 5 g/m*3 4.9 C 0 km/h
2071 09-04-2007 04:36:02 4.9 C 5.06 g/m*3 4.9 C 0 km/h
2072 09-04-2007 04:41:03 5 C 5.03 g/m*3 5 C 0 km/h
2073 09-04-2007 04:46:02 4.6 C 5.1 g/m*3 4.6 C 0 km/h
2074 09-04-2007 04:51:03 4.5 C 5.06 g/m*3 4.5 C 0 km/h
2075 09-04-2007 04:56:03 4.3 C 5.06 g/m*3 4.3 C 0 km/h
Sensor: Nr:Datum:Temp:Abs-Feuchte:Windchill:Wind:
Aussen-T/F 2076 09-04-2007 05:01:02 4.3 C 5.06 g/m*3 4.3 C 0 km/h
2077 09-04-2007 05:06:02 4.2 C 5.03 g/m*3 4.2 C 0 km/h
2078 09-04-2007 05:11:03 4.2 C 5.03 g/m*3 4.2 C 0 km/h
2079 09-04-2007 05:16:02 4.2 C 5.03 g/m*3 4.2 C 0 km/h
2080 09-04-2007 05:21:02 4.2 C 5.03 g/m*3 4.2 C 0 km/h
2081 09-04-2007 05:26:02 4.2 C 5.03 g/m*3 4.2 C 0 km/h
2082 09-04-2007 05:31:02 4.1 C 4.99 g/m*3 4.1 C 0 km/h
2083 09-04-2007 05:36:02 4.2 C 5.03 g/m*3 4.2 C 0 km/h
2084 09-04-2007 05:41:02 4.2 C 5.03 g/m*3 4.2 C 0 km/h
2085 09-04-2007 05:46:01 4.1 C 4.99 g/m*3 4.1 C 0 km/h
2086 09-04-2007 05:51:01 4.1 C 4.99 g/m*3 4.1 C 0 km/h
2087 09-04-2007 05:56:01 4 C 4.9 g/m*3 4 C 0 km/h
2088 09-04-2007 06:01:02 3.9 C 4.93 g/m*3 3.9 C 0 km/h
2089 09-04-2007 06:06:02 3.9 C 4.99 g/m*3 3.9 C 0 km/h
2090 09-04-2007 06:11:02 3.8 C 4.96 g/m*3 3.8 C 0 km/h
2091 09-04-2007 06:16:02 3.7 C 4.99 g/m*3 3.7 C 0 km/h
2092 09-04-2007 06:21:03 3.7 C 4.99 g/m*3 3.7 C 0 km/h
2093 09-04-2007 06:26:03 3.6 C 4.95 g/m*3 3.6 C 0 km/h
2094 09-04-2007 06:31:01 3.6 C 5.01 g/m*3 3.6 C 0 km/h
2095 09-04-2007 06:36:01 3.6 C 5.01 g/m*3 3.6 C 0 km/h
2096 09-04-2007 06:41:01 3.5 C 4.98 g/m*3 3.5 C 0 km/h
2097 09-04-2007 06:46:02 3.4 C 4.95 g/m*3 3.4 C 0 km/h
2098 09-04-2007 06:51:02 3.4 C 5.01 g/m*3 3.4 C 0 km/h
2099 09-04-2007 06:56:02 3.3 C 4.97 g/m*3 3.3 C 0 km/h
2100 09-04-2007 07:01:02 3.3 C 4.97 g/m*3 3.3 C 0 km/h
Sensor: Nr:Datum:Temp:Abs-Feuchte:Windchill:Wind:
Aussen-T/F 2101 09-04-2007 07:06:02 3.3 C 4.97 g/m*3 3.3 C 0 km/h
2102 09-04-2007 07:11:02 3.2 C 4.94 g/m*3 3.2 C 0 km/h
2103 09-04-2007 07:16:01 3.2 C 4.88 g/m*3 3.2 C 0 km/h
2104 09-04-2007 07:21:01 3.1 C 4.85 g/m*3 3.1 C 0 km/h
2105 09-04-2007 07:26:01 3.1 C 4.85 g/m*3 3.1 C 0 km/h
2106 09-04-2007 07:31:01 3.2 C 4.88 g/m*3 3.2 C 0 km/h
2107 09-04-2007 07:36:01 3.3 C 4.97 g/m*3 3.3 C 0 km/h
2108 09-04-2007 07:41:01 3.3 C 4.97 g/m*3 3.3 C 0 km/h
2109 09-04-2007 07:46:02 3.3 C 4.97 g/m*3 3.3 C 0 km/h
2110 09-04-2007 07:51:02 3.3 C 4.97 g/m*3 3.3 C 0 km/h
2111 09-04-2007 07:56:03 3.4 C 5.01 g/m*3 3.4 C 0 km/h
2112 09-04-2007 08:01:01 3.4 C 5.01 g/m*3 3.4 C 0 km/h
2113 09-04-2007 08:06:01 3.5 C 5.04 g/m*3 3.5 C 0 km/h
2114 09-04-2007 08:11:01 3.6 C 5.08 g/m*3 3.6 C 0 km/h
2115 09-04-2007 08:16:01 3.6 C 5.08 g/m*3 3.6 C 0 km/h
2116 09-04-2007 08:21:01 3.7 C 5.11 g/m*3 3.7 C 0 km/h
2117 09-04-2007 08:26:01 3.8 C 5.14 g/m*3 3.8 C 0 km/h
2118 09-04-2007 08:31:02 3.9 C 5.18 g/m*3 3.9 C 0 km/h
2119 09-04-2007 08:36:02 4 C 5.15 g/m*3 4 C 0 km/h
2120 09-04-2007 08:41:02 4.1 C 5.18 g/m*3 4.1 C 0 km/h
2121 09-04-2007 08:46:01 4.2 C 5.22 g/m*3 4.2 C 0 km/h
2122 09-04-2007 08:51:01 4.4 C 5.29 g/m*3 4.4 C 0 km/h
2123 09-04-2007 08:56:01 4.6 C 5.36 g/m*3 4.6 C 0 km/h
2124 09-04-2007 09:01:02 4.8 C 5.36 g/m*3 4.8 C 0 km/h
2125 09-04-2007 09:06:02 5 C 5.37 g/m*3 5 C 0 km/h
Sensor: Nr:Datum:Temp:Abs-Feuchte:Windchill:Wind:
Aussen-T/F 2126 09-04-2007 09:11:02 5.4 C 5.44 g/m*3 5.4 C 0 km/h
2127 09-04-2007 09:16:02 5.7 C 5.41 g/m*3 5.7 C 0 km/h
2128 09-04-2007 09:21:02 5.8 C 5.44 g/m*3 5.8 C 0 km/h
2129 09-04-2007 09:26:02 6.1 C 5.48 g/m*3 6.1 C 0 km/h
2130 09-04-2007 09:31:01 6.5 C 5.47 g/m*3 6.5 C 0 km/h
2131 09-04-2007 09:36:01 6.6 C 5.44 g/m*3 6.6 C 0 km/h
2132 09-04-2007 09:41:01 6.8 C 5.43 g/m*3 6.8 C 0 km/h
2133 09-04-2007 09:46:02 7.1 C 5.46 g/m*3 7.1 C 0 km/h
2134 09-04-2007 09:51:02 7.3 C 5.53 g/m*3 7.3 C 0 km/h
2135 09-04-2007 09:56:02 7.6 C 5.64 g/m*3 7.6 C 0 km/h
2136 09-04-2007 10:01:02 7.9 C 5.67 g/m*3 7.9 C 0 km/h
2137 09-04-2007 10:06:02 8.2 C 5.53 g/m*3 8.2 C 0 km/h
2138 09-04-2007 10:11:02 8.4 C 5.51 g/m*3 8.4 C 0 km/h
2139 09-04-2007 10:16:02 8.7 C 5.53 g/m*3 8.7 C 0 km/h
2140 09-04-2007 10:21:02 9.1 C 5.41 g/m*3 9.1 C 0 km/h
2141 09-04-2007 10:26:02 9.2 C 5.45 g/m*3 9.2 C 0 km/h
2142 09-04-2007 10:31:02 9.6 C 5.5 g/m*3 9.6 C 0 km/h
2143 09-04-2007 10:36:02 10 C 5.45 g/m*3 10 C 0 km/h
2144 09-04-2007 10:41:02 10.1 C 5.39 g/m*3 10.1 C 0 km/h
2145 09-04-2007 10:46:02 10.6 C 5.47 g/m*3 10.6 C 0 km/h
2146 09-04-2007 10:51:02 11 C 5.31 g/m*3 11 C 0 km/h
2147 09-04-2007 10:56:02 11.4 C 5.03 g/m*3 11.4 C 0 km/h
2148 09-04-2007 11:01:02 11.5 C 4.85 g/m*3 11.5 C 0 km/h
2149 09-04-2007 11:06:02 11.9 C 4.98 g/m*3 11.9 C 0 km/h
2150 09-04-2007 11:11:03 12.4 C 5.03 g/m*3 12.4 C 0 km/h
Sensor: Nr:Datum:Temp:Abs-Feuchte:Windchill:Wind:
Aussen-T/F 2151 09-04-2007 11:16:02 12.5 C 5.06 g/m*3 12.5 C 0 km/h
2152 09-04-2007 11:21:02 12.7 C 5.01 g/m*3 12.7 C 0 km/h
2153 09-04-2007 11:26:02 12.8 C 4.93 g/m*3 12.8 C 0 km/h
2154 09-04-2007 11:31:03 13 C 4.88 g/m*3 13 C 0 km/h
2155 09-04-2007 11:36:03 13.2 C 4.82 g/m*3 13.2 C 0 km/h
2156 09-04-2007 11:41:03 13.4 C 4.88 g/m*3 13.4 C 0 km/h
2157 09-04-2007 11:46:01 13.6 C 5.06 g/m*3 13.6 C 0 km/h
2158 09-04-2007 11:51:01 13.8 C 5 g/m*3 13.8 C 0 km/h
2159 09-04-2007 11:56:01 14 C 4.95 g/m*3 14 C 0 km/h
2160 09-04-2007 12:01:01 14.4 C 5.07 g/m*3 14.4 C 0 km/h
2161 09-04-2007 12:06:01 14.4 C 4.94 g/m*3 14.4 C 0 km/h
2162 09-04-2007 12:11:01 14.7 C 5.04 g/m*3 14.7 C 0 km/h
2163 09-04-2007 12:16:01 15.1 C 5.03 g/m*3 15.1 C 0 km/h
2164 09-04-2007 12:21:01 15.4 C 5.12 g/m*3 15.4 C 0 km/h
2165 09-04-2007 12:26:01 16 C 5.18 g/m*3 16 C 0 km/h
2166 09-04-2007 12:31:04 16.5 C 5.06 g/m*3 16.5 C 0 km/h
2167 09-04-2007 12:36:05 16.6 C 4.94 g/m*3 16.6 C 0 km/h
2168 09-04-2007 12:41:05 17 C 5.06 g/m*3 17 C 0 km/h
2169 09-04-2007 12:46:03 17.1 C 4.95 g/m*3 17.1 C 0 km/h
2170 09-04-2007 12:51:03 17 C 4.77 g/m*3 17 C 0 km/h
2171 09-04-2007 12:56:03 17.1 C 4.95 g/m*3 17.1 C 0 km/h
2172 09-04-2007 13:01:02 17.5 C 5.22 g/m*3 17.5 C 0 km/h
2173 09-04-2007 13:06:02 17.6 C 4.95 g/m*3 17.6 C 0 km/h
2174 09-04-2007 13:11:02 17.3 C 4.86 g/m*3 17.3 C 0 km/h
2175 09-04-2007 13:16:02 17.3 C 5.01 g/m*3 17.3 C 0 km/h
Sensor: Nr:Datum:Temp:Abs-Feuchte:Windchill:Wind:
Aussen-T/F 2176 09-04-2007 13:21:03 17.6 C 5.1 g/m*3 17.6 C 0 km/h
2177 09-04-2007 13:26:03 18 C 5.07 g/m*3 18 C 0 km/h
2178 09-04-2007 13:31:05 18.7 C 5.12 g/m*3 18.7 C 0 km/h
2179 09-04-2007 13:36:05 19.1 C 4.92 g/m*3 19.1 C 0 km/h
2180 09-04-2007 13:41:05 19.4 C 5.17 g/m*3 19.4 C 0 km/h
2181 09-04-2007 13:46:02 19.5 C 5.03 g/m*3 19.5 C 0 km/h
2182 09-04-2007 13:51:02 19.8 C 5.3 g/m*3 19.8 C 0 km/h
2183 09-04-2007 13:56:02 20.3 C 5.1 g/m*3 20.3 C 0 km/h
2184 09-04-2007 14:01:01 20.3 C 4.92 g/m*3 20.3 C 0 km/h
2185 09-04-2007 14:06:01 19.9 C 4.81 g/m*3 19.9 C 0 km/h
2186 09-04-2007 14:11:01 19.5 C 5.03 g/m*3 19.5 C 0 km/h
2187 09-04-2007 14:16:02 19.7 C 5.26 g/m*3 19.7 C 0 km/h
2188 09-04-2007 14:21:02 20.2 C 5.25 g/m*3 20.2 C 0 km/h
2189 09-04-2007 14:26:02 19.8 C 4.78 g/m*3 19.8 C 0 km/h
2190 09-04-2007 14:31:02 19.6 C 4.73 g/m*3 19.6 C 0 km/h
2191 09-04-2007 14:36:02 19.7 C 4.75 g/m*3 19.7 C 0 km/h
2192 09-04-2007 14:41:02 20.3 C 4.75 g/m*3 20.3 C 0 km/h
2193 09-04-2007 14:46:02 20 C 4.84 g/m*3 20 C 0 km/h
2194 09-04-2007 14:51:02 20 C 4.84 g/m*3 20 C 0 km/h
2195 09-04-2007 14:56:02 20 C 4.67 g/m*3 20 C 0 km/h
2196 09-04-2007 15:01:02 19.2 C 4.62 g/m*3 19.2 C 0 km/h
2197 09-04-2007 15:06:02 19.2 C 4.45 g/m*3 19.2 C 0 km/h
2198 09-04-2007 15:11:02 19.3 C 4.48 g/m*3 19.3 C 0 km/h
2199 09-04-2007 15:16:02 19.7 C 4.58 g/m*3 19.7 C 0 km/h
2200 09-04-2007 15:21:02 20 C 4.32 g/m*3 20 C 0 km/h
Sensor: Nr:Datum:Temp:Abs-Feuchte:Windchill:Wind:
Aussen-T/F 2201 09-04-2007 15:26:02 20.1 C 4.69 g/m*3 20.1 C 0 km/h
2202 09-04-2007 15:31:02 20.6 C 4.83 g/m*3 20.6 C 0 km/h
2203 09-04-2007 15:36:02 21 C 4.76 g/m*3 21 C 0 km/h
2204 09-04-2007 15:41:02 20.5 C 4.45 g/m*3 20.5 C 0 km/h
2205 09-04-2007 15:46:03 20.2 C 4.55 g/m*3 20.2 C 0 km/h
2206 09-04-2007 15:51:03 19.9 C 4.64 g/m*3 19.9 C 0 km/h
2207 09-04-2007 15:56:03 20 C 4.67 g/m*3 20 C 0 km/h
2208 09-04-2007 16:01:02 19.6 C 4.56 g/m*3 19.6 C 0 km/h
2209 09-04-2007 16:06:02 20 C 4.49 g/m*3 20 C 0 km/h
2210 09-04-2007 16:11:02 20 C 4.32 g/m*3 20 C 0 km/h
2211 09-04-2007 16:16:02 20.9 C 4.55 g/m*3 20.9 C 0 km/h
2212 09-04-2007 16:21:02 20.3 C 4.4 g/m*3 20.3 C 0 km/h
2213 09-04-2007 16:26:02 20.2 C 4.55 g/m*3 20.2 C 0 km/h
2214 09-04-2007 16:31:03 19.9 C 4.47 g/m*3 19.9 C 0 km/h
2215 09-04-2007 16:36:03 19.3 C 4.64 g/m*3 19.3 C 0 km/h
2216 09-04-2007 16:41:03 19.5 C 4.87 g/m*3 19.5 C 0 km/h
2217 09-04-2007 16:46:02 19.9 C 4.81 g/m*3 19.9 C 0 km/h
2218 09-04-2007 16:51:02 19.4 C 4.5 g/m*3 19.4 C 0 km/h
2219 09-04-2007 16:56:02 19.3 C 4.81 g/m*3 19.3 C 0 km/h
2220 09-04-2007 17:01:02 19 C 4.56 g/m*3 19 C 0 km/h
2221 09-04-2007 17:06:02 18.8 C 4.67 g/m*3 18.8 C 0 km/h
2222 09-04-2007 17:11:02 18.5 C 4.75 g/m*3 18.5 C 0 km/h
2223 09-04-2007 17:16:02 18.5 C 4.75 g/m*3 18.5 C 0 km/h
2224 09-04-2007 17:21:02 18.5 C 4.75 g/m*3 18.5 C 0 km/h
2225 09-04-2007 17:26:02 18.4 C 4.72 g/m*3 18.4 C 0 km/h
Sensor: Nr:Datum:Temp:Abs-Feuchte:Windchill:Wind:
Aussen-T/F 2226 09-04-2007 17:31:03 18.3 C 4.69 g/m*3 18.3 C 0 km/h
2227 09-04-2007 17:36:03 18.2 C 4.82 g/m*3 18.2 C 0 km/h
2228 09-04-2007 17:41:03 18.1 C 4.79 g/m*3 18.1 C 0 km/h
2229 09-04-2007 17:46:02 18.6 C 4.93 g/m*3 18.6 C 0 km/h
2230 09-04-2007 17:51:02 18.9 C 5.02 g/m*3 18.9 C 0 km/h
2231 09-04-2007 17:56:02 19.1 C 4.92 g/m*3 19.1 C 0 km/h
2232 09-04-2007 18:01:02 18.9 C 4.86 g/m*3 18.9 C 0 km/h
2233 09-04-2007 18:06:02 18.7 C 4.96 g/m*3 18.7 C 0 km/h
2234 09-04-2007 18:11:02 18.8 C 4.99 g/m*3 18.8 C 0 km/h
2235 09-04-2007 18:16:02 18.9 C 5.02 g/m*3 18.9 C 0 km/h
2236 09-04-2007 18:21:02 18.8 C 5.15 g/m*3 18.8 C 0 km/h
2237 09-04-2007 18:26:02 18.2 C 4.97 g/m*3 18.2 C 0 km/h
2238 09-04-2007 18:31:02 18 C 5.07 g/m*3 18 C 0 km/h
2239 09-04-2007 18:36:02 18.1 C 5.1 g/m*3 18.1 C 0 km/h
2240 09-04-2007 18:41:02 18.1 C 5.1 g/m*3 18.1 C 0 km/h
2241 09-04-2007 18:46:01 18.2 C 4.97 g/m*3 18.2 C 0 km/h
2242 09-04-2007 18:51:01 17.9 C 5.04 g/m*3 17.9 C 0 km/h
2243 09-04-2007 18:56:01 17.7 C 4.83 g/m*3 17.7 C 0 km/h
2244 09-04-2007 19:01:01 17.4 C 4.89 g/m*3 17.4 C 0 km/h
2245 09-04-2007 19:06:01 17.4 C 4.89 g/m*3 17.4 C 0 km/h
2246 09-04-2007 19:11:01 17.4 C 4.89 g/m*3 17.4 C 0 km/h
2247 09-04-2007 19:16:02 17.2 C 4.98 g/m*3 17.2 C 0 km/h
2248 09-04-2007 19:21:02 17.2 C 4.83 g/m*3 17.2 C 0 km/h
2249 09-04-2007 19:26:02 17.1 C 4.8 g/m*3 17.1 C 0 km/h
2250 09-04-2007 19:31:02 16.9 C 4.89 g/m*3 16.9 C 0 km/h
Sensor: Nr:Datum:Temp:Abs-Feuchte:Windchill:Wind:
Aussen-T/F 2251 09-04-2007 19:36:02 16.5 C 4.91 g/m*3 16.5 C 0 km/h
2252 09-04-2007 19:41:02 16.3 C 4.86 g/m*3 16.3 C 0 km/h
2253 09-04-2007 19:46:01 16.3 C 4.86 g/m*3 16.3 C 0 km/h
2254 09-04-2007 19:51:01 16.2 C 5.1 g/m*3 16.2 C 0 km/h
2255 09-04-2007 19:56:01 15.9 C 4.88 g/m*3 15.9 C 0 km/h
2256 09-04-2007 20:01:01 15.8 C 4.98 g/m*3 15.8 C 0 km/h
2257 09-04-2007 20:06:01 15.6 C 5.05 g/m*3 15.6 C 0 km/h
2258 09-04-2007 20:11:01 15.4 C 4.99 g/m*3 15.4 C 0 km/h
2259 09-04-2007 20:16:01 15.2 C 5.06 g/m*3 15.2 C 0 km/h
2260 09-04-2007 20:21:01 15 C 5 g/m*3 15 C 0 km/h
2261 09-04-2007 20:26:01 14.8 C 5.19 g/m*3 14.8 C 0 km/h
2262 09-04-2007 20:31:02 14.7 C 5.16 g/m*3 14.7 C 0 km/h
2263 09-04-2007 20:36:02 14.5 C 5.1 g/m*3 14.5 C 0 km/h
2264 09-04-2007 20:41:02 14.4 C 5.19 g/m*3 14.4 C 0 km/h
2265 09-04-2007 20:46:02 14.3 C 5.16 g/m*3 14.3 C 0 km/h
2266 09-04-2007 20:51:02 14.4 C 5.19 g/m*3 14.4 C 0 km/h
2267 09-04-2007 20:56:02 14.2 C 5.13 g/m*3 14.2 C 0 km/h
2268 09-04-2007 21:01:02 14.1 C 5.1 g/m*3 14.1 C 0 km/h
2269 09-04-2007 21:06:02 14.1 C 5.1 g/m*3 14.1 C 0 km/h
2270 09-04-2007 21:11:02 14.1 C 4.98 g/m*3 14.1 C 0 km/h
2271 09-04-2007 21:16:01 14 C 5.07 g/m*3 14 C 0 km/h
2272 09-04-2007 21:21:01 14 C 4.95 g/m*3 14 C 0 km/h
2273 09-04-2007 21:26:01 14 C 5.07 g/m*3 14 C 0 km/h
2274 09-04-2007 21:31:01 13.8 C 5.24 g/m*3 13.8 C 0 km/h
2275 09-04-2007 21:36:01 13.5 C 5.15 g/m*3 13.5 C 0 km/h
Sensor: Nr:Datum:Temp:Abs-Feuchte:Windchill:Wind:
Aussen-T/F 2276 09-04-2007 21:41:01 13.4 C 5.11 g/m*3 13.4 C 0 km/h
2277 09-04-2007 21:46:02 13.3 C 5.2 g/m*3 13.3 C 0 km/h
2278 09-04-2007 21:51:02 13.2 C 5.17 g/m*3 13.2 C 0 km/h
2279 09-04-2007 21:56:02 12.7 C 5.12 g/m*3 12.7 C 0 km/h
2280 09-04-2007 22:01:02 13.2 C 5.17 g/m*3 13.2 C 0 km/h
2281 09-04-2007 22:06:02 13.1 C 5.25 g/m*3 13.1 C 0 km/h
2282 09-04-2007 22:11:03 13.1 C 5.25 g/m*3 13.1 C 0 km/h
2283 09-04-2007 22:16:02 13 C 5.22 g/m*3 13 C 0 km/h
2284 09-04-2007 22:21:02 12.9 C 5.3 g/m*3 12.9 C 0 km/h
2285 09-04-2007 22:26:02 12.8 C 5.26 g/m*3 12.8 C 0 km/h
2286 09-04-2007 22:31:01 12.8 C 5.38 g/m*3 12.8 C 0 km/h
2287 09-04-2007 22:36:01 12.8 C 5.26 g/m*3 12.8 C 0 km/h
2288 09-04-2007 22:41:01 12.5 C 5.28 g/m*3 12.5 C 0 km/h
2289 09-04-2007 22:46:02 12.5 C 5.28 g/m*3 12.5 C 0 km/h
2290 09-04-2007 22:51:02 12.4 C 5.35 g/m*3 12.4 C 0 km/h
2291 09-04-2007 22:56:02 12.2 C 5.18 g/m*3 12.2 C 0 km/h
2292 09-04-2007 23:01:02 12.2 C 5.29 g/m*3 12.2 C 0 km/h
2293 09-04-2007 23:06:02 11.9 C 5.51 g/m*3 11.9 C 0 km/h
2294 09-04-2007 23:11:02 11.8 C 5.47 g/m*3 11.8 C 0 km/h
2295 09-04-2007 23:16:01 11.8 C 5.47 g/m*3 11.8 C 0 km/h
2296 09-04-2007 23:21:01 11.4 C 5.54 g/m*3 11.4 C 0 km/h
2297 09-04-2007 23:26:01 11.2 C 5.37 g/m*3 11.2 C 0 km/h
2298 09-04-2007 23:31:02 11.2 C 5.37 g/m*3 11.2 C 0 km/h
2299 09-04-2007 23:36:02 11 C 5.61 g/m*3 11 C 0 km/h
2300 09-04-2007 23:41:02 10.9 C 5.67 g/m*3 10.9 C 0 km/h
Sensor: Nr:Datum:Temp:Abs-Feuchte:Windchill:Wind:
Aussen-T/F 2301 09-04-2007 23:46:01 10.6 C 5.76 g/m*3 10.6 C 0 km/h
2302 09-04-2007 23:51:01 10.5 C 5.72 g/m*3 10.5 C 0 km/h
2303 09-04-2007 23:56:01 10.4 C 5.78 g/m*3 10.4 C 0 km/h
2304 10-04-2007 00:01:02 10.3 C 5.75 g/m*3 10.3 C 0 km/h
2305 10-04-2007 00:06:02 10.3 C 5.75 g/m*3 10.3 C 0 km/h
2306 10-04-2007 00:11:02 10.1 C 5.67 g/m*3 10.1 C 0 km/h
2307 10-04-2007 00:16:03 9.9 C 5.79 g/m*3 9.9 C 0 km/h
2308 10-04-2007 00:21:04 9.9 C 5.79 g/m*3 9.9 C 0 km/h
2309 10-04-2007 00:26:04 9.7 C 5.62 g/m*3 9.7 C 0 km/h
2310 10-04-2007 00:31:02 9.6 C 5.68 g/m*3 9.6 C 0 km/h
2311 10-04-2007 00:36:02 9.5 C 5.73 g/m*3 9.5 C 0 km/h
2312 10-04-2007 00:41:02 9.4 C 5.7 g/m*3 9.4 C 0 km/h
2313 10-04-2007 00:46:03 9.3 C 5.75 g/m*3 9.3 C 0 km/h
2314 10-04-2007 00:51:03 9.1 C 5.77 g/m*3 9.1 C 0 km/h
2315 10-04-2007 00:56:03 9.1 C 5.77 g/m*3 9.1 C 0 km/h
2316 10-04-2007 01:01:02 9.1 C 5.68 g/m*3 9.1 C 0 km/h
2317 10-04-2007 01:06:02 9.1 C 5.77 g/m*3 9.1 C 0 km/h
2318 10-04-2007 01:11:02 9 C 5.73 g/m*3 9 C 0 km/h
2319 10-04-2007 01:16:02 9 C 5.64 g/m*3 9 C 0 km/h
2320 10-04-2007 01:21:02 8.9 C 5.69 g/m*3 8.9 C 0 km/h
2321 10-04-2007 01:26:02 8.9 C 5.69 g/m*3 8.9 C 0 km/h
2322 10-04-2007 01:31:03 8.8 C 5.66 g/m*3 8.8 C 0 km/h
2323 10-04-2007 01:36:03 8.9 C 5.78 g/m*3 8.9 C 0 km/h
2324 10-04-2007 01:41:03 8.7 C 5.71 g/m*3 8.7 C 0 km/h
2325 10-04-2007 01:46:03 8.6 C 5.67 g/m*3 8.6 C 0 km/h
Sensor: Nr:Datum:Temp:Abs-Feuchte:Windchill:Wind:
Aussen-T/F 2326 10-04-2007 01:51:03 8.5 C 5.72 g/m*3 8.5 C 0 km/h
2327 10-04-2007 01:56:03 8.4 C 5.68 g/m*3 8.4 C 0 km/h
2328 10-04-2007 02:01:02 8.4 C 5.68 g/m*3 8.4 C 0 km/h
2329 10-04-2007 02:06:02 8.2 C 5.61 g/m*3 8.2 C 0 km/h
2330 10-04-2007 02:11:03 8.2 C 5.69 g/m*3 8.2 C 0 km/h
2331 10-04-2007 02:16:03 8.1 C 5.66 g/m*3 8.1 C 0 km/h
2332 10-04-2007 02:21:03 8 C 5.62 g/m*3 8 C 0 km/h
2333 10-04-2007 02:26:03 7.9 C 5.75 g/m*3 7.9 C 0 km/h
2334 10-04-2007 02:31:03 7.9 C 5.75 g/m*3 7.9 C 0 km/h
2335 10-04-2007 02:36:03 7.8 C 5.71 g/m*3 7.8 C 0 km/h
2336 10-04-2007 02:41:03 7.7 C 5.68 g/m*3 7.7 C 0 km/h
2337 10-04-2007 02:46:01 7.5 C 5.6 g/m*3 7.5 C 0 km/h
2338 10-04-2007 02:51:01 7.5 C 5.6 g/m*3 7.5 C 0 km/h
2339 10-04-2007 02:56:01 7.4 C 5.57 g/m*3 7.4 C 0 km/h
2340 10-04-2007 03:01:01 7.4 C 5.65 g/m*3 7.4 C 0 km/h
2341 10-04-2007 03:06:01 7.4 C 5.65 g/m*3 7.4 C 0 km/h
2342 10-04-2007 03:11:01 7.5 C 5.68 g/m*3 7.5 C 0 km/h
2343 10-04-2007 03:16:01 7.6 C 5.72 g/m*3 7.6 C 0 km/h
2344 10-04-2007 03:21:01 7.7 C 5.76 g/m*3 7.7 C 0 km/h
2345 10-04-2007 03:26:02 7.7 C 5.76 g/m*3 7.7 C 0 km/h
2346 10-04-2007 03:31:02 7.5 C 5.68 g/m*3 7.5 C 0 km/h
2347 10-04-2007 03:36:02 7.4 C 5.65 g/m*3 7.4 C 0 km/h
2348 10-04-2007 03:41:02 7.3 C 5.61 g/m*3 7.3 C 0 km/h
2349 10-04-2007 03:46:02 7.2 C 5.57 g/m*3 7.2 C 0 km/h
2350 10-04-2007 03:51:02 7.1 C 5.62 g/m*3 7.1 C 0 km/h
Sensor: Nr:Datum:Temp:Abs-Feuchte:Windchill:Wind:
Aussen-T/F 2351 10-04-2007 03:56:02 7 C 5.58 g/m*3 7 C 0 km/h
2352 10-04-2007 04:01:02 6.9 C 5.62 g/m*3 6.9 C 0 km/h
2353 10-04-2007 04:06:02 6.6 C 5.51 g/m*3 6.6 C 0 km/h
2354 10-04-2007 04:11:02 6.5 C 5.47 g/m*3 6.5 C 0 km/h
2355 10-04-2007 04:16:02 6.5 C 5.55 g/m*3 6.5 C 0 km/h
2356 10-04-2007 04:21:02 6.4 C 5.59 g/m*3 6.4 C 0 km/h
2357 10-04-2007 04:26:02 6.3 C 5.55 g/m*3 6.3 C 0 km/h
2358 10-04-2007 04:31:02 6.2 C 5.59 g/m*3 6.2 C 0 km/h
2359 10-04-2007 04:36:02 6.1 C 5.55 g/m*3 6.1 C 0 km/h
2360 10-04-2007 04:41:02 6 C 5.59 g/m*3 6 C 0 km/h
2361 10-04-2007 04:46:01 5.9 C 5.62 g/m*3 5.9 C 0 km/h
2362 10-04-2007 04:51:01 5.9 C 5.62 g/m*3 5.9 C 0 km/h
2363 10-04-2007 04:56:01 5.8 C 5.66 g/m*3 5.8 C 0 km/h
2364 10-04-2007 05:01:01 5.8 C 5.66 g/m*3 5.8 C 0 km/h
2365 10-04-2007 05:06:01 5.8 C 5.66 g/m*3 5.8 C 0 km/h
2366 10-04-2007 05:11:01 5.9 C 5.7 g/m*3 5.9 C 0 km/h
2367 10-04-2007 05:16:02 5.9 C 5.7 g/m*3 5.9 C 0 km/h
2368 10-04-2007 05:21:02 5.9 C 5.7 g/m*3 5.9 C 0 km/h
2369 10-04-2007 05:26:02 5.9 C 5.62 g/m*3 5.9 C 0 km/h
2370 10-04-2007 05:31:02 5.9 C 5.62 g/m*3 5.9 C 0 km/h
2371 10-04-2007 05:36:02 5.9 C 5.62 g/m*3 5.9 C 0 km/h
2372 10-04-2007 05:41:02 5.9 C 5.62 g/m*3 5.9 C 0 km/h
2373 10-04-2007 05:46:01 5.9 C 5.62 g/m*3 5.9 C 0 km/h
2374 10-04-2007 05:51:01 5.9 C 5.62 g/m*3 5.9 C 0 km/h
2375 10-04-2007 05:56:01 6 C 5.59 g/m*3 6 C 0 km/h
Sensor: Nr:Datum:Temp:Abs-Feuchte:Windchill:Wind:
Aussen-T/F 2376 10-04-2007 06:01:01 5.9 C 5.62 g/m*3 5.9 C 0 km/h
2377 10-04-2007 06:06:01 6 C 5.59 g/m*3 6 C 0 km/h
2378 10-04-2007 06:11:01 6.1 C 5.63 g/m*3 6.1 C 0 km/h
2379 10-04-2007 06:16:02 6.2 C 5.66 g/m*3 6.2 C 0 km/h
2380 10-04-2007 06:21:02 6.3 C 5.63 g/m*3 6.3 C 0 km/h
2381 10-04-2007 06:26:02 6.3 C 5.63 g/m*3 6.3 C 0 km/h
2382 10-04-2007 06:31:02 6.3 C 5.63 g/m*3 6.3 C 0 km/h
2383 10-04-2007 06:36:02 6.1 C 5.55 g/m*3 6.1 C 0 km/h
2384 10-04-2007 06:41:02 6.2 C 5.59 g/m*3 6.2 C 0 km/h
2385 10-04-2007 06:46:01 6 C 5.52 g/m*3 6 C 0 km/h
2386 10-04-2007 06:51:01 6 C 5.59 g/m*3 6 C 0 km/h
2387 10-04-2007 06:56:01 6 C 5.59 g/m*3 6 C 0 km/h
2388 10-04-2007 07:01:02 6 C 5.59 g/m*3 6 C 0 km/h
2389 10-04-2007 07:06:02 6 C 5.66 g/m*3 6 C 0 km/h
2390 10-04-2007 07:11:02 6 C 5.66 g/m*3 6 C 0 km/h
2391 10-04-2007 07:16:02 6.1 C 5.63 g/m*3 6.1 C 0 km/h
2392 10-04-2007 07:21:02 6.2 C 5.66 g/m*3 6.2 C 0 km/h
2393 10-04-2007 07:26:02 6.2 C 5.66 g/m*3 6.2 C 0 km/h
2394 10-04-2007 07:31:01 6.3 C 5.7 g/m*3 6.3 C 0 km/h
2395 10-04-2007 07:36:01 6.3 C 5.7 g/m*3 6.3 C 0 km/h
2396 10-04-2007 07:41:01 6.1 C 5.63 g/m*3 6.1 C 0 km/h
2397 10-04-2007 07:46:02 6.1 C 5.7 g/m*3 6.1 C 0 km/h
2398 10-04-2007 07:51:02 6.1 C 5.7 g/m*3 6.1 C 0 km/h
2399 10-04-2007 07:56:02 6.2 C 5.81 g/m*3 6.2 C 0 km/h
2400 10-04-2007 08:01:02 6.3 C 5.85 g/m*3 6.3 C 0 km/h
Sensor: Nr:Datum:Temp:Abs-Feuchte:Windchill:Wind:
Aussen-T/F 2401 10-04-2007 08:06:02 6.4 C 5.81 g/m*3 6.4 C 0 km/h
2402 10-04-2007 08:11:02 6.7 C 5.93 g/m*3 6.7 C 0 km/h
2403 10-04-2007 08:16:01 6.9 C 5.93 g/m*3 6.9 C 0 km/h
2404 10-04-2007 08:21:02 7 C 5.89 g/m*3 7 C 0 km/h
2405 10-04-2007 08:26:02 7.8 C 5.88 g/m*3 7.8 C 0 km/h
2406 10-04-2007 08:31:01 8 C 5.7 g/m*3 8 C 0 km/h
2407 10-04-2007 08:36:01 8.1 C 5.74 g/m*3 8.1 C 0 km/h
2408 10-04-2007 08:41:01 8.2 C 5.69 g/m*3 8.2 C 0 km/h
2409 10-04-2007 08:46:01 8.1 C 5.66 g/m*3 8.1 C 0 km/h
2410 10-04-2007 08:51:01 8.2 C 5.69 g/m*3 8.2 C 0 km/h
2411 10-04-2007 08:56:01 8.2 C 5.69 g/m*3 8.2 C 0 km/h
2412 10-04-2007 09:01:02 8.2 C 5.78 g/m*3 8.2 C 0 km/h
2413 10-04-2007 09:06:02 8.2 C 5.78 g/m*3 8.2 C 0 km/h
2414 10-04-2007 09:11:02 8.4 C 5.94 g/m*3 8.4 C 0 km/h
2415 10-04-2007 09:16:02 8.5 C 5.89 g/m*3 8.5 C 0 km/h
2416 10-04-2007 09:21:02 8.4 C 5.85 g/m*3 8.4 C 0 km/h
2417 10-04-2007 09:26:02 8.5 C 5.89 g/m*3 8.5 C 0 km/h
2418 10-04-2007 09:31:01 8.5 C 5.89 g/m*3 8.5 C 0 km/h
2419 10-04-2007 09:36:01 8.6 C 5.93 g/m*3 8.6 C 0 km/h
2420 10-04-2007 09:41:02 8.6 C 5.93 g/m*3 8.6 C 0 km/h
2421 10-04-2007 09:46:02 8.7 C 5.97 g/m*3 8.7 C 0 km/h
2422 10-04-2007 09:51:02 8.8 C 6.01 g/m*3 8.8 C 0 km/h
2423 10-04-2007 09:56:02 8.8 C 6.01 g/m*3 8.8 C 0 km/h
2424 10-04-2007 10:01:02 9 C 5.99 g/m*3 9 C 0 km/h
2425 10-04-2007 10:06:02 9.3 C 6.02 g/m*3 9.3 C 0 km/h
Sensor: Nr:Datum:Temp:Abs-Feuchte:Windchill:Wind:
Aussen-T/F 2426 10-04-2007 10:11:02 9.5 C 6.1 g/m*3 9.5 C 0 km/h
2427 10-04-2007 10:16:02 9.7 C 6.08 g/m*3 9.7 C 0 km/h
2428 10-04-2007 10:21:02 9.8 C 6.12 g/m*3 9.8 C 0 km/h
2429 10-04-2007 10:26:02 10.1 C 6.15 g/m*3 10.1 C 0 km/h
2430 10-04-2007 10:31:01 10.2 C 6.09 g/m*3 10.2 C 0 km/h
2431 10-04-2007 10:36:01 10.2 C 6 g/m*3 10.2 C 0 km/h
2432 10-04-2007 10:41:01 10.7 C 6.19 g/m*3 10.7 C 0 km/h
2433 10-04-2007 10:46:02 10.8 C 6.13 g/m*3 10.8 C 0 km/h
2434 10-04-2007 10:51:02 11 C 6.01 g/m*3 11 C 0 km/h
2435 10-04-2007 10:56:02 11.2 C 6.08 g/m*3 11.2 C 0 km/h
2436 10-04-2007 11:01:01 11.4 C 6.06 g/m*3 11.4 C 0 km/h
2437 10-04-2007 11:06:01 11.6 C 6.13 g/m*3 11.6 C 0 km/h
2438 10-04-2007 11:11:01 11.7 C 6.07 g/m*3 11.7 C 0 km/h
2439 10-04-2007 11:16:01 11.9 C 6.14 g/m*3 11.9 C 0 km/h
2440 10-04-2007 11:21:01 12.1 C 6.11 g/m*3 12.1 C 0 km/h
2441 10-04-2007 11:26:01 12.5 C 6.16 g/m*3 12.5 C 0 km/h
2442 10-04-2007 11:31:02 12.8 C 6.16 g/m*3 12.8 C 0 km/h
2443 10-04-2007 11:36:02 13.1 C 6.16 g/m*3 13.1 C 0 km/h
2444 10-04-2007 11:41:02 13.5 C 6.2 g/m*3 13.5 C 0 km/h
2445 10-04-2007 11:46:02 13.9 C 6.11 g/m*3 13.9 C 0 km/h
2446 10-04-2007 11:51:02 14.1 C 6.07 g/m*3 14.1 C 0 km/h
2447 10-04-2007 11:56:02 14.2 C 5.98 g/m*3 14.2 C 0 km/h
2448 10-04-2007 12:01:02 14.2 C 5.98 g/m*3 14.2 C 0 km/h
2449 10-04-2007 12:06:02 14.5 C 6.09 g/m*3 14.5 C 0 km/h
2450 10-04-2007 12:11:02 14.8 C 6.08 g/m*3 14.8 C 0 km/h
Sensor: Nr:Datum:Temp:Abs-Feuchte:Windchill:Wind:
Aussen-T/F 2451 10-04-2007 12:16:01 15.4 C 5.91 g/m*3 15.4 C 0 km/h
2452 10-04-2007 12:21:01 15.6 C 5.98 g/m*3 15.6 C 0 km/h
2453 10-04-2007 12:26:01 16 C 5.99 g/m*3 16 C 0 km/h
2454 10-04-2007 12:31:01 16.3 C 5.97 g/m*3 16.3 C 0 km/h
2455 10-04-2007 12:36:01 16.1 C 5.89 g/m*3 16.1 C 0 km/h
2456 10-04-2007 12:41:01 16.6 C 6.07 g/m*3 16.6 C 0 km/h
2457 10-04-2007 12:46:02 16.8 C 6.15 g/m*3 16.8 C 0 km/h
2458 10-04-2007 12:51:02 17.5 C 6.11 g/m*3 17.5 C 0 km/h
2459 10-04-2007 12:56:02 17.4 C 6.08 g/m*3 17.4 C 0 km/h
2460 10-04-2007 13:01:01 17.2 C 6 g/m*3 17.2 C 0 km/h
2461 10-04-2007 13:06:01 17.3 C 6.19 g/m*3 17.3 C 0 km/h
2462 10-04-2007 13:11:01 17.5 C 6.26 g/m*3 17.5 C 0 km/h
2463 10-04-2007 13:16:01 18 C 6.14 g/m*3 18 C 0 km/h
2464 10-04-2007 13:21:01 18.2 C 6.22 g/m*3 18.2 C 0 km/h
2465 10-04-2007 13:26:01 18.6 C 6.37 g/m*3 18.6 C 0 km/h
2466 10-04-2007 13:31:02 18.8 C 6.12 g/m*3 18.8 C 0 km/h
2467 10-04-2007 13:36:02 18.7 C 6.24 g/m*3 18.7 C 0 km/h
2468 10-04-2007 13:41:02 18.8 C 6.28 g/m*3 18.8 C 0 km/h
2469 10-04-2007 13:46:01 18.7 C 6.24 g/m*3 18.7 C 0 km/h
2470 10-04-2007 13:51:01 18.3 C 5.94 g/m*3 18.3 C 0 km/h
2471 10-04-2007 13:56:01 18 C 5.68 g/m*3 18 C 0 km/h
2472 10-04-2007 14:01:01 18 C 5.68 g/m*3 18 C 0 km/h
2473 10-04-2007 14:06:01 18.4 C 5.82 g/m*3 18.4 C 0 km/h
2474 10-04-2007 14:11:01 18 C 5.68 g/m*3 18 C 0 km/h
2475 10-04-2007 14:16:02 18.1 C 5.72 g/m*3 18.1 C 0 km/h
Sensor: Nr:Datum:Temp:Abs-Feuchte:Windchill:Wind:
Aussen-T/F 2476 10-04-2007 14:21:02 17.9 C 5.8 g/m*3 17.9 C 0 km/h
2477 10-04-2007 14:26:02 18.2 C 5.91 g/m*3 18.2 C 0 km/h
2478 10-04-2007 14:31:02 18.3 C 5.94 g/m*3 18.3 C 0 km/h
2479 10-04-2007 14:36:02 18.2 C 5.91 g/m*3 18.2 C 0 km/h
2480 10-04-2007 14:41:02 18.3 C 5.94 g/m*3 18.3 C 0 km/h
2481 10-04-2007 14:46:01 19.3 C 5.97 g/m*3 19.3 C 0 km/h
2482 10-04-2007 14:51:01 19.3 C 5.97 g/m*3 19.3 C 0 km/h
2483 10-04-2007 14:56:01 19.1 C 5.9 g/m*3 19.1 C 0 km/h
2484 10-04-2007 15:01:02 19.3 C 5.97 g/m*3 19.3 C 0 km/h
2485 10-04-2007 15:06:02 19.2 C 5.94 g/m*3 19.2 C 0 km/h
2486 10-04-2007 15:11:02 19.2 C 5.94 g/m*3 19.2 C 0 km/h
2487 10-04-2007 15:16:02 19.2 C 5.94 g/m*3 19.2 C 0 km/h
2488 10-04-2007 15:21:02 18.7 C 5.92 g/m*3 18.7 C 0 km/h
2489 10-04-2007 15:26:02 18.8 C 5.96 g/m*3 18.8 C 0 km/h
2490 10-04-2007 15:31:01 18.7 C 6.08 g/m*3 18.7 C 0 km/h
2491 10-04-2007 15:36:01 18.4 C 6.13 g/m*3 18.4 C 0 km/h
2492 10-04-2007 15:41:01 18.5 C 6.17 g/m*3 18.5 C 0 km/h
2493 10-04-2007 15:46:02 18.7 C 6.24 g/m*3 18.7 C 0 km/h
2494 10-04-2007 15:51:02 18.6 C 6.05 g/m*3 18.6 C 0 km/h
2495 10-04-2007 15:56:02 18.6 C 5.89 g/m*3 18.6 C 0 km/h
2496 10-04-2007 16:01:02 18.5 C 6.01 g/m*3 18.5 C 0 km/h
2497 10-04-2007 16:06:02 18.4 C 5.98 g/m*3 18.4 C 0 km/h
2498 10-04-2007 16:11:02 18.3 C 6.1 g/m*3 18.3 C 0 km/h
2499 10-04-2007 16:16:01 18.2 C 6.06 g/m*3 18.2 C 0 km/h
2500 10-04-2007 16:21:01 18.1 C 6.18 g/m*3 18.1 C 0 km/h
Sensor: Nr:Datum:Temp:Abs-Feuchte:Windchill:Wind:
Aussen-T/F 2501 10-04-2007 16:26:02 17.9 C 6.11 g/m*3 17.9 C 0 km/h
2502 10-04-2007 16:31:01 17.7 C 6.19 g/m*3 17.7 C 0 km/h
2503 10-04-2007 16:36:01 17.3 C 6.04 g/m*3 17.3 C 0 km/h
2504 10-04-2007 16:41:01 17.6 C 6.15 g/m*3 17.6 C 0 km/h
2505 10-04-2007 16:46:02 17.8 C 6.37 g/m*3 17.8 C 0 km/h
2506 10-04-2007 16:51:02 18.1 C 6.33 g/m*3 18.1 C 0 km/h
2507 10-04-2007 16:56:02 18.2 C 6.22 g/m*3 18.2 C 0 km/h
2508 10-04-2007 17:01:01 18 C 6.14 g/m*3 18 C 0 km/h
2509 10-04-2007 17:06:01 17.9 C 6.11 g/m*3 17.9 C 0 km/h
2510 10-04-2007 17:11:02 17.9 C 6.11 g/m*3 17.9 C 0 km/h
2511 10-04-2007 17:16:01 17.9 C 6.11 g/m*3 17.9 C 0 km/h
2512 10-04-2007 17:21:01 18.1 C 6.03 g/m*3 18.1 C 0 km/h
2513 10-04-2007 17:26:01 17.9 C 6.11 g/m*3 17.9 C 0 km/h
2514 10-04-2007 17:31:01 17.6 C 6 g/m*3 17.6 C 0 km/h
2515 10-04-2007 17:36:01 17.7 C 6.19 g/m*3 17.7 C 0 km/h
2516 10-04-2007 17:41:01 17.8 C 6.22 g/m*3 17.8 C 0 km/h
2517 10-04-2007 17:46:02 17.8 C 6.22 g/m*3 17.8 C 0 km/h
2518 10-04-2007 17:51:02 18 C 6.14 g/m*3 18 C 0 km/h
2519 10-04-2007 17:56:02 17.7 C 6.19 g/m*3 17.7 C 0 km/h
2520 10-04-2007 18:01:01 17.5 C 6.26 g/m*3 17.5 C 0 km/h
2521 10-04-2007 18:06:01 17.5 C 6.26 g/m*3 17.5 C 0 km/h
2522 10-04-2007 18:11:02 17.5 C 6.26 g/m*3 17.5 C 0 km/h
2523 10-04-2007 18:16:01 17.5 C 6.26 g/m*3 17.5 C 0 km/h
2524 10-04-2007 18:21:01 17.1 C 6.11 g/m*3 17.1 C 0 km/h
2525 10-04-2007 18:26:01 17.2 C 6.15 g/m*3 17.2 C 0 km/h
Sensor: Nr:Datum:Temp:Abs-Feuchte:Windchill:Wind:
Aussen-T/F 2526 10-04-2007 18:31:01 17.1 C 6.11 g/m*3 17.1 C 0 km/h
2527 10-04-2007 18:36:01 17.1 C 6.11 g/m*3 17.1 C 0 km/h
2528 10-04-2007 18:41:01 17.2 C 6.15 g/m*3 17.2 C 0 km/h
2529 10-04-2007 18:46:01 17.2 C 6.15 g/m*3 17.2 C 0 km/h
2530 10-04-2007 18:51:02 16.9 C 6.33 g/m*3 16.9 C 0 km/h
2531 10-04-2007 18:56:02 16.8 C 6.29 g/m*3 16.8 C 0 km/h
2532 10-04-2007 19:01:01 16.8 C 6.29 g/m*3 16.8 C 0 km/h
2533 10-04-2007 19:06:01 16.8 C 6.29 g/m*3 16.8 C 0 km/h
2534 10-04-2007 19:11:01 16.7 C 6.25 g/m*3 16.7 C 0 km/h
2535 10-04-2007 19:16:01 16.6 C 6.36 g/m*3 16.6 C 0 km/h
2536 10-04-2007 19:21:01 16.4 C 6.28 g/m*3 16.4 C 0 km/h
2537 10-04-2007 19:26:01 16.3 C 6.24 g/m*3 16.3 C 0 km/h
2538 10-04-2007 19:31:02 16.2 C 6.21 g/m*3 16.2 C 0 km/h
2539 10-04-2007 19:36:02 16.2 C 6.21 g/m*3 16.2 C 0 km/h
2540 10-04-2007 19:41:02 16 C 6.27 g/m*3 16 C 0 km/h
2541 10-04-2007 19:46:01 16 C 6.27 g/m*3 16 C 0 km/h
2542 10-04-2007 19:51:02 15.9 C 6.37 g/m*3 15.9 C 0 km/h
2543 10-04-2007 19:56:02 15.6 C 6.38 g/m*3 15.6 C 0 km/h
2544 10-04-2007 20:01:01 15.5 C 6.34 g/m*3 15.5 C 0 km/h
2545 10-04-2007 20:06:01 15.3 C 6.4 g/m*3 15.3 C 0 km/h
2546 10-04-2007 20:11:01 15.1 C 6.45 g/m*3 15.1 C 0 km/h
2547 10-04-2007 20:16:01 14.9 C 6.5 g/m*3 14.9 C 0 km/h
2548 10-04-2007 20:21:01 14.9 C 6.5 g/m*3 14.9 C 0 km/h
2549 10-04-2007 20:26:01 14.8 C 6.59 g/m*3 14.8 C 0 km/h
2550 10-04-2007 20:31:02 14.5 C 6.59 g/m*3 14.5 C 0 km/h
Sensor: Nr:Datum:Temp:Abs-Feuchte:Windchill:Wind:
Aussen-T/F 2551 10-04-2007 20:36:02 14.4 C 6.55 g/m*3 14.4 C 0 km/h
2552 10-04-2007 20:41:02 14.1 C 6.55 g/m*3 14.1 C 0 km/h
2553 10-04-2007 20:46:01 13.8 C 6.55 g/m*3 13.8 C 0 km/h
2554 10-04-2007 20:51:01 13.7 C 6.63 g/m*3 13.7 C 0 km/h
2555 10-04-2007 20:56:02 13.5 C 6.55 g/m*3 13.5 C 0 km/h
2556 10-04-2007 21:01:01 13.2 C 6.54 g/m*3 13.2 C 0 km/h
2557 10-04-2007 21:06:01 13.1 C 6.5 g/m*3 13.1 C 0 km/h
2558 10-04-2007 21:11:01 13 C 6.58 g/m*3 13 C 0 km/h
2559 10-04-2007 21:16:01 12.8 C 6.72 g/m*3 12.8 C 0 km/h
2560 10-04-2007 21:21:01 12.7 C 6.79 g/m*3 12.7 C 0 km/h
2561 10-04-2007 21:26:01 12.6 C 6.75 g/m*3 12.6 C 0 km/h
2562 10-04-2007 21:31:02 12.5 C 6.82 g/m*3 12.5 C 0 km/h
2563 10-04-2007 21:36:02 12.3 C 6.73 g/m*3 12.3 C 0 km/h
2564 10-04-2007 21:41:02 12.3 C 6.73 g/m*3 12.3 C 0 km/h
2565 10-04-2007 21:46:01 12.1 C 6.76 g/m*3 12.1 C 0 km/h
2566 10-04-2007 21:51:01 12 C 6.71 g/m*3 12 C 0 km/h
2567 10-04-2007 21:56:01 12.1 C 6.86 g/m*3 12.1 C 0 km/h
2568 10-04-2007 22:01:01 12 C 6.82 g/m*3 12 C 0 km/h
2569 10-04-2007 22:06:01 11.9 C 6.88 g/m*3 11.9 C 0 km/h
2570 10-04-2007 22:11:01 11.8 C 6.95 g/m*3 11.8 C 0 km/h
2571 10-04-2007 22:16:01 11.9 C 6.88 g/m*3 11.9 C 0 km/h
2572 10-04-2007 22:21:01 11.6 C 6.76 g/m*3 11.6 C 0 km/h
2573 10-04-2007 22:26:01 11.4 C 6.77 g/m*3 11.4 C 0 km/h
2574 10-04-2007 22:31:02 11.4 C 6.77 g/m*3 11.4 C 0 km/h
2575 10-04-2007 22:36:02 11.3 C 6.83 g/m*3 11.3 C 0 km/h
Sensor: Nr:Datum:Temp:Abs-Feuchte:Windchill:Wind:
Aussen-T/F 2576 10-04-2007 22:41:02 11.2 C 6.79 g/m*3 11.2 C 0 km/h
2577 10-04-2007 22:46:01 11.2 C 6.79 g/m*3 11.2 C 0 km/h
2578 10-04-2007 22:51:01 11.1 C 6.75 g/m*3 11.1 C 0 km/h
2579 10-04-2007 22:56:01 11 C 6.81 g/m*3 11 C 0 km/h
2580 10-04-2007 23:01:02 11 C 6.81 g/m*3 11 C 0 km/h
2581 10-04-2007 23:06:02 10.8 C 6.92 g/m*3 10.8 C 0 km/h
2582 10-04-2007 23:11:02 10.7 C 6.88 g/m*3 10.7 C 0 km/h
2583 10-04-2007 23:16:02 10.6 C 6.83 g/m*3 10.6 C 0 km/h
2584 10-04-2007 23:21:02 10.5 C 6.79 g/m*3 10.5 C 0 km/h
2585 10-04-2007 23:26:02 10.5 C 6.79 g/m*3 10.5 C 0 km/h
2586 10-04-2007 23:31:01 10.3 C 6.8 g/m*3 10.3 C 0 km/h
2587 10-04-2007 23:36:02 10.2 C 6.85 g/m*3 10.2 C 0 km/h
2588 10-04-2007 23:41:02 10 C 6.86 g/m*3 10 C 0 km/h
2589 10-04-2007 23:46:01 9.9 C 6.91 g/m*3 9.9 C 0 km/h
2590 10-04-2007 23:51:01 9.9 C 6.91 g/m*3 9.9 C 0 km/h
2591 10-04-2007 23:56:01 9.8 C 6.96 g/m*3 9.8 C 0 km/h
2592 11-04-2007 00:01:02 9.7 C 6.91 g/m*3 9.7 C 0 km/h
2593 11-04-2007 00:06:02 9.7 C 6.91 g/m*3 9.7 C 0 km/h
2594 11-04-2007 00:11:02 9.7 C 6.91 g/m*3 9.7 C 0 km/h
2595 11-04-2007 00:16:02 9.7 C 6.91 g/m*3 9.7 C 0 km/h
2596 11-04-2007 00:21:02 9.6 C 6.96 g/m*3 9.6 C 0 km/h
2597 11-04-2007 00:26:02 9.5 C 6.92 g/m*3 9.5 C 0 km/h
2598 11-04-2007 00:31:02 9.6 C 6.96 g/m*3 9.6 C 0 km/h
2599 11-04-2007 00:36:02 9.6 C 6.96 g/m*3 9.6 C 0 km/h
2600 11-04-2007 00:41:02 9.6 C 6.96 g/m*3 9.6 C 0 km/h
Sensor: Nr:Datum:Temp:Abs-Feuchte:Windchill:Wind:
Aussen-T/F 2601 11-04-2007 00:46:02 9.6 C 6.96 g/m*3 9.6 C 0 km/h
2602 11-04-2007 00:51:02 9.6 C 6.96 g/m*3 9.6 C 0 km/h
2603 11-04-2007 00:56:02 9.5 C 6.92 g/m*3 9.5 C 0 km/h
2604 11-04-2007 01:01:01 9.5 C 6.92 g/m*3 9.5 C 0 km/h
2605 11-04-2007 01:06:01 9.3 C 6.92 g/m*3 9.3 C 0 km/h
2606 11-04-2007 01:11:01 9.3 C 6.92 g/m*3 9.3 C 0 km/h
2607 11-04-2007 01:16:02 9.3 C 6.92 g/m*3 9.3 C 0 km/h
2608 11-04-2007 01:21:02 9.3 C 6.92 g/m*3 9.3 C 0 km/h
2609 11-04-2007 01:26:02 9.4 C 6.96 g/m*3 9.4 C 0 km/h
2610 11-04-2007 01:31:01 9.5 C 7.01 g/m*3 9.5 C 0 km/h
2611 11-04-2007 01:36:02 9.4 C 6.87 g/m*3 9.4 C 0 km/h
2612 11-04-2007 01:41:02 9.4 C 6.87 g/m*3 9.4 C 0 km/h
2613 11-04-2007 01:46:01 9.4 C 6.96 g/m*3 9.4 C 0 km/h
2614 11-04-2007 01:51:01 9.6 C 6.96 g/m*3 9.6 C 0 km/h
2615 11-04-2007 01:56:01 9.6 C 6.96 g/m*3 9.6 C 0 km/h
2616 11-04-2007 02:01:01 9.6 C 6.96 g/m*3 9.6 C 0 km/h
2617 11-04-2007 02:06:01 9.6 C 6.96 g/m*3 9.6 C 0 km/h
2618 11-04-2007 02:11:01 9.6 C 6.96 g/m*3 9.6 C 0 km/h
2619 11-04-2007 02:16:02 9.3 C 6.92 g/m*3 9.3 C 0 km/h
2620 11-04-2007 02:21:02 9.4 C 6.96 g/m*3 9.4 C 0 km/h
2621 11-04-2007 02:26:02 9.5 C 6.92 g/m*3 9.5 C 0 km/h
2622 11-04-2007 02:31:02 9.7 C 7.01 g/m*3 9.7 C 0 km/h
2623 11-04-2007 02:36:02 9.6 C 6.96 g/m*3 9.6 C 0 km/h
2624 11-04-2007 02:41:02 9.5 C 6.92 g/m*3 9.5 C 0 km/h
2625 11-04-2007 02:46:02 9.1 C 6.74 g/m*3 9.1 C 0 km/h
Sensor: Nr:Datum:Temp:Abs-Feuchte:Windchill:Wind:
Aussen-T/F 2626 11-04-2007 02:51:02 9.1 C 6.74 g/m*3 9.1 C 0 km/h
2627 11-04-2007 02:56:02 9 C 6.7 g/m*3 9 C 0 km/h
2628 11-04-2007 03:01:02 8.7 C 6.75 g/m*3 8.7 C 0 km/h
2629 11-04-2007 03:06:02 8.7 C 6.75 g/m*3 8.7 C 0 km/h
2630 11-04-2007 03:11:02 8.3 C 6.74 g/m*3 8.3 C 0 km/h
2631 11-04-2007 03:16:02 8.2 C 6.78 g/m*3 8.2 C 0 km/h
2632 11-04-2007 03:21:02 8.1 C 6.74 g/m*3 8.1 C 0 km/h
2633 11-04-2007 03:26:02 8.1 C 6.74 g/m*3 8.1 C 0 km/h
2634 11-04-2007 03:31:02 7.9 C 6.82 g/m*3 7.9 C 0 km/h
2635 11-04-2007 03:36:02 7.9 C 6.82 g/m*3 7.9 C 0 km/h
2636 11-04-2007 03:41:02 7.7 C 6.73 g/m*3 7.7 C 0 km/h
2637 11-04-2007 03:46:02 7.7 C 6.73 g/m*3 7.7 C 0 km/h
2638 11-04-2007 03:51:02 7.5 C 6.64 g/m*3 7.5 C 0 km/h
2639 11-04-2007 03:56:02 7.5 C 6.64 g/m*3 7.5 C 0 km/h
2640 11-04-2007 04:01:02 7.4 C 6.6 g/m*3 7.4 C 0 km/h
2641 11-04-2007 04:06:02 7.3 C 6.64 g/m*3 7.3 C 0 km/h
2642 11-04-2007 04:11:02 7.2 C 6.59 g/m*3 7.2 C 0 km/h
2643 11-04-2007 04:16:02 7.1 C 6.55 g/m*3 7.1 C 0 km/h
2644 11-04-2007 04:21:02 7.1 C 6.55 g/m*3 7.1 C 0 km/h
2645 11-04-2007 04:26:02 7.2 C 6.67 g/m*3 7.2 C 0 km/h
2646 11-04-2007 04:31:02 7.2 C 6.67 g/m*3 7.2 C 0 km/h
2647 11-04-2007 04:36:02 7 C 6.59 g/m*3 7 C 0 km/h
2648 11-04-2007 04:41:02 6.9 C 6.62 g/m*3 6.9 C 0 km/h
2649 11-04-2007 04:46:01 6.9 C 6.62 g/m*3 6.9 C 0 km/h
2650 11-04-2007 04:51:02 6.8 C 6.65 g/m*3 6.8 C 0 km/h
Sensor: Nr:Datum:Temp:Abs-Feuchte:Windchill:Wind:
Aussen-T/F 2651 11-04-2007 04:56:02 6.8 C 6.65 g/m*3 6.8 C 0 km/h
2652 11-04-2007 05:01:02 6.7 C 6.61 g/m*3 6.7 C 0 km/h
2653 11-04-2007 05:06:02 6.7 C 6.61 g/m*3 6.7 C 0 km/h
2654 11-04-2007 05:11:02 6.5 C 6.52 g/m*3 6.5 C 0 km/h
2655 11-04-2007 05:16:01 6.4 C 6.48 g/m*3 6.4 C 0 km/h
2656 11-04-2007 05:21:01 6.3 C 6.44 g/m*3 6.3 C 0 km/h
2657 11-04-2007 05:26:01 6.2 C 6.4 g/m*3 6.2 C 0 km/h
2658 11-04-2007 05:31:01 6.1 C 6.36 g/m*3 6.1 C 0 km/h
2659 11-04-2007 05:36:02 6.1 C 6.36 g/m*3 6.1 C 0 km/h
2660 11-04-2007 05:41:02 6 C 6.31 g/m*3 6 C 0 km/h
2661 11-04-2007 05:46:02 6 C 6.31 g/m*3 6 C 0 km/h
2662 11-04-2007 05:51:02 5.9 C 6.35 g/m*3 5.9 C 0 km/h
2663 11-04-2007 05:56:02 5.9 C 6.35 g/m*3 5.9 C 0 km/h
2664 11-04-2007 06:01:01 5.8 C 6.38 g/m*3 5.8 C 0 km/h
2665 11-04-2007 06:06:02 5.8 C 6.38 g/m*3 5.8 C 0 km/h
2666 11-04-2007 06:11:02 5.8 C 6.38 g/m*3 5.8 C 0 km/h
2667 11-04-2007 06:16:01 5.7 C 6.33 g/m*3 5.7 C 0 km/h
2668 11-04-2007 06:21:01 5.6 C 6.29 g/m*3 5.6 C 0 km/h
2669 11-04-2007 06:26:01 5.6 C 6.22 g/m*3 5.6 C 0 km/h
2670 11-04-2007 06:31:01 5.4 C 6.14 g/m*3 5.4 C 0 km/h
2671 11-04-2007 06:36:01 5.3 C 6.17 g/m*3 5.3 C 0 km/h
2672 11-04-2007 06:41:01 5.3 C 6.17 g/m*3 5.3 C 0 km/h
2673 11-04-2007 06:46:02 5.1 C 6.09 g/m*3 5.1 C 0 km/h
2674 11-04-2007 06:51:02 5.1 C 6.09 g/m*3 5.1 C 0 km/h
2675 11-04-2007 06:56:02 5.1 C 6.09 g/m*3 5.1 C 0 km/h
Sensor: Nr:Datum:Temp:Abs-Feuchte:Windchill:Wind:
Aussen-T/F 2676 11-04-2007 07:01:01 5 C 6.05 g/m*3 5 C 0 km/h
2677 11-04-2007 07:06:01 5 C 6.05 g/m*3 5 C 0 km/h
2678 11-04-2007 07:11:01 5 C 6.05 g/m*3 5 C 0 km/h
2679 11-04-2007 07:16:01 5 C 6.05 g/m*3 5 C 0 km/h
2680 11-04-2007 07:21:01 5 C 6.05 g/m*3 5 C 0 km/h
2681 11-04-2007 07:26:01 4.9 C 6.08 g/m*3 4.9 C 0 km/h
2682 11-04-2007 07:31:02 4.9 C 6.08 g/m*3 4.9 C 0 km/h
2683 11-04-2007 07:36:02 5 C 6.12 g/m*3 5 C 0 km/h
2684 11-04-2007 07:41:02 5 C 6.12 g/m*3 5 C 0 km/h
2685 11-04-2007 07:46:01 5 C 6.12 g/m*3 5 C 0 km/h
2686 11-04-2007 07:51:01 5.1 C 6.16 g/m*3 5.1 C 0 km/h
2687 11-04-2007 07:56:01 5.2 C 6.2 g/m*3 5.2 C 0 km/h
2688 11-04-2007 08:01:01 5.1 C 6.16 g/m*3 5.1 C 0 km/h
2689 11-04-2007 08:06:01 5.3 C 6.24 g/m*3 5.3 C 0 km/h
2690 11-04-2007 08:11:01 5.4 C 6.28 g/m*3 5.4 C 0 km/h
2691 11-04-2007 08:16:01 5.5 C 6.32 g/m*3 5.5 C 0 km/h
2692 11-04-2007 08:21:01 5.5 C 6.32 g/m*3 5.5 C 0 km/h
2693 11-04-2007 08:26:01 5.6 C 6.36 g/m*3 5.6 C 0 km/h
2694 11-04-2007 08:31:02 5.6 C 6.36 g/m*3 5.6 C 0 km/h
2695 11-04-2007 08:36:02 5.6 C 6.29 g/m*3 5.6 C 0 km/h
2696 11-04-2007 08:41:02 5.6 C 6.29 g/m*3 5.6 C 0 km/h
2697 11-04-2007 09:00:01 5.9 C 6.49 g/m*3 5.9 C 0 km/h
2698 11-04-2007 09:15:02 6.3 C 6.59 g/m*3 6.3 C 0 km/h
2699 11-04-2007 09:30:02 6.5 C 6.67 g/m*3 6.5 C 0 km/h
2700 11-04-2007 09:45:02 6.9 C 6.77 g/m*3 6.9 C 0 km/h
Sensor: Nr:Datum:Temp:Abs-Feuchte:Windchill:Wind:
Aussen-T/F 2701 11-04-2007 10:00:02 7.5 C 6.88 g/m*3 7.5 C 0 km/h
2702 11-04-2007 10:15:02 8.3 C 7 g/m*3 8.3 C 0 km/h
2703 11-04-2007 10:30:02 9.2 C 7.05 g/m*3 9.2 C 0 km/h
2704 11-04-2007 10:50:01 10.3 C 7.18 g/m*3 10.3 C 0 km/h
2705 11-04-2007 11:05:01 11.4 C 7.08 g/m*3 11.4 C 0 km/h
2706 11-04-2007 11:20:01 13 C 7.03 g/m*3 13 C 0 km/h
2707 11-04-2007 11:35:01 14.2 C 6.35 g/m*3 14.2 C 0 km/h
2708 11-04-2007 11:50:01 14.9 C 6.25 g/m*3 14.9 C 0 km/h
2709 11-04-2007 12:05:01 15.6 C 5.98 g/m*3 15.6 C 0 km/h
2710 11-04-2007 12:20:01 16.1 C 6.03 g/m*3 16.1 C 0 km/h
2711 11-04-2007 12:35:01 16.1 C 5.62 g/m*3 16.1 C 0 km/h
2712 11-04-2007 12:50:01 16.3 C 5.83 g/m*3 16.3 C 0 km/h
2713 11-04-2007 13:05:01 17.3 C 5.89 g/m*3 17.3 C 0 km/h
2714 11-04-2007 13:20:01 17 C 5.64 g/m*3 17 C 0 km/h
2715 11-04-2007 13:35:01 17.6 C 5.55 g/m*3 17.6 C 0 km/h
2716 11-04-2007 13:50:01 18.1 C 5.41 g/m*3 18.1 C 0 km/h
2717 11-04-2007 14:05:01 18.9 C 5.67 g/m*3 18.9 C 0 km/h
2718 11-04-2007 14:20:01 19.7 C 5.43 g/m*3 19.7 C 0 km/h
2719 11-04-2007 14:35:02 20.8 C 5.43 g/m*3 20.8 C 0 km/h
2720 11-04-2007 14:50:02 20.8 C 5.25 g/m*3 20.8 C 0 km/h
2721 11-04-2007 15:05:02 21.9 C 5.21 g/m*3 21.9 C 0 km/h
2722 11-04-2007 15:20:02 22.6 C 5.22 g/m*3 22.6 C 0 km/h
2723 11-04-2007 15:35:02 23.3 C 5.02 g/m*3 23.3 C 0 km/h
2724 11-04-2007 15:50:02 22.3 C 4.94 g/m*3 22.3 C 0 km/h
2725 11-04-2007 16:05:02 22.9 C 5.11 g/m*3 22.9 C 0 km/h
Sensor: Nr:Datum:Temp:Abs-Feuchte:Windchill:Wind:
Aussen-T/F 2726 11-04-2007 16:20:02 23 C 4.73 g/m*3 23 C 0 km/h
2727 11-04-2007 16:35:02 23 C 5.14 g/m*3 23 C 0 km/h
2728 11-04-2007 16:50:02 24.8 C 5.01 g/m*3 24.8 C 0 km/h
2729 11-04-2007 17:05:02 24.7 C 4.98 g/m*3 24.7 C 0 km/h
2730 11-04-2007 17:20:02 25 C 4.6 g/m*3 25 C 0 km/h
2731 11-04-2007 17:35:02 24.7 C 4.75 g/m*3 24.7 C 0 km/h
2732 11-04-2007 17:50:02 24.1 C 4.59 g/m*3 24.1 C 0 km/h
2733 11-04-2007 18:05:02 23.5 C 4.86 g/m*3 23.5 C 0 km/h
2734 11-04-2007 18:20:02 23.1 C 4.96 g/m*3 23.1 C 0 km/h
2735 11-04-2007 18:35:02 23 C 5.14 g/m*3 23 C 0 km/h
2736 11-04-2007 18:50:02 22.5 C 5.19 g/m*3 22.5 C 0 km/h
2737 11-04-2007 19:05:02 22.6 C 5.22 g/m*3 22.6 C 0 km/h
2738 11-04-2007 19:20:03 22 C 5.43 g/m*3 22 C 0 km/h
2739 11-04-2007 19:35:03 20.6 C 5.73 g/m*3 20.6 C 0 km/h
2740 11-04-2007 19:50:03 20 C 5.88 g/m*3 20 C 0 km/h
2741 11-04-2007 20:05:03 19.5 C 6.21 g/m*3 19.5 C 0 km/h
2742 11-04-2007 20:20:03 18.4 C 6.29 g/m*3 18.4 C 0 km/h
2743 11-04-2007 20:35:03 17.7 C 6.34 g/m*3 17.7 C 0 km/h
2744 11-04-2007 20:50:03 16.9 C 6.33 g/m*3 16.9 C 0 km/h
2745 11-04-2007 21:05:03 16.3 C 6.38 g/m*3 16.3 C 0 km/h
2746 11-04-2007 21:20:03 16 C 6.4 g/m*3 16 C 0 km/h
2747 11-04-2007 21:35:03 15.4 C 6.31 g/m*3 15.4 C 0 km/h
2748 11-04-2007 21:50:03 15 C 6.15 g/m*3 15 C 0 km/h
2749 11-04-2007 22:05:03 14.8 C 6.21 g/m*3 14.8 C 0 km/h
2750 11-04-2007 22:20:03 14.4 C 6.18 g/m*3 14.4 C 0 km/h
Sensor: Nr:Datum:Temp:Abs-Feuchte:Windchill:Wind:
Aussen-T/F 2751 11-04-2007 22:35:03 14 C 6.27 g/m*3 14 C 0 km/h
2752 11-04-2007 22:50:03 13.7 C 6.28 g/m*3 13.7 C 0 km/h
2753 11-04-2007 23:05:03 13.5 C 6.43 g/m*3 13.5 C 0 km/h
2754 11-04-2007 23:20:03 13.2 C 6.43 g/m*3 13.2 C 0 km/h
2755 11-04-2007 23:35:03 12.8 C 6.5 g/m*3 12.8 C 0 km/h
2756 11-04-2007 23:50:04 12.4 C 6.45 g/m*3 12.4 C 0 km/h
2757 12-04-2007 00:05:04 12.2 C 6.47 g/m*3 12.2 C 0 km/h
2758 12-04-2007 00:20:04 12 C 6.5 g/m*3 12 C 0 km/h
2759 12-04-2007 00:35:04 11.9 C 6.67 g/m*3 11.9 C 0 km/h
2760 12-04-2007 00:50:04 11.3 C 6.53 g/m*3 11.3 C 0 km/h
2761 12-04-2007 01:05:04 11.3 C 6.53 g/m*3 11.3 C 0 km/h
2762 12-04-2007 01:20:04 11.1 C 6.45 g/m*3 11.1 C 0 km/h
2763 12-04-2007 01:35:04 11 C 6.51 g/m*3 11 C 0 km/h
2764 12-04-2007 01:50:04 11.2 C 6.59 g/m*3 11.2 C 0 km/h
2765 12-04-2007 02:05:04 11.2 C 6.49 g/m*3 11.2 C 0 km/h
2766 12-04-2007 02:20:04 11 C 6.41 g/m*3 11 C 0 km/h
2767 12-04-2007 02:35:04 10.7 C 6.48 g/m*3 10.7 C 0 km/h
2768 12-04-2007 02:50:04 10.6 C 6.54 g/m*3 10.6 C 0 km/h
2769 12-04-2007 03:05:04 10.4 C 6.46 g/m*3 10.4 C 0 km/h
2770 12-04-2007 03:20:04 10.1 C 6.43 g/m*3 10.1 C 0 km/h
2771 12-04-2007 03:35:04 9.9 C 6.44 g/m*3 9.9 C 0 km/h
2772 12-04-2007 03:50:04 9.5 C 6.37 g/m*3 9.5 C 0 km/h
2773 12-04-2007 04:05:04 9.3 C 6.47 g/m*3 9.3 C 0 km/h
2774 12-04-2007 04:20:05 9.2 C 6.52 g/m*3 9.2 C 0 km/h
2775 12-04-2007 04:35:05 8.9 C 6.48 g/m*3 8.9 C 0 km/h
Sensor: Nr:Datum:Temp:Abs-Feuchte:Windchill:Wind:
Aussen-T/F 2776 12-04-2007 04:50:05 8.5 C 6.4 g/m*3 8.5 C 0 km/h
2777 12-04-2007 05:05:05 8.3 C 6.41 g/m*3 8.3 C 0 km/h
2778 12-04-2007 05:20:05 8.1 C 6.41 g/m*3 8.1 C 0 km/h
2779 12-04-2007 05:35:05 8 C 6.45 g/m*3 8 C 0 km/h
2780 12-04-2007 05:50:05 7.8 C 6.53 g/m*3 7.8 C 0 km/h
2781 12-04-2007 06:05:05 7.8 C 6.45 g/m*3 7.8 C 0 km/h
2782 12-04-2007 06:20:05 7.6 C 6.36 g/m*3 7.6 C 0 km/h
2783 12-04-2007 06:35:05 7.5 C 6.4 g/m*3 7.5 C 0 km/h
2784 12-04-2007 06:50:05 7.2 C 6.36 g/m*3 7.2 C 0 km/h
2785 12-04-2007 07:05:05 7.2 C 6.44 g/m*3 7.2 C 0 km/h
2786 12-04-2007 07:20:05 7.2 C 6.44 g/m*3 7.2 C 0 km/h
2787 12-04-2007 07:35:05 7.2 C 6.44 g/m*3 7.2 C 0 km/h
2788 12-04-2007 07:50:05 7.3 C 6.48 g/m*3 7.3 C 0 km/h
2789 12-04-2007 08:05:05 7.5 C 6.56 g/m*3 7.5 C 0 km/h
2790 12-04-2007 08:20:05 7.6 C 6.53 g/m*3 7.6 C 0 km/h
2791 12-04-2007 08:35:05 8 C 6.61 g/m*3 8 C 0 km/h
2792 12-04-2007 08:50:05 8.4 C 6.87 g/m*3 8.4 C 0 km/h
2793 12-04-2007 09:05:06 9 C 6.96 g/m*3 9 C 0 km/h
2794 12-04-2007 09:20:06 9.4 C 6.96 g/m*3 9.4 C 0 km/h
2795 12-04-2007 09:35:06 10.2 C 7.04 g/m*3 10.2 C 0 km/h
2796 12-04-2007 09:50:06 11 C 7.11 g/m*3 11 C 0 km/h
2797 12-04-2007 10:05:06 12 C 7.14 g/m*3 12 C 0 km/h
2798 12-04-2007 10:20:06 13 C 6.8 g/m*3 13 C 0 km/h
2799 12-04-2007 10:35:06 13.7 C 6.75 g/m*3 13.7 C 0 km/h
2800 12-04-2007 10:50:06 14.4 C 6.55 g/m*3 14.4 C 0 km/h
Sensor: Nr:Datum:Temp:Abs-Feuchte:Windchill:Wind:
Aussen-T/F 2801 12-04-2007 11:05:06 15.2 C 6.62 g/m*3 15.2 C 0 km/h
2802 12-04-2007 11:20:06 16 C 6.54 g/m*3 16 C 0 km/h
2803 12-04-2007 11:35:06 16.6 C 6.5 g/m*3 16.6 C 0 km/h
2804 12-04-2007 11:50:06 17.5 C 6.56 g/m*3 17.5 C 0 km/h
2805 12-04-2007 12:05:06 18.2 C 6.53 g/m*3 18.2 C 0 km/h
2806 12-04-2007 12:20:06 19.1 C 6.56 g/m*3 19.1 C 0 km/h
2807 12-04-2007 12:35:06 19.6 C 6.75 g/m*3 19.6 C 0 km/h
2808 12-04-2007 12:50:06 20.2 C 6.64 g/m*3 20.2 C 0 km/h
2809 12-04-2007 13:05:06 20.7 C 6.66 g/m*3 20.7 C 0 km/h
2810 12-04-2007 13:20:06 21.4 C 6.56 g/m*3 21.4 C 0 km/h
2811 12-04-2007 13:35:06 21.9 C 6.56 g/m*3 21.9 C 0 km/h
2812 12-04-2007 13:50:07 22.9 C 6.54 g/m*3 22.9 C 0 km/h
2813 12-04-2007 14:05:07 23.4 C 6.31 g/m*3 23.4 C 0 km/h
2814 12-04-2007 14:20:07 24 C 6.09 g/m*3 24 C 0 km/h
2815 12-04-2007 14:35:07 24.7 C 6.34 g/m*3 24.7 C 0 km/h
2816 12-04-2007 14:50:07 25.3 C 6.09 g/m*3 25.3 C 0 km/h
2817 12-04-2007 15:05:07 25.9 C 6.05 g/m*3 25.9 C 0 km/h
2818 12-04-2007 15:20:07 26.3 C 5.94 g/m*3 26.3 C 0 km/h
2819 12-04-2007 15:35:07 26.7 C 5.82 g/m*3 26.7 C 0 km/h
2820 12-04-2007 15:50:07 26.7 C 5.57 g/m*3 26.7 C 0 km/h
2821 12-04-2007 16:05:07 27.5 C 5.56 g/m*3 27.5 C 0 km/h
2822 12-04-2007 16:20:07 27.6 C 5.59 g/m*3 27.6 C 0 km/h
2823 12-04-2007 16:35:07 27.7 C 5.62 g/m*3 27.7 C 0 km/h
2824 12-04-2007 16:50:07 27.7 C 5.62 g/m*3 27.7 C 0 km/h
2825 12-04-2007 17:05:07 27.9 C 5.68 g/m*3 27.9 C 0 km/h
Sensor: Nr:Datum:Temp:Abs-Feuchte:Windchill:Wind:
Aussen-T/F 2826 12-04-2007 17:20:07 27.5 C 5.82 g/m*3 27.5 C 0 km/h
2827 12-04-2007 17:35:07 28.2 C 5.77 g/m*3 28.2 C 0 km/h
2828 12-04-2007 17:50:07 28.4 C 5.84 g/m*3 28.4 C 0 km/h
2829 12-04-2007 18:05:07 28.6 C 5.62 g/m*3 28.6 C 0 km/h
2830 12-04-2007 18:20:08 28.5 C 5.59 g/m*3 28.5 C 0 km/h
2831 12-04-2007 18:35:08 28 C 5.44 g/m*3 28 C 0 km/h
2832 12-04-2007 18:50:08 28.2 C 5.77 g/m*3 28.2 C 0 km/h
2833 12-04-2007 19:05:08 27.9 C 5.68 g/m*3 27.9 C 0 km/h
2834 12-04-2007 19:20:08 27.3 C 5.49 g/m*3 27.3 C 0 km/h
2835 12-04-2007 19:35:08 26.9 C 6.14 g/m*3 26.9 C 0 km/h
2836 12-04-2007 19:50:08 25.3 C 6.09 g/m*3 25.3 C 0 km/h
2837 12-04-2007 20:05:08 24 C 6.09 g/m*3 24 C 0 km/h
2838 12-04-2007 20:20:08 22.5 C 6.19 g/m*3 22.5 C 0 km/h
2839 12-04-2007 20:35:08 21.8 C 6.52 g/m*3 21.8 C 0 km/h
2840 12-04-2007 20:50:08 21 C 6.59 g/m*3 21 C 0 km/h
2841 12-04-2007 21:05:08 20.2 C 6.82 g/m*3 20.2 C 0 km/h
2842 12-04-2007 21:20:08 19.8 C 6.83 g/m*3 19.8 C 0 km/h
2843 12-04-2007 21:35:08 19.5 C 6.88 g/m*3 19.5 C 0 km/h
2844 12-04-2007 21:50:08 18.9 C 6.97 g/m*3 18.9 C 0 km/h
2845 12-04-2007 22:05:08 18.6 C 7.16 g/m*3 18.6 C 0 km/h
2846 12-04-2007 22:20:08 18.2 C 7.15 g/m*3 18.2 C 0 km/h
2847 12-04-2007 22:35:08 17.8 C 7.29 g/m*3 17.8 C 0 km/h
2848 12-04-2007 22:50:09 17.5 C 7.16 g/m*3 17.5 C 0 km/h
2849 12-04-2007 23:05:09 17.2 C 7.18 g/m*3 17.2 C 0 km/h
2850 12-04-2007 23:20:09 16.7 C 7.25 g/m*3 16.7 C 0 km/h
Sensor: Nr:Datum:Temp:Abs-Feuchte:Windchill:Wind:
Aussen-T/F 2851 12-04-2007 23:35:09 16.2 C 7.31 g/m*3 16.2 C 0 km/h
2852 12-04-2007 23:50:09 15.9 C 7.45 g/m*3 15.9 C 0 km/h
2853 13-04-2007 00:05:09 16 C 7.49 g/m*3 16 C 0 km/h
2854 13-04-2007 00:20:09 15.8 C 7.54 g/m*3 15.8 C 0 km/h
2855 13-04-2007 00:35:09 15.4 C 7.49 g/m*3 15.4 C 0 km/h
2856 13-04-2007 00:50:09 15.2 C 7.53 g/m*3 15.2 C 0 km/h
2857 13-04-2007 01:05:09 15.2 C 7.53 g/m*3 15.2 C 0 km/h
2858 13-04-2007 01:20:09 15.1 C 7.61 g/m*3 15.1 C 0 km/h
2859 13-04-2007 01:35:09 15 C 7.57 g/m*3 15 C 0 km/h
2860 13-04-2007 01:50:09 14.6 C 7.63 g/m*3 14.6 C 0 km/h
2861 13-04-2007 02:05:09 14.3 C 7.62 g/m*3 14.3 C 0 km/h
2862 13-04-2007 02:20:09 13.8 C 7.63 g/m*3 13.8 C 0 km/h
2863 13-04-2007 02:35:09 13.7 C 7.58 g/m*3 13.7 C 0 km/h
2864 13-04-2007 02:50:09 13.4 C 7.67 g/m*3 13.4 C 0 km/h
2865 13-04-2007 03:05:09 13 C 7.48 g/m*3 13 C 0 km/h
2866 13-04-2007 03:20:09 12.6 C 7.52 g/m*3 12.6 C 0 km/h
2867 13-04-2007 03:35:10 12.2 C 7.55 g/m*3 12.2 C 0 km/h
2868 13-04-2007 03:50:10 11.9 C 7.52 g/m*3 11.9 C 0 km/h
2869 13-04-2007 04:05:10 11.7 C 7.53 g/m*3 11.7 C 0 km/h
2870 13-04-2007 04:20:10 11.5 C 7.44 g/m*3 11.5 C 0 km/h
2871 13-04-2007 04:35:10 11.6 C 7.69 g/m*3 11.6 C 0 km/h
2872 13-04-2007 04:50:10 11.3 C 7.65 g/m*3 11.3 C 0 km/h
2873 13-04-2007 05:05:10 11.1 C 7.45 g/m*3 11.1 C 0 km/h
2874 13-04-2007 05:20:10 11.1 C 7.55 g/m*3 11.1 C 0 km/h
2875 13-04-2007 05:35:10 10.8 C 7.51 g/m*3 10.8 C 0 km/h
Sensor: Nr:Datum:Temp:Abs-Feuchte:Windchill:Wind:
Aussen-T/F 2876 13-04-2007 05:50:10 10.7 C 7.46 g/m*3 10.7 C 0 km/h
2877 13-04-2007 06:05:10 10.5 C 7.47 g/m*3 10.5 C 0 km/h
2878 13-04-2007 06:20:10 10.4 C 7.52 g/m*3 10.4 C 0 km/h
2879 13-04-2007 06:35:10 10.3 C 7.47 g/m*3 10.3 C 0 km/h
2880 13-04-2007 06:50:10 10.3 C 7.47 g/m*3 10.3 C 0 km/h
2881 13-04-2007 07:05:10 10.2 C 7.52 g/m*3 10.2 C 0 km/h
2882 13-04-2007 07:20:10 10.2 C 7.52 g/m*3 10.2 C 0 km/h
2883 13-04-2007 07:35:10 10.3 C 7.57 g/m*3 10.3 C 0 km/h
2884 13-04-2007 07:50:10 10.5 C 7.57 g/m*3 10.5 C 0 km/h
2885 13-04-2007 08:05:11 10.5 C 7.57 g/m*3 10.5 C 0 km/h
2886 13-04-2007 08:20:11 10.8 C 7.71 g/m*3 10.8 C 0 km/h
2887 13-04-2007 08:35:11 11.1 C 7.76 g/m*3 11.1 C 0 km/h
2888 13-04-2007 08:50:11 11.4 C 7.8 g/m*3 11.4 C 0 km/h
2889 13-04-2007 09:05:11 12 C 7.99 g/m*3 12 C 0 km/h
2890 13-04-2007 09:20:11 12.7 C 8.01 g/m*3 12.7 C 0 km/h
2891 13-04-2007 09:35:11 13 C 7.83 g/m*3 13 C 0 km/h
2892 13-04-2007 09:50:11 13.5 C 7.95 g/m*3 13.5 C 0 km/h
2893 13-04-2007 10:05:11 14 C 8.08 g/m*3 14 C 0 km/h
2894 13-04-2007 10:20:11 14.8 C 8.23 g/m*3 14.8 C 0 km/h
2895 13-04-2007 10:35:11 15.6 C 8.25 g/m*3 15.6 C 0 km/h
2896 13-04-2007 10:50:11 16.4 C 8.1 g/m*3 16.4 C 0 km/h
2897 13-04-2007 11:05:11 17.2 C 7.76 g/m*3 17.2 C 0 km/h
2898 13-04-2007 11:20:11 18.2 C 7.77 g/m*3 18.2 C 0 km/h
2899 13-04-2007 11:35:11 19.1 C 7.7 g/m*3 19.1 C 0 km/h
2900 13-04-2007 11:50:11 19.2 C 7.09 g/m*3 19.2 C 0 km/h
Sensor: Nr:Datum:Temp:Abs-Feuchte:Windchill:Wind:
Aussen-T/F 2901 13-04-2007 12:05:11 20 C 7.09 g/m*3 20 C 0 km/h
2902 13-04-2007 12:20:11 20.4 C 7.08 g/m*3 20.4 C 0 km/h
2903 13-04-2007 12:35:11 21.2 C 7.04 g/m*3 21.2 C 0 km/h
2904 13-04-2007 12:50:12 21.9 C 7.14 g/m*3 21.9 C 0 km/h
2905 13-04-2007 13:05:12 22.1 C 7.03 g/m*3 22.1 C 0 km/h
2906 13-04-2007 13:20:12 22.5 C 7.19 g/m*3 22.5 C 0 km/h
2907 13-04-2007 13:35:12 23.8 C 6.88 g/m*3 23.8 C 0 km/h
2908 13-04-2007 13:50:12 24.5 C 6.71 g/m*3 24.5 C 0 km/h
2909 13-04-2007 14:05:12 24.8 C 6.37 g/m*3 24.8 C 0 km/h
2910 13-04-2007 14:20:12 25.7 C 6.7 g/m*3 25.7 C 0 km/h
2911 13-04-2007 14:35:12 25.7 C 6.22 g/m*3 25.7 C 0 km/h
2912 13-04-2007 14:50:12 26.6 C 6.29 g/m*3 26.6 C 0 km/h
2913 13-04-2007 15:05:12 27.7 C 5.88 g/m*3 27.7 C 0 km/h
2914 13-04-2007 15:20:12 28.7 C 5.65 g/m*3 28.7 C 0 km/h
2915 13-04-2007 15:35:12 29 C 5.74 g/m*3 29 C 0 km/h
2916 13-04-2007 15:50:12 29.5 C 5.9 g/m*3 29.5 C 0 km/h
2917 13-04-2007 16:05:12 30.2 C 6.13 g/m*3 30.2 C 0 km/h
2918 13-04-2007 16:20:12 30.3 C 6.16 g/m*3 30.3 C 0 km/h
2919 13-04-2007 16:35:12 30.4 C 6.2 g/m*3 30.4 C 0 km/h
2920 13-04-2007 16:50:12 30.9 C 6.37 g/m*3 30.9 C 0 km/h
2921 13-04-2007 17:05:12 30.7 C 6.3 g/m*3 30.7 C 0 km/h
2922 13-04-2007 17:20:13 30.8 C 6.33 g/m*3 30.8 C 0 km/h
2923 13-04-2007 17:35:13 30.8 C 6.33 g/m*3 30.8 C 0 km/h
2924 13-04-2007 17:50:13 30.6 C 6.26 g/m*3 30.6 C 0 km/h
2925 13-04-2007 18:05:13 30.4 C 6.2 g/m*3 30.4 C 0 km/h
Sensor: Nr:Datum:Temp:Abs-Feuchte:Windchill:Wind:
Aussen-T/F 2926 13-04-2007 18:20:13 30.3 C 6.16 g/m*3 30.3 C 0 km/h
2927 13-04-2007 18:35:13 29.3 C 5.84 g/m*3 29.3 C 0 km/h
2928 13-04-2007 18:50:13 29.4 C 5.87 g/m*3 29.4 C 0 km/h
2929 13-04-2007 19:05:13 29 C 5.74 g/m*3 29 C 0 km/h
2930 13-04-2007 19:20:13 27.9 C 5.95 g/m*3 27.9 C 0 km/h
2931 13-04-2007 19:35:13 26.8 C 6.11 g/m*3 26.8 C 0 km/h
2932 13-04-2007 19:50:13 25.7 C 6.22 g/m*3 25.7 C 0 km/h
2933 13-04-2007 20:05:13 24.6 C 6.3 g/m*3 24.6 C 0 km/h
2934 13-04-2007 20:20:13 23.6 C 6.59 g/m*3 23.6 C 0 km/h
2935 13-04-2007 20:35:13 22.9 C 6.74 g/m*3 22.9 C 0 km/h
2936 13-04-2007 20:50:13 22.5 C 6.79 g/m*3 22.5 C 0 km/h
2937 13-04-2007 21:05:13 22.2 C 6.87 g/m*3 22.2 C 0 km/h
2938 13-04-2007 21:20:13 22.1 C 6.83 g/m*3 22.1 C 0 km/h
2939 13-04-2007 21:35:13 21.8 C 7.1 g/m*3 21.8 C 0 km/h
2940 13-04-2007 21:50:14 21.4 C 7.12 g/m*3 21.4 C 0 km/h
2941 13-04-2007 22:05:14 21.2 C 7.04 g/m*3 21.2 C 0 km/h
2942 13-04-2007 22:20:14 21.1 C 7.19 g/m*3 21.1 C 0 km/h
2943 13-04-2007 22:35:14 20.7 C 7.38 g/m*3 20.7 C 0 km/h
2944 13-04-2007 22:50:14 20.5 C 7.3 g/m*3 20.5 C 0 km/h
2945 13-04-2007 23:05:14 20.2 C 7.34 g/m*3 20.2 C 0 km/h
2946 13-04-2007 23:20:14 20.1 C 7.3 g/m*3 20.1 C 0 km/h
2947 13-04-2007 23:35:14 19.9 C 7.22 g/m*3 19.9 C 0 km/h
2948 13-04-2007 23:50:14 19.4 C 7.17 g/m*3 19.4 C 0 km/h
2949 14-04-2007 00:05:14 19.3 C 7.3 g/m*3 19.3 C 0 km/h
2950 14-04-2007 00:20:14 19.2 C 7.26 g/m*3 19.2 C 0 km/h
Sensor: Nr:Datum:Temp:Abs-Feuchte:Windchill:Wind:
Aussen-T/F 2951 14-04-2007 00:35:14 18.8 C 7.41 g/m*3 18.8 C 0 km/h
2952 14-04-2007 00:50:14 18.3 C 7.35 g/m*3 18.3 C 0 km/h
2953 14-04-2007 01:05:14 17.8 C 7.29 g/m*3 17.8 C 0 km/h
2954 14-04-2007 01:20:14 17.7 C 7.39 g/m*3 17.7 C 0 km/h
2955 14-04-2007 01:35:14 17.5 C 7.31 g/m*3 17.5 C 0 km/h
2956 14-04-2007 01:50:14 17.2 C 7.32 g/m*3 17.2 C 0 km/h
2957 14-04-2007 02:05:14 17 C 7.38 g/m*3 17 C 0 km/h
2958 14-04-2007 02:20:15 16.6 C 7.35 g/m*3 16.6 C 0 km/h
2959 14-04-2007 02:35:15 16.3 C 7.35 g/m*3 16.3 C 0 km/h
2960 14-04-2007 02:50:15 16.2 C 7.31 g/m*3 16.2 C 0 km/h
2961 14-04-2007 03:05:15 15.9 C 7.45 g/m*3 15.9 C 0 km/h
2962 14-04-2007 03:20:15 15.4 C 7.36 g/m*3 15.4 C 0 km/h
2963 14-04-2007 03:35:15 15 C 7.44 g/m*3 15 C 0 km/h
2964 14-04-2007 03:50:15 14.5 C 7.46 g/m*3 14.5 C 0 km/h
2965 14-04-2007 04:05:15 14.4 C 7.54 g/m*3 14.4 C 0 km/h
2966 14-04-2007 04:20:15 14.1 C 7.52 g/m*3 14.1 C 0 km/h
2967 14-04-2007 04:35:15 13.9 C 7.55 g/m*3 13.9 C 0 km/h
2968 14-04-2007 04:50:15 13.8 C 7.63 g/m*3 13.8 C 0 km/h
2969 14-04-2007 05:05:15 13.3 C 7.63 g/m*3 13.3 C 0 km/h
2970 14-04-2007 05:20:15 13 C 7.48 g/m*3 13 C 0 km/h
2971 14-04-2007 05:35:15 12.7 C 7.57 g/m*3 12.7 C 0 km/h
2972 14-04-2007 05:50:15 12.5 C 7.7 g/m*3 12.5 C 0 km/h
2973 14-04-2007 06:05:15 12.3 C 7.71 g/m*3 12.3 C 0 km/h
2974 14-04-2007 06:20:15 12 C 7.67 g/m*3 12 C 0 km/h
2975 14-04-2007 06:35:15 11.8 C 7.58 g/m*3 11.8 C 0 km/h
Sensor: Nr:Datum:Temp:Abs-Feuchte:Windchill:Wind:
Aussen-T/F 2976 14-04-2007 06:50:16 11.7 C 7.53 g/m*3 11.7 C 0 km/h
2977 14-04-2007 07:05:16 11.7 C 7.53 g/m*3 11.7 C 0 km/h
2978 14-04-2007 07:20:16 11.7 C 7.53 g/m*3 11.7 C 0 km/h
2979 14-04-2007 07:35:16 11.7 C 7.64 g/m*3 11.7 C 0 km/h
2980 14-04-2007 07:50:16 11.8 C 7.68 g/m*3 11.8 C 0 km/h
2981 14-04-2007 08:05:16 12.1 C 7.72 g/m*3 12.1 C 0 km/h
2982 14-04-2007 08:20:16 12.2 C 7.77 g/m*3 12.2 C 0 km/h
2983 14-04-2007 08:35:16 12.4 C 7.87 g/m*3 12.4 C 0 km/h
2984 14-04-2007 08:50:16 12.5 C 7.81 g/m*3 12.5 C 0 km/h
2985 14-04-2007 09:05:16 12.8 C 7.84 g/m*3 12.8 C 0 km/h
2986 14-04-2007 09:20:16 13.2 C 7.92 g/m*3 13.2 C 0 km/h
2987 14-04-2007 09:35:16 13.9 C 8.15 g/m*3 13.9 C 0 km/h
2988 14-04-2007 09:50:16 14.7 C 8.18 g/m*3 14.7 C 0 km/h
2989 14-04-2007 10:05:16 15.6 C 8.11 g/m*3 15.6 C 0 km/h
2990 14-04-2007 10:20:16 16.8 C 8.01 g/m*3 16.8 C 0 km/h
2991 14-04-2007 10:35:16 17.7 C 8.15 g/m*3 17.7 C 0 km/h
2992 14-04-2007 10:50:16 18.6 C 8.12 g/m*3 18.6 C 0 km/h
2993 14-04-2007 11:05:16 19.5 C 7.55 g/m*3 19.5 C 0 km/h
2994 14-04-2007 11:20:17 20.5 C 7.12 g/m*3 20.5 C 0 km/h
2995 14-04-2007 11:35:17 21.5 C 6.98 g/m*3 21.5 C 0 km/h
2996 14-04-2007 11:50:17 22.1 C 6.64 g/m*3 22.1 C 0 km/h
2997 14-04-2007 12:05:17 22.9 C 6.74 g/m*3 22.9 C 0 km/h
2998 14-04-2007 12:20:17 23.4 C 6.52 g/m*3 23.4 C 0 km/h
2999 14-04-2007 12:35:17 24.1 C 6.56 g/m*3 24.1 C 0 km/h
3000 14-04-2007 12:50:17 24.6 C 6.3 g/m*3 24.6 C 0 km/h
Sensor: Nr:Datum:Temp:Abs-Feuchte:Windchill:Wind:
Aussen-T/F 3001 14-04-2007 13:05:17 25 C 6.22 g/m*3 25 C 0 km/h
3002 14-04-2007 13:20:17 25.3 C 6.09 g/m*3 25.3 C 0 km/h
3003 14-04-2007 13:35:17 26.4 C 6.22 g/m*3 26.4 C 0 km/h
3004 14-04-2007 13:50:17 26.8 C 6.11 g/m*3 26.8 C 0 km/h
3005 14-04-2007 14:05:17 27.7 C 6.15 g/m*3 27.7 C 0 km/h
3006 14-04-2007 14:20:17 28.3 C 6.08 g/m*3 28.3 C 0 km/h
3007 14-04-2007 14:35:17 29 C 6.03 g/m*3 29 C 0 km/h
3008 14-04-2007 14:50:17 29.7 C 5.97 g/m*3 29.7 C 0 km/h
3009 14-04-2007 15:05:17 30.3 C 6.16 g/m*3 30.3 C 0 km/h
3010 14-04-2007 15:20:17 30.7 C 6.3 g/m*3 30.7 C 0 km/h
3011 14-04-2007 15:35:17 31 C 6.4 g/m*3 31 C 0 km/h
3012 14-04-2007 15:50:18 31 C 6.4 g/m*3 31 C 0 km/h
3013 14-04-2007 16:05:18 31.1 C 6.43 g/m*3 31.1 C 0 km/h
3014 14-04-2007 16:20:18 31.4 C 6.54 g/m*3 31.4 C 0 km/h
3015 14-04-2007 16:35:18 31.4 C 6.54 g/m*3 31.4 C 0 km/h
3016 14-04-2007 16:50:18 32 C 6.75 g/m*3 32 C 0 km/h
3017 14-04-2007 17:05:18 32.1 C 6.79 g/m*3 32.1 C 0 km/h
3018 14-04-2007 17:20:18 31.8 C 6.68 g/m*3 31.8 C 0 km/h
3019 14-04-2007 17:35:18 31.9 C 6.72 g/m*3 31.9 C 0 km/h
3020 14-04-2007 17:50:18 32 C 6.75 g/m*3 32 C 0 km/h
3021 14-04-2007 18:05:18 31.7 C 6.64 g/m*3 31.7 C 0 km/h
3022 14-04-2007 18:20:18 32 C 6.75 g/m*3 32 C 0 km/h
3023 14-04-2007 18:35:18 31.8 C 6.68 g/m*3 31.8 C 0 km/h
3024 14-04-2007 18:50:18 31.5 C 6.57 g/m*3 31.5 C 0 km/h
3025 14-04-2007 19:05:18 31.2 C 6.47 g/m*3 31.2 C 0 km/h
Sensor: Nr:Datum:Temp:Abs-Feuchte:Windchill:Wind:
Aussen-T/F 3026 14-04-2007 19:20:18 30.8 C 6.33 g/m*3 30.8 C 0 km/h
3027 14-04-2007 19:35:18 30.6 C 6.26 g/m*3 30.6 C 0 km/h
3028 14-04-2007 19:50:18 30 C 6.06 g/m*3 30 C 0 km/h
3029 14-04-2007 20:05:19 27.4 C 5.26 g/m*3 27.4 C 0 km/h
3030 14-04-2007 20:20:19 25.9 C 4.84 g/m*3 25.9 C 0 km/h
3031 14-04-2007 20:35:19 24.6 C 4.5 g/m*3 24.6 C 0 km/h
3032 14-04-2007 20:50:19 24.2 C 4.4 g/m*3 24.2 C 0 km/h
3033 14-04-2007 21:05:19 23.5 C 4.44 g/m*3 23.5 C 0 km/h
3034 14-04-2007 21:20:19 23 C 4.32 g/m*3 23 C 0 km/h
3035 14-04-2007 21:35:19 22.8 C 5.08 g/m*3 22.8 C 0 km/h
3036 14-04-2007 21:50:19 22.6 C 5.42 g/m*3 22.6 C 0 km/h
3037 14-04-2007 22:05:19 22.3 C 5.92 g/m*3 22.3 C 0 km/h
3038 14-04-2007 22:20:19 22.1 C 6.44 g/m*3 22.1 C 0 km/h
3039 14-04-2007 22:35:19 21.3 C 6.71 g/m*3 21.3 C 0 km/h
3040 14-04-2007 22:50:19 20.9 C 7.1 g/m*3 20.9 C 0 km/h
3041 14-04-2007 23:05:19 20.4 C 7.08 g/m*3 20.4 C 0 km/h
3042 14-04-2007 23:20:19 20.1 C 7.13 g/m*3 20.1 C 0 km/h
3043 14-04-2007 23:35:19 19.9 C 7.22 g/m*3 19.9 C 0 km/h
3044 14-04-2007 23:50:19 19.7 C 7.13 g/m*3 19.7 C 0 km/h
3045 15-04-2007 00:05:19 19.6 C 7.09 g/m*3 19.6 C 0 km/h
3046 15-04-2007 00:20:19 19.3 C 6.97 g/m*3 19.3 C 0 km/h
3047 15-04-2007 00:35:20 19 C 6.84 g/m*3 19 C 0 km/h
3048 15-04-2007 00:50:20 18.7 C 6.88 g/m*3 18.7 C 0 km/h
3049 15-04-2007 01:05:20 18.5 C 6.8 g/m*3 18.5 C 0 km/h
3050 15-04-2007 01:20:20 18.2 C 6.68 g/m*3 18.2 C 0 km/h
Sensor: Nr:Datum:Temp:Abs-Feuchte:Windchill:Wind:
Aussen-T/F 3051 15-04-2007 01:35:20 18 C 6.6 g/m*3 18 C 0 km/h
3052 15-04-2007 01:50:20 17.8 C 6.83 g/m*3 17.8 C 0 km/h
3053 15-04-2007 02:05:20 17.4 C 6.82 g/m*3 17.4 C 0 km/h
3054 15-04-2007 02:20:20 17 C 6.95 g/m*3 17 C 0 km/h
3055 15-04-2007 02:35:20 16.7 C 6.82 g/m*3 16.7 C 0 km/h
3056 15-04-2007 02:50:20 16.4 C 6.84 g/m*3 16.4 C 0 km/h
3057 15-04-2007 03:05:20 15.9 C 6.91 g/m*3 15.9 C 0 km/h
3058 15-04-2007 03:20:20 15.1 C 6.97 g/m*3 15.1 C 0 km/h
3059 15-04-2007 03:35:20 14.6 C 7.13 g/m*3 14.6 C 0 km/h
3060 15-04-2007 03:50:20 14 C 7 g/m*3 14 C 0 km/h
3061 15-04-2007 04:05:20 13.8 C 7.15 g/m*3 13.8 C 0 km/h
3062 15-04-2007 04:20:20 13.5 C 7.25 g/m*3 13.5 C 0 km/h
3063 15-04-2007 04:35:20 13.1 C 7.07 g/m*3 13.1 C 0 km/h
3064 15-04-2007 04:50:20 13 C 7.14 g/m*3 13 C 0 km/h
3065 15-04-2007 05:05:20 12.7 C 7.12 g/m*3 12.7 C 0 km/h
3066 15-04-2007 05:20:20 12.5 C 7.15 g/m*3 12.5 C 0 km/h
3067 15-04-2007 05:35:21 12.1 C 7.08 g/m*3 12.1 C 0 km/h
3068 15-04-2007 05:50:21 11.7 C 7.22 g/m*3 11.7 C 0 km/h
3069 15-04-2007 06:05:21 11.5 C 7.13 g/m*3 11.5 C 0 km/h
3070 15-04-2007 06:20:21 11.3 C 7.14 g/m*3 11.3 C 0 km/h
3071 15-04-2007 06:35:21 11.1 C 7.05 g/m*3 11.1 C 0 km/h
3072 15-04-2007 06:50:21 10.7 C 7.07 g/m*3 10.7 C 0 km/h
3073 15-04-2007 07:05:21 10.7 C 7.17 g/m*3 10.7 C 0 km/h
3074 15-04-2007 07:20:21 10.6 C 7.22 g/m*3 10.6 C 0 km/h
3075 15-04-2007 07:35:21 10.6 C 7.22 g/m*3 10.6 C 0 km/h
Sensor: Nr:Datum:Temp:Abs-Feuchte:Windchill:Wind:
Aussen-T/F 3076 15-04-2007 07:50:21 10.7 C 7.17 g/m*3 10.7 C 0 km/h
3077 15-04-2007 08:05:21 10.8 C 7.22 g/m*3 10.8 C 0 km/h
3078 15-04-2007 08:20:21 10.9 C 7.26 g/m*3 10.9 C 0 km/h
3079 15-04-2007 08:35:21 11.2 C 7.3 g/m*3 11.2 C 0 km/h
3080 15-04-2007 08:50:21 11.7 C 7.43 g/m*3 11.7 C 0 km/h
3081 15-04-2007 09:05:21 12 C 7.35 g/m*3 12 C 0 km/h
3082 15-04-2007 09:20:21 12.5 C 7.59 g/m*3 12.5 C 0 km/h
3083 15-04-2007 09:35:21 13.3 C 7.74 g/m*3 13.3 C 0 km/h
3084 15-04-2007 09:50:21 14.5 C 7.84 g/m*3 14.5 C 0 km/h
3085 15-04-2007 10:05:21 15.4 C 7.62 g/m*3 15.4 C 0 km/h
3086 15-04-2007 10:20:22 16.4 C 7.68 g/m*3 16.4 C 0 km/h
3087 15-04-2007 10:35:22 17.4 C 7.85 g/m*3 17.4 C 0 km/h
3088 15-04-2007 10:50:22 18.3 C 7.82 g/m*3 18.3 C 0 km/h
3089 15-04-2007 11:05:22 19.7 C 6.79 g/m*3 19.7 C 0 km/h
3090 15-04-2007 11:20:22 20.8 C 6.52 g/m*3 20.8 C 0 km/h
3091 15-04-2007 11:35:22 21.7 C 6.49 g/m*3 21.7 C 0 km/h
3092 15-04-2007 11:50:22 22.3 C 6.12 g/m*3 22.3 C 0 km/h
3093 15-04-2007 12:05:22 23.2 C 5.61 g/m*3 23.2 C 0 km/h
3094 15-04-2007 12:20:22 23.9 C 5.62 g/m*3 23.9 C 0 km/h
3095 15-04-2007 12:35:22 24.4 C 4.67 g/m*3 24.4 C 0 km/h
3096 15-04-2007 12:50:22 24.9 C 4.81 g/m*3 24.9 C 0 km/h
3097 15-04-2007 13:05:22 25.5 C 4.97 g/m*3 25.5 C 0 km/h
3098 15-04-2007 13:20:22 26 C 4.87 g/m*3 26 C 0 km/h
3099 15-04-2007 13:35:22 26.5 C 5.01 g/m*3 26.5 C 0 km/h
3100 15-04-2007 13:50:22 27.3 C 5.23 g/m*3 27.3 C 0 km/h
Sensor: Nr:Datum:Temp:Abs-Feuchte:Windchill:Wind:
Aussen-T/F 3101 15-04-2007 14:05:22 28 C 5.44 g/m*3 28 C 0 km/h
3102 15-04-2007 14:20:22 28.8 C 5.68 g/m*3 28.8 C 0 km/h
3103 15-04-2007 14:35:22 29.4 C 5.87 g/m*3 29.4 C 0 km/h
3104 15-04-2007 14:50:23 30 C 6.06 g/m*3 30 C 0 km/h
3105 15-04-2007 15:05:23 30.1 C 6.1 g/m*3 30.1 C 0 km/h
3106 15-04-2007 15:20:23 30.5 C 6.23 g/m*3 30.5 C 0 km/h
3107 15-04-2007 15:35:23 30.8 C 6.33 g/m*3 30.8 C 0 km/h
3108 15-04-2007 15:50:23 31.1 C 6.43 g/m*3 31.1 C 0 km/h
3109 15-04-2007 16:05:23 31.2 C 6.47 g/m*3 31.2 C 0 km/h
3110 15-04-2007 16:20:23 31.7 C 6.64 g/m*3 31.7 C 0 km/h
3111 15-04-2007 16:35:23 31.5 C 6.57 g/m*3 31.5 C 0 km/h
3112 15-04-2007 16:50:23 32.1 C 6.79 g/m*3 32.1 C 0 km/h
3113 15-04-2007 17:05:23 32 C 6.75 g/m*3 32 C 0 km/h
3114 15-04-2007 17:20:23 32.1 C 6.79 g/m*3 32.1 C 0 km/h
3115 15-04-2007 17:35:23 32 C 6.75 g/m*3 32 C 0 km/h
3116 15-04-2007 17:50:23 32 C 6.75 g/m*3 32 C 0 km/h
3117 15-04-2007 18:05:23 32 C 6.75 g/m*3 32 C 0 km/h
3118 15-04-2007 18:20:23 31.8 C 6.68 g/m*3 31.8 C 0 km/h
3119 15-04-2007 18:35:23 31.8 C 6.68 g/m*3 31.8 C 0 km/h
3120 15-04-2007 18:50:23 31.7 C 6.64 g/m*3 31.7 C 0 km/h
3121 15-04-2007 19:05:24 31.5 C 6.57 g/m*3 31.5 C 0 km/h
3122 15-04-2007 19:20:24 31.3 C 6.5 g/m*3 31.3 C 0 km/h
3123 15-04-2007 19:35:24 30.7 C 6.3 g/m*3 30.7 C 0 km/h
3124 15-04-2007 19:50:24 29.9 C 6.03 g/m*3 29.9 C 0 km/h
3125 15-04-2007 20:05:24 28 C 5.44 g/m*3 28 C 0 km/h
Sensor: Nr:Datum:Temp:Abs-Feuchte:Windchill:Wind:
Aussen-T/F 3126 15-04-2007 20:20:24 26.1 C 4.9 g/m*3 26.1 C 0 km/h
3127 15-04-2007 20:35:24 24.6 C 4.5 g/m*3 24.6 C 0 km/h
3128 15-04-2007 20:50:24 23.6 C 4.25 g/m*3 23.6 C 0 km/h
3129 15-04-2007 21:05:24 22.8 C 4.06 g/m*3 22.8 C 0 km/h
3130 15-04-2007 21:20:24 22.2 C 4.32 g/m*3 22.2 C 0 km/h
3131 15-04-2007 21:35:24 21.6 C 4.55 g/m*3 21.6 C 0 km/h
3132 15-04-2007 21:50:24 21 C 4.58 g/m*3 21 C 0 km/h
3133 15-04-2007 22:05:24 20.5 C 4.63 g/m*3 20.5 C 0 km/h
3134 15-04-2007 22:20:24 19.9 C 5.15 g/m*3 19.9 C 0 km/h
3135 15-04-2007 22:35:24 19.5 C 5.2 g/m*3 19.5 C 0 km/h
3136 15-04-2007 22:50:24 18.7 C 5.12 g/m*3 18.7 C 0 km/h
3137 15-04-2007 23:05:24 18.3 C 5.32 g/m*3 18.3 C 0 km/h
3138 15-04-2007 23:20:24 17.2 C 5.56 g/m*3 17.2 C 0 km/h
3139 15-04-2007 23:35:24 16.8 C 5.86 g/m*3 16.8 C 0 km/h
3140 15-04-2007 23:50:24 16.4 C 5.58 g/m*3 16.4 C 0 km/h
3141 16-04-2007 00:05:25 16.3 C 5.41 g/m*3 16.3 C 0 km/h
3142 16-04-2007 00:20:25 16 C 5.45 g/m*3 16 C 0 km/h
3143 16-04-2007 00:35:25 15.6 C 5.59 g/m*3 15.6 C 0 km/h
3144 16-04-2007 00:50:25 14.7 C 5.67 g/m*3 14.7 C 0 km/h
3145 16-04-2007 01:05:25 14.6 C 5.63 g/m*3 14.6 C 0 km/h
3146 16-04-2007 01:20:25 14.3 C 5.41 g/m*3 14.3 C 0 km/h
3147 16-04-2007 01:35:25 14.2 C 5.37 g/m*3 14.2 C 0 km/h
3148 16-04-2007 01:50:25 14.1 C 5.46 g/m*3 14.1 C 0 km/h
3149 16-04-2007 02:05:25 13.7 C 5.45 g/m*3 13.7 C 0 km/h
3150 16-04-2007 02:20:25 13.5 C 5.5 g/m*3 13.5 C 0 km/h
Sensor: Nr:Datum:Temp:Abs-Feuchte:Windchill:Wind:
Aussen-T/F 3151 16-04-2007 02:35:25 13.2 C 5.63 g/m*3 13.2 C 0 km/h
3152 16-04-2007 02:50:25 13 C 5.67 g/m*3 13 C 0 km/h
3153 16-04-2007 03:05:25 12.8 C 5.82 g/m*3 12.8 C 0 km/h
3154 16-04-2007 03:20:25 12.4 C 5.68 g/m*3 12.4 C 0 km/h
3155 16-04-2007 03:35:25 12.2 C 5.83 g/m*3 12.2 C 0 km/h
3156 16-04-2007 03:50:25 11.9 C 5.93 g/m*3 11.9 C 0 km/h
3157 16-04-2007 04:05:25 11.8 C 5.79 g/m*3 11.8 C 0 km/h
3158 16-04-2007 04:20:26 11.4 C 5.85 g/m*3 11.4 C 0 km/h
3159 16-04-2007 04:35:26 11.1 C 5.74 g/m*3 11.1 C 0 km/h
3160 16-04-2007 04:50:26 10.9 C 5.87 g/m*3 10.9 C 0 km/h
3161 16-04-2007 05:05:26 10.8 C 5.93 g/m*3 10.8 C 0 km/h
3162 16-04-2007 05:20:26 10.5 C 5.92 g/m*3 10.5 C 0 km/h
3163 16-04-2007 05:35:26 10.2 C 5.9 g/m*3 10.2 C 0 km/h
3164 16-04-2007 05:50:26 10.1 C 5.96 g/m*3 10.1 C 0 km/h
3165 16-04-2007 06:05:26 9.8 C 6.03 g/m*3 9.8 C 0 km/h
3166 16-04-2007 06:20:26 9.8 C 6.03 g/m*3 9.8 C 0 km/h
3167 16-04-2007 06:35:26 9.4 C 5.97 g/m*3 9.4 C 0 km/h
3168 16-04-2007 06:50:26 9.2 C 5.89 g/m*3 9.2 C 0 km/h
3169 16-04-2007 07:05:26 9.2 C 5.98 g/m*3 9.2 C 0 km/h
3170 16-04-2007 07:20:26 9.1 C 5.94 g/m*3 9.1 C 0 km/h
3171 16-04-2007 07:35:26 9.2 C 5.98 g/m*3 9.2 C 0 km/h
3172 16-04-2007 07:50:26 9.3 C 6.11 g/m*3 9.3 C 0 km/h
3173 16-04-2007 08:05:26 9.3 C 6.11 g/m*3 9.3 C 0 km/h
3174 16-04-2007 08:20:26 9.6 C 6.23 g/m*3 9.6 C 0 km/h
3175 16-04-2007 08:35:26 10 C 6.3 g/m*3 10 C 0 km/h
Sensor: Nr:Datum:Temp:Abs-Feuchte:Windchill:Wind:
Aussen-T/F 3176 16-04-2007 08:50:27 10.3 C 6.32 g/m*3 10.3 C 0 km/h
3177 16-04-2007 09:05:27 10.8 C 6.42 g/m*3 10.8 C 0 km/h
3178 16-04-2007 09:20:27 11.3 C 6.43 g/m*3 11.3 C 0 km/h
3179 16-04-2007 09:35:27 12.1 C 6.54 g/m*3 12.1 C 0 km/h
3180 16-04-2007 09:50:27 13 C 6.46 g/m*3 13 C 0 km/h
3181 16-04-2007 10:05:27 13.9 C 6.59 g/m*3 13.9 C 0 km/h
3182 16-04-2007 10:20:27 14.7 C 6.67 g/m*3 14.7 C 0 km/h
3183 16-04-2007 10:35:27 16 C 6.54 g/m*3 16 C 0 km/h
3184 16-04-2007 10:50:27 16.7 C 6.68 g/m*3 16.7 C 0 km/h
3185 16-04-2007 11:05:27 17.9 C 6.87 g/m*3 17.9 C 0 km/h
3186 16-04-2007 11:20:27 18.9 C 7.13 g/m*3 18.9 C 0 km/h
3187 16-04-2007 11:35:27 20.2 C 6.99 g/m*3 20.2 C 0 km/h
3188 16-04-2007 11:50:27 21.2 C 6.49 g/m*3 21.2 C 0 km/h
3189 16-04-2007 12:05:27 21.5 C 6.03 g/m*3 21.5 C 0 km/h
3190 16-04-2007 12:20:27 21.9 C 5.98 g/m*3 21.9 C 0 km/h
3191 16-04-2007 12:35:27 22.7 C 5.86 g/m*3 22.7 C 0 km/h
3192 16-04-2007 12:50:27 23.5 C 6.13 g/m*3 23.5 C 0 km/h
3193 16-04-2007 13:05:27 24.2 C 5.5 g/m*3 24.2 C 0 km/h
3194 16-04-2007 13:20:27 24.7 C 5.21 g/m*3 24.7 C 0 km/h
3195 16-04-2007 13:35:28 25.7 C 4.79 g/m*3 25.7 C 0 km/h
3196 16-04-2007 13:50:28 26.6 C 5.03 g/m*3 26.6 C 0 km/h
3197 16-04-2007 14:05:28 27.4 C 5.26 g/m*3 27.4 C 0 km/h
3198 16-04-2007 14:20:28 27.8 C 5.38 g/m*3 27.8 C 0 km/h
3199 16-04-2007 14:35:28 28.9 C 5.71 g/m*3 28.9 C 0 km/h
3200 16-04-2007 14:50:28 29.5 C 5.9 g/m*3 29.5 C 0 km/h
Sensor: Nr:Datum:Temp:Abs-Feuchte:Windchill:Wind:
Aussen-T/F 3201 16-04-2007 15:05:28 29.7 C 5.97 g/m*3 29.7 C 0 km/h
3202 16-04-2007 15:20:28 29.4 C 5.87 g/m*3 29.4 C 0 km/h
3203 16-04-2007 15:35:28 30.3 C 6.16 g/m*3 30.3 C 0 km/h
3204 16-04-2007 15:50:28 30.4 C 6.2 g/m*3 30.4 C 0 km/h
3205 16-04-2007 16:05:28 31 C 6.4 g/m*3 31 C 0 km/h
3206 16-04-2007 16:20:28 31 C 6.4 g/m*3 31 C 0 km/h
3207 16-04-2007 16:35:28 31.7 C 6.64 g/m*3 31.7 C 0 km/h
3208 16-04-2007 16:50:28 31.9 C 6.72 g/m*3 31.9 C 0 km/h
3209 16-04-2007 17:05:17 31.5 C 6.57 g/m*3 31.5 C 0 km/h
3210 16-04-2007 17:20:43 32 C 6.75 g/m*3 32 C 0 km/h
3211 16-04-2007 17:35:01 31.5 C 6.57 g/m*3 31.5 C 0 km/h
3212 16-04-2007 17:50:27 31.3 C 6.5 g/m*3 31.3 C 0 km/h
3213 16-04-2007 18:05:42 31.1 C 6.43 g/m*3 31.1 C 0 km/h
3214 16-04-2007 18:20:10 31.2 C 6.47 g/m*3 31.2 C 0 km/h
3215 16-04-2007 18:35:01 31.2 C 6.47 g/m*3 31.2 C 0 km/h
3216 16-04-2007 18:50:02 31.2 C 6.47 g/m*3 31.2 C 0 km/h
3217 16-04-2007 19:05:01 30.8 C 6.33 g/m*3 30.8 C 0 km/h
3218 16-04-2007 19:20:01 30.9 C 6.37 g/m*3 30.9 C 0 km/h
3219 16-04-2007 19:35:01 30.3 C 6.16 g/m*3 30.3 C 0 km/h
3220 16-04-2007 19:50:01 29.1 C 5.78 g/m*3 29.1 C 0 km/h
3221 16-04-2007 20:05:02 27.4 C 5.26 g/m*3 27.4 C 0 km/h
3222 16-04-2007 20:20:01 25.2 C 4.66 g/m*3 25.2 C 0 km/h
3223 16-04-2007 20:35:01 24 C 4.35 g/m*3 24 C 0 km/h
3224 16-04-2007 20:50:01 23 C 4.73 g/m*3 23 C 0 km/h
3225 16-04-2007 21:05:02 22.3 C 4.94 g/m*3 22.3 C 0 km/h
Sensor: Nr:Datum:Temp:Abs-Feuchte:Windchill:Wind:
Aussen-T/F 3226 16-04-2007 21:20:02 21.7 C 5.15 g/m*3 21.7 C 0 km/h
3227 16-04-2007 21:35:02 21.3 C 5.22 g/m*3 21.3 C 0 km/h
3228 16-04-2007 21:50:02 20.8 C 5.43 g/m*3 20.8 C 0 km/h
3229 16-04-2007 22:05:02 20.4 C 5.31 g/m*3 20.4 C 0 km/h
3230 16-04-2007 22:20:02 19.8 C 5.47 g/m*3 19.8 C 0 km/h
3231 16-04-2007 22:35:02 19.1 C 5.57 g/m*3 19.1 C 0 km/h
3232 16-04-2007 22:50:02 18.7 C 5.44 g/m*3 18.7 C 0 km/h
3233 16-04-2007 23:05:03 18.4 C 5.5 g/m*3 18.4 C 0 km/h
3234 16-04-2007 23:20:02 17.7 C 5.73 g/m*3 17.7 C 0 km/h
3235 16-04-2007 23:35:03 17.2 C 5.86 g/m*3 17.2 C 0 km/h
3236 16-04-2007 23:50:02 16.9 C 5.75 g/m*3 16.9 C 0 km/h
3237 17-04-2007 00:05:03 16.7 C 5.83 g/m*3 16.7 C 0 km/h
3238 17-04-2007 00:20:04 16.4 C 5.72 g/m*3 16.4 C 0 km/h
3239 17-04-2007 00:35:03 16 C 5.86 g/m*3 16 C 0 km/h
3240 17-04-2007 00:50:03 15.7 C 6.02 g/m*3 15.7 C 0 km/h
3241 17-04-2007 01:05:03 15.1 C 6.19 g/m*3 15.1 C 0 km/h